<?xml version="1.0" encoding="UTF-8" standalone="no" ?>
<gpx xmlns="http://www.topografix.com/GPX/1/1" xmlns:xsi="http://www.w3.org/2001/XMLSchema-instance" xsi:schemaLocation="http://www.topografix.com/GPX/1/1 http://www.topografix.com/GPX/1/1/gpx.xsd" version="1.1" creator="VisuGPX - https://www.visugpx.com">
  <metadata>
    <name>Auvernier, Port de Bevaix</name>
  </metadata>
  <trk>
    <name><![CDATA[Auvernier, Port de Bevaix_1]]></name>
    <trkseg>
      <trkpt lat="46.97302" lon="6.87513">
        <ele>430.52</ele>
        <time>2021-02-04T10:00:00.000Z</time>
      </trkpt>
      <trkpt lat="46.97301" lon="6.87511">
        <ele>430.45</ele>
        <time>2021-02-04T10:00:00.411Z</time>
      </trkpt>
      <trkpt lat="46.9729" lon="6.87491">
        <ele>430.73</ele>
        <time>2021-02-04T10:00:19.912Z</time>
      </trkpt>
      <trkpt lat="46.97286" lon="6.87499">
        <ele>430.61</ele>
        <time>2021-02-04T10:00:22.026Z</time>
      </trkpt>
      <trkpt lat="46.97283" lon="6.87501">
        <ele>430.55</ele>
        <time>2021-02-04T10:00:23.050Z</time>
      </trkpt>
      <trkpt lat="46.97277" lon="6.87503">
        <ele>430.45</ele>
        <time>2021-02-04T10:00:25.007Z</time>
      </trkpt>
      <trkpt lat="46.97271" lon="6.87505">
        <ele>430.13</ele>
        <time>2021-02-04T10:00:26.367Z</time>
      </trkpt>
      <trkpt lat="46.97269" lon="6.87506">
        <ele>430.13</ele>
        <time>2021-02-04T10:00:28.374Z</time>
      </trkpt>
      <trkpt lat="46.97269" lon="6.87507">
        <ele>430.13</ele>
        <time>2021-02-04T10:00:29.022Z</time>
      </trkpt>
      <trkpt lat="46.97271" lon="6.87517">
        <ele>429.6</ele>
        <time>2021-02-04T10:00:30.547Z</time>
      </trkpt>
      <trkpt lat="46.97272" lon="6.87522">
        <ele>429.38</ele>
        <time>2021-02-04T10:00:31.272Z</time>
      </trkpt>
      <trkpt lat="46.97272" lon="6.87523">
        <ele>429.38</ele>
        <time>2021-02-04T10:00:31.920Z</time>
      </trkpt>
      <trkpt lat="46.97272" lon="6.87524">
        <ele>429.38</ele>
        <time>2021-02-04T10:00:32.568Z</time>
      </trkpt>
      <trkpt lat="46.97271" lon="6.87525">
        <ele>429.38</ele>
        <time>2021-02-04T10:00:33.718Z</time>
      </trkpt>
      <trkpt lat="46.97269" lon="6.87524">
        <ele>429.38</ele>
        <time>2021-02-04T10:00:35.725Z</time>
      </trkpt>
      <trkpt lat="46.97264" lon="6.87512">
        <ele>428.62</ele>
        <time>2021-02-04T10:00:37.783Z</time>
      </trkpt>
      <trkpt lat="46.97263" lon="6.87509">
        <ele>428.43</ele>
        <time>2021-02-04T10:00:38.272Z</time>
      </trkpt>
      <trkpt lat="46.97262" lon="6.87508">
        <ele>428.43</ele>
        <time>2021-02-04T10:00:39.422Z</time>
      </trkpt>
      <trkpt lat="46.97261" lon="6.87507">
        <ele>428.43</ele>
        <time>2021-02-04T10:00:40.571Z</time>
      </trkpt>
      <trkpt lat="46.97211" lon="6.87552">
        <ele>428.94</ele>
        <time>2021-02-04T10:01:41.119Z</time>
      </trkpt>
      <trkpt lat="46.9721" lon="6.87553">
        <ele>428.94</ele>
        <time>2021-02-04T10:01:42.268Z</time>
      </trkpt>
      <trkpt lat="46.97207" lon="6.87556">
        <ele>429.02</ele>
        <time>2021-02-04T10:01:46.590Z</time>
      </trkpt>
      <trkpt lat="46.97199" lon="6.87562">
        <ele>430.52</ele>
        <time>2021-02-04T10:02:19.511Z</time>
      </trkpt>
      <trkpt lat="46.97193" lon="6.87548">
        <ele>430.43</ele>
        <time>2021-02-04T10:02:23.504Z</time>
      </trkpt>
      <trkpt lat="46.9719" lon="6.87546">
        <ele>430.61</ele>
        <time>2021-02-04T10:02:29.148Z</time>
      </trkpt>
      <trkpt lat="46.97186" lon="6.8754">
        <ele>430.66</ele>
        <time>2021-02-04T10:02:35.057Z</time>
      </trkpt>
      <trkpt lat="46.97183" lon="6.87535">
        <ele>430.68</ele>
        <time>2021-02-04T10:02:39.553Z</time>
      </trkpt>
      <trkpt lat="46.97183" lon="6.87534">
        <ele>430.68</ele>
        <time>2021-02-04T10:02:40.201Z</time>
      </trkpt>
      <trkpt lat="46.97182" lon="6.87533">
        <ele>430.71</ele>
        <time>2021-02-04T10:02:41.688Z</time>
      </trkpt>
      <trkpt lat="46.97179" lon="6.87526">
        <ele>430.9</ele>
        <time>2021-02-04T10:02:49.436Z</time>
      </trkpt>
      <trkpt lat="46.97174" lon="6.87513">
        <ele>431.13</ele>
        <time>2021-02-04T10:03:01.630Z</time>
      </trkpt>
      <trkpt lat="46.9717" lon="6.87504">
        <ele>431.18</ele>
        <time>2021-02-04T10:03:09.054Z</time>
      </trkpt>
      <trkpt lat="46.97162" lon="6.87508">
        <ele>431.14</ele>
        <time>2021-02-04T10:03:16.540Z</time>
      </trkpt>
      <trkpt lat="46.97158" lon="6.8751">
        <ele>431.17</ele>
        <time>2021-02-04T10:03:20.833Z</time>
      </trkpt>
      <trkpt lat="46.97154" lon="6.87511">
        <ele>431.1</ele>
        <time>2021-02-04T10:03:22.108Z</time>
      </trkpt>
      <trkpt lat="46.97147" lon="6.87511">
        <ele>431.03</ele>
        <time>2021-02-04T10:03:24.519Z</time>
      </trkpt>
      <trkpt lat="46.97142" lon="6.87511">
        <ele>430.96</ele>
        <time>2021-02-04T10:03:26.154Z</time>
      </trkpt>
      <trkpt lat="46.97136" lon="6.87514">
        <ele>430.96</ele>
        <time>2021-02-04T10:03:32.175Z</time>
      </trkpt>
      <trkpt lat="46.97131" lon="6.87517">
        <ele>430.82</ele>
        <time>2021-02-04T10:03:33.712Z</time>
      </trkpt>
      <trkpt lat="46.97128" lon="6.87521">
        <ele>430.78</ele>
        <time>2021-02-04T10:03:35.111Z</time>
      </trkpt>
      <trkpt lat="46.97126" lon="6.87525">
        <ele>430.79</ele>
        <time>2021-02-04T10:03:38.414Z</time>
      </trkpt>
      <trkpt lat="46.97125" lon="6.87528">
        <ele>430.75</ele>
        <time>2021-02-04T10:03:39.128Z</time>
      </trkpt>
      <trkpt lat="46.97125" lon="6.8753">
        <ele>430.75</ele>
        <time>2021-02-04T10:03:40.424Z</time>
      </trkpt>
      <trkpt lat="46.97119" lon="6.8753">
        <ele>430.73</ele>
        <time>2021-02-04T10:03:45.845Z</time>
      </trkpt>
      <trkpt lat="46.97119" lon="6.87526">
        <ele>430.71</ele>
        <time>2021-02-04T10:03:46.820Z</time>
      </trkpt>
      <trkpt lat="46.97111" lon="6.87502">
        <ele>430.64</ele>
        <time>2021-02-04T10:04:03.168Z</time>
      </trkpt>
      <trkpt lat="46.97111" lon="6.87501">
        <ele>430.64</ele>
        <time>2021-02-04T10:04:03.816Z</time>
      </trkpt>
      <trkpt lat="46.97106" lon="6.87487">
        <ele>430.57</ele>
        <time>2021-02-04T10:04:13.131Z</time>
      </trkpt>
      <trkpt lat="46.97105" lon="6.87485">
        <ele>430.52</ele>
        <time>2021-02-04T10:04:13.593Z</time>
      </trkpt>
      <trkpt lat="46.97103" lon="6.87482">
        <ele>430.75</ele>
        <time>2021-02-04T10:04:19.526Z</time>
      </trkpt>
      <trkpt lat="46.971" lon="6.87474">
        <ele>430.54</ele>
        <time>2021-02-04T10:04:21.158Z</time>
      </trkpt>
      <trkpt lat="46.97093" lon="6.87454">
        <ele>430.5</ele>
        <time>2021-02-04T10:04:35.165Z</time>
      </trkpt>
      <trkpt lat="46.97092" lon="6.87444">
        <ele>430.62</ele>
        <time>2021-02-04T10:04:42.957Z</time>
      </trkpt>
      <trkpt lat="46.97091" lon="6.8744">
        <ele>430.38</ele>
        <time>2021-02-04T10:04:43.581Z</time>
      </trkpt>
      <trkpt lat="46.97088" lon="6.87431">
        <ele>430.38</ele>
        <time>2021-02-04T10:04:50.072Z</time>
      </trkpt>
      <trkpt lat="46.97075" lon="6.87399">
        <ele>430.63</ele>
        <time>2021-02-04T10:05:16.598Z</time>
      </trkpt>
      <trkpt lat="46.97062" lon="6.8737">
        <ele>430.59</ele>
        <time>2021-02-04T10:05:38.517Z</time>
      </trkpt>
      <trkpt lat="46.97058" lon="6.87359">
        <ele>430.6</ele>
        <time>2021-02-04T10:05:46.683Z</time>
      </trkpt>
      <trkpt lat="46.97054" lon="6.87348">
        <ele>430.75</ele>
        <time>2021-02-04T10:05:56.318Z</time>
      </trkpt>
      <trkpt lat="46.97054" lon="6.87343">
        <ele>430.69</ele>
        <time>2021-02-04T10:05:57.385Z</time>
      </trkpt>
      <trkpt lat="46.97055" lon="6.87338">
        <ele>430.75</ele>
        <time>2021-02-04T10:06:01.379Z</time>
      </trkpt>
      <trkpt lat="46.97057" lon="6.87332">
        <ele>430.78</ele>
        <time>2021-02-04T10:06:05.985Z</time>
      </trkpt>
      <trkpt lat="46.97059" lon="6.87329">
        <ele>430.73</ele>
        <time>2021-02-04T10:06:06.882Z</time>
      </trkpt>
      <trkpt lat="46.97062" lon="6.87325">
        <ele>430.73</ele>
        <time>2021-02-04T10:06:10.734Z</time>
      </trkpt>
      <trkpt lat="46.97066" lon="6.87324">
        <ele>430.75</ele>
        <time>2021-02-04T10:06:14.770Z</time>
      </trkpt>
      <trkpt lat="46.97068" lon="6.87323">
        <ele>430.76</ele>
        <time>2021-02-04T10:06:16.868Z</time>
      </trkpt>
      <trkpt lat="46.97066" lon="6.87317">
        <ele>430.96</ele>
        <time>2021-02-04T10:06:24.105Z</time>
      </trkpt>
      <trkpt lat="46.97054" lon="6.8732">
        <ele>430.87</ele>
        <time>2021-02-04T10:06:28.449Z</time>
      </trkpt>
      <trkpt lat="46.97053" lon="6.87321">
        <ele>430.83</ele>
        <time>2021-02-04T10:06:28.768Z</time>
      </trkpt>
      <trkpt lat="46.97053" lon="6.87321">
        <ele>430.83</ele>
        <time>2021-02-04T10:06:28.768Z</time>
      </trkpt>
      <trkpt lat="46.97049" lon="6.87323">
        <ele>430.78</ele>
        <time>2021-02-04T10:06:30.189Z</time>
      </trkpt>
      <trkpt lat="46.97043" lon="6.87327">
        <ele>430.82</ele>
        <time>2021-02-04T10:06:36.818Z</time>
      </trkpt>
      <trkpt lat="46.97038" lon="6.87331">
        <ele>430.73</ele>
        <time>2021-02-04T10:06:38.640Z</time>
      </trkpt>
      <trkpt lat="46.97035" lon="6.87332">
        <ele>430.76</ele>
        <time>2021-02-04T10:06:41.848Z</time>
      </trkpt>
      <trkpt lat="46.97031" lon="6.87335">
        <ele>430.45</ele>
        <time>2021-02-04T10:06:42.812Z</time>
      </trkpt>
      <trkpt lat="46.97022" lon="6.87345">
        <ele>430.29</ele>
        <time>2021-02-04T10:06:46.499Z</time>
      </trkpt>
      <trkpt lat="46.97018" lon="6.87348">
        <ele>430.47</ele>
        <time>2021-02-04T10:06:53.240Z</time>
      </trkpt>
      <trkpt lat="46.97013" lon="6.87352">
        <ele>430.44</ele>
        <time>2021-02-04T10:06:58.246Z</time>
      </trkpt>
      <trkpt lat="46.97006" lon="6.87357">
        <ele>430.51</ele>
        <time>2021-02-04T10:07:06.306Z</time>
      </trkpt>
      <trkpt lat="46.97001" lon="6.8736">
        <ele>430.51</ele>
        <time>2021-02-04T10:07:11.437Z</time>
      </trkpt>
      <trkpt lat="46.9699" lon="6.87364">
        <ele>430.58</ele>
        <time>2021-02-04T10:07:22.846Z</time>
      </trkpt>
      <trkpt lat="46.96982" lon="6.87368">
        <ele>430.25</ele>
        <time>2021-02-04T10:07:24.947Z</time>
      </trkpt>
      <trkpt lat="46.96976" lon="6.8737">
        <ele>430.29</ele>
        <time>2021-02-04T10:07:31.161Z</time>
      </trkpt>
      <trkpt lat="46.96976" lon="6.8737">
        <ele>430.29</ele>
        <time>2021-02-04T10:07:31.161Z</time>
      </trkpt>
      <trkpt lat="46.96962" lon="6.87375">
        <ele>430.33</ele>
        <time>2021-02-04T10:07:45.204Z</time>
      </trkpt>
      <trkpt lat="46.96954" lon="6.87378">
        <ele>430.3</ele>
        <time>2021-02-04T10:07:52.633Z</time>
      </trkpt>
      <trkpt lat="46.96952" lon="6.87378">
        <ele>430.25</ele>
        <time>2021-02-04T10:07:53.208Z</time>
      </trkpt>
      <trkpt lat="46.96949" lon="6.87377">
        <ele>430.3</ele>
        <time>2021-02-04T10:07:56.641Z</time>
      </trkpt>
      <trkpt lat="46.96946" lon="6.87376">
        <ele>430.32</ele>
        <time>2021-02-04T10:07:59.748Z</time>
      </trkpt>
      <trkpt lat="46.96943" lon="6.87373">
        <ele>430.41</ele>
        <time>2021-02-04T10:08:04.210Z</time>
      </trkpt>
      <trkpt lat="46.96938" lon="6.87366">
        <ele>430.61</ele>
        <time>2021-02-04T10:08:13.144Z</time>
      </trkpt>
      <trkpt lat="46.96935" lon="6.87363">
        <ele>430.57</ele>
        <time>2021-02-04T10:08:14.379Z</time>
      </trkpt>
      <trkpt lat="46.96924" lon="6.87356">
        <ele>430.52</ele>
        <time>2021-02-04T10:08:25.085Z</time>
      </trkpt>
      <trkpt lat="46.9692" lon="6.87352">
        <ele>430.53</ele>
        <time>2021-02-04T10:08:29.773Z</time>
      </trkpt>
      <trkpt lat="46.96911" lon="6.87347">
        <ele>430.7</ele>
        <time>2021-02-04T10:08:40.678Z</time>
      </trkpt>
      <trkpt lat="46.96898" lon="6.8734">
        <ele>430.7</ele>
        <time>2021-02-04T10:08:53.832Z</time>
      </trkpt>
      <trkpt lat="46.96894" lon="6.87337">
        <ele>430.89</ele>
        <time>2021-02-04T10:09:00.797Z</time>
      </trkpt>
      <trkpt lat="46.96891" lon="6.87332">
        <ele>430.85</ele>
        <time>2021-02-04T10:09:02.388Z</time>
      </trkpt>
      <trkpt lat="46.96884" lon="6.8732">
        <ele>430.85</ele>
        <time>2021-02-04T10:09:12.619Z</time>
      </trkpt>
      <trkpt lat="46.96879" lon="6.87314">
        <ele>431.11</ele>
        <time>2021-02-04T10:09:22.339Z</time>
      </trkpt>
      <trkpt lat="46.96876" lon="6.8731">
        <ele>431.07</ele>
        <time>2021-02-04T10:09:23.738Z</time>
      </trkpt>
      <trkpt lat="46.96872" lon="6.87307">
        <ele>431.27</ele>
        <time>2021-02-04T10:09:30.941Z</time>
      </trkpt>
      <trkpt lat="46.96863" lon="6.87301">
        <ele>431.14</ele>
        <time>2021-02-04T10:09:34.210Z</time>
      </trkpt>
      <trkpt lat="46.96857" lon="6.87299">
        <ele>431.24</ele>
        <time>2021-02-04T10:09:41.077Z</time>
      </trkpt>
      <trkpt lat="46.96854" lon="6.87297">
        <ele>431.3</ele>
        <time>2021-02-04T10:09:44.833Z</time>
      </trkpt>
      <trkpt lat="46.96846" lon="6.87293">
        <ele>431.38</ele>
        <time>2021-02-04T10:09:53.623Z</time>
      </trkpt>
      <trkpt lat="46.96841" lon="6.87288">
        <ele>431.39</ele>
        <time>2021-02-04T10:09:59.461Z</time>
      </trkpt>
      <trkpt lat="46.96835" lon="6.87281">
        <ele>431.46</ele>
        <time>2021-02-04T10:10:07.409Z</time>
      </trkpt>
      <trkpt lat="46.96831" lon="6.87277">
        <ele>431.44</ele>
        <time>2021-02-04T10:10:11.734Z</time>
      </trkpt>
      <trkpt lat="46.96827" lon="6.87274">
        <ele>431.4</ele>
        <time>2021-02-04T10:10:13.305Z</time>
      </trkpt>
      <trkpt lat="46.9682" lon="6.87271">
        <ele>431.56</ele>
        <time>2021-02-04T10:10:21.974Z</time>
      </trkpt>
      <trkpt lat="46.9681" lon="6.87267">
        <ele>431.35</ele>
        <time>2021-02-04T10:10:25.116Z</time>
      </trkpt>
      <trkpt lat="46.96793" lon="6.8726">
        <ele>431.05</ele>
        <time>2021-02-04T10:10:30.682Z</time>
      </trkpt>
      <trkpt lat="46.96788" lon="6.87256">
        <ele>430.94</ele>
        <time>2021-02-04T10:10:32.428Z</time>
      </trkpt>
      <trkpt lat="46.96778" lon="6.87247">
        <ele>431</ele>
        <time>2021-02-04T10:10:44.121Z</time>
      </trkpt>
      <trkpt lat="46.96762" lon="6.87234">
        <ele>431.15</ele>
        <time>2021-02-04T10:11:02.908Z</time>
      </trkpt>
      <trkpt lat="46.96754" lon="6.87229">
        <ele>431.27</ele>
        <time>2021-02-04T10:11:12.363Z</time>
      </trkpt>
      <trkpt lat="46.96739" lon="6.87216">
        <ele>431.25</ele>
        <time>2021-02-04T10:11:28.628Z</time>
      </trkpt>
      <trkpt lat="46.96738" lon="6.87216">
        <ele>431.25</ele>
        <time>2021-02-04T10:11:29.578Z</time>
      </trkpt>
      <trkpt lat="46.96732" lon="6.8721">
        <ele>431.23</ele>
        <time>2021-02-04T10:11:36.197Z</time>
      </trkpt>
      <trkpt lat="46.96723" lon="6.87204">
        <ele>431.23</ele>
        <time>2021-02-04T10:11:45.588Z</time>
      </trkpt>
      <trkpt lat="46.96719" lon="6.87199">
        <ele>431.23</ele>
        <time>2021-02-04T10:11:50.581Z</time>
      </trkpt>
      <trkpt lat="46.96716" lon="6.87194">
        <ele>430.84</ele>
        <time>2021-02-04T10:11:51.556Z</time>
      </trkpt>
      <trkpt lat="46.9671" lon="6.87181">
        <ele>430.76</ele>
        <time>2021-02-04T10:11:55.373Z</time>
      </trkpt>
      <trkpt lat="46.96706" lon="6.87177">
        <ele>430.56</ele>
        <time>2021-02-04T10:11:56.552Z</time>
      </trkpt>
      <trkpt lat="46.967" lon="6.87172">
        <ele>430.64</ele>
        <time>2021-02-04T10:12:03.886Z</time>
      </trkpt>
      <trkpt lat="46.96689" lon="6.87161">
        <ele>430.69</ele>
        <time>2021-02-04T10:12:16.984Z</time>
      </trkpt>
      <trkpt lat="46.96679" lon="6.87147">
        <ele>430.72</ele>
        <time>2021-02-04T10:12:30.386Z</time>
      </trkpt>
      <trkpt lat="46.96677" lon="6.87145">
        <ele>430.82</ele>
        <time>2021-02-04T10:12:34.085Z</time>
      </trkpt>
      <trkpt lat="46.96673" lon="6.87142">
        <ele>430.94</ele>
        <time>2021-02-04T10:12:39.734Z</time>
      </trkpt>
      <trkpt lat="46.96652" lon="6.87128">
        <ele>431.27</ele>
        <time>2021-02-04T10:13:04.949Z</time>
      </trkpt>
      <trkpt lat="46.96634" lon="6.87117">
        <ele>431.38</ele>
        <time>2021-02-04T10:13:24.481Z</time>
      </trkpt>
      <trkpt lat="46.96622" lon="6.8711">
        <ele>431.55</ele>
        <time>2021-02-04T10:13:38.429Z</time>
      </trkpt>
      <trkpt lat="46.96617" lon="6.87106">
        <ele>431.55</ele>
        <time>2021-02-04T10:13:43.840Z</time>
      </trkpt>
      <trkpt lat="46.96613" lon="6.87101">
        <ele>431.63</ele>
        <time>2021-02-04T10:13:49.642Z</time>
      </trkpt>
      <trkpt lat="46.96609" lon="6.87097">
        <ele>431.8</ele>
        <time>2021-02-04T10:13:56.421Z</time>
      </trkpt>
      <trkpt lat="46.96607" lon="6.87093">
        <ele>431.95</ele>
        <time>2021-02-04T10:14:01.832Z</time>
      </trkpt>
      <trkpt lat="46.96605" lon="6.87085">
        <ele>432.16</ele>
        <time>2021-02-04T10:14:10.084Z</time>
      </trkpt>
      <trkpt lat="46.96603" lon="6.87081">
        <ele>432.23</ele>
        <time>2021-02-04T10:14:14.049Z</time>
      </trkpt>
      <trkpt lat="46.966" lon="6.87077">
        <ele>432.23</ele>
        <time>2021-02-04T10:14:17.901Z</time>
      </trkpt>
      <trkpt lat="46.96598" lon="6.87075">
        <ele>432.23</ele>
        <time>2021-02-04T10:14:20.201Z</time>
      </trkpt>
      <trkpt lat="46.96595" lon="6.87074">
        <ele>432.3</ele>
        <time>2021-02-04T10:14:23.892Z</time>
      </trkpt>
      <trkpt lat="46.9659" lon="6.87073">
        <ele>432.3</ele>
        <time>2021-02-04T10:14:28.685Z</time>
      </trkpt>
      <trkpt lat="46.96582" lon="6.87076">
        <ele>432.44</ele>
        <time>2021-02-04T10:14:37.969Z</time>
      </trkpt>
      <trkpt lat="46.96569" lon="6.8708">
        <ele>432.51</ele>
        <time>2021-02-04T10:14:51.225Z</time>
      </trkpt>
      <trkpt lat="46.96567" lon="6.87078">
        <ele>432.59</ele>
        <time>2021-02-04T10:14:54.523Z</time>
      </trkpt>
      <trkpt lat="46.96564" lon="6.87075">
        <ele>432.73</ele>
        <time>2021-02-04T10:14:59.855Z</time>
      </trkpt>
      <trkpt lat="46.9656" lon="6.87071">
        <ele>433.07</ele>
        <time>2021-02-04T10:15:09.124Z</time>
      </trkpt>
      <trkpt lat="46.96558" lon="6.8707">
        <ele>433.21</ele>
        <time>2021-02-04T10:15:13.052Z</time>
      </trkpt>
      <trkpt lat="46.96528" lon="6.87082">
        <ele>434.13</ele>
        <time>2021-02-04T10:15:53.565Z</time>
      </trkpt>
      <trkpt lat="46.96491" lon="6.87097">
        <ele>434.37</ele>
        <time>2021-02-04T10:16:32.240Z</time>
      </trkpt>
      <trkpt lat="46.96472" lon="6.87105">
        <ele>434.22</ele>
        <time>2021-02-04T10:16:39.276Z</time>
      </trkpt>
      <trkpt lat="46.96443" lon="6.87114">
        <ele>434.63</ele>
        <time>2021-02-04T10:17:11.513Z</time>
      </trkpt>
      <trkpt lat="46.96428" lon="6.87121">
        <ele>434.58</ele>
        <time>2021-02-04T10:17:25.771Z</time>
      </trkpt>
      <trkpt lat="46.96417" lon="6.87124">
        <ele>434.64</ele>
        <time>2021-02-04T10:17:36.946Z</time>
      </trkpt>
      <trkpt lat="46.96408" lon="6.87126">
        <ele>434.76</ele>
        <time>2021-02-04T10:17:46.779Z</time>
      </trkpt>
      <trkpt lat="46.9638" lon="6.87135">
        <ele>434.37</ele>
        <time>2021-02-04T10:17:56.202Z</time>
      </trkpt>
      <trkpt lat="46.96372" lon="6.87136">
        <ele>434.21</ele>
        <time>2021-02-04T10:17:58.645Z</time>
      </trkpt>
      <trkpt lat="46.96365" lon="6.87135">
        <ele>434.07</ele>
        <time>2021-02-04T10:18:00.786Z</time>
      </trkpt>
      <trkpt lat="46.96358" lon="6.87135">
        <ele>434.12</ele>
        <time>2021-02-04T10:18:07.900Z</time>
      </trkpt>
      <trkpt lat="46.96357" lon="6.87139">
        <ele>434.35</ele>
        <time>2021-02-04T10:18:13.866Z</time>
      </trkpt>
      <trkpt lat="46.96357" lon="6.87143">
        <ele>434.46</ele>
        <time>2021-02-04T10:18:17.975Z</time>
      </trkpt>
      <trkpt lat="46.96352" lon="6.87158">
        <ele>433.92</ele>
        <time>2021-02-04T10:18:20.597Z</time>
      </trkpt>
      <trkpt lat="46.9635" lon="6.87163">
        <ele>433.27</ele>
        <time>2021-02-04T10:18:21.445Z</time>
      </trkpt>
      <trkpt lat="46.9635" lon="6.87163">
        <ele>433.27</ele>
        <time>2021-02-04T10:18:21.445Z</time>
      </trkpt>
      <trkpt lat="46.96345" lon="6.87179">
        <ele>432.61</ele>
        <time>2021-02-04T10:18:24.035Z</time>
      </trkpt>
      <trkpt lat="46.96339" lon="6.87194">
        <ele>432.16</ele>
        <time>2021-02-04T10:18:27.016Z</time>
      </trkpt>
      <trkpt lat="46.96326" lon="6.87227">
        <ele>431.44</ele>
        <time>2021-02-04T10:18:34.269Z</time>
      </trkpt>
      <trkpt lat="46.96319" lon="6.87248">
        <ele>431.4</ele>
        <time>2021-02-04T10:18:48.857Z</time>
      </trkpt>
      <trkpt lat="46.96314" lon="6.87261">
        <ele>431.49</ele>
        <time>2021-02-04T10:18:59.381Z</time>
      </trkpt>
      <trkpt lat="46.96303" lon="6.87295">
        <ele>430.82</ele>
        <time>2021-02-04T10:19:06.669Z</time>
      </trkpt>
      <trkpt lat="46.96298" lon="6.87309">
        <ele>430.6</ele>
        <time>2021-02-04T10:19:09.932Z</time>
      </trkpt>
      <trkpt lat="46.96293" lon="6.87322">
        <ele>430.49</ele>
        <time>2021-02-04T10:19:13.404Z</time>
      </trkpt>
      <trkpt lat="46.96293" lon="6.87322">
        <ele>430.5</ele>
        <time>2021-02-04T10:19:13.404Z</time>
      </trkpt>
      <trkpt lat="46.96272" lon="6.87341">
        <ele>429.9</ele>
        <time>2021-02-04T10:19:20.547Z</time>
      </trkpt>
      <trkpt lat="46.96222" lon="6.87343">
        <ele>429.9</ele>
        <time>2021-02-04T10:20:08.052Z</time>
      </trkpt>
      <trkpt lat="46.96222" lon="6.87343">
        <ele>429.8</ele>
        <time>2021-02-04T10:20:08.052Z</time>
      </trkpt>
      <trkpt lat="46.96169" lon="6.87354">
        <ele>429.6</ele>
        <time>2021-02-04T10:20:56.138Z</time>
      </trkpt>
      <trkpt lat="46.96038" lon="6.87398">
        <ele>429.97</ele>
        <time>2021-02-04T10:23:07.083Z</time>
      </trkpt>
      <trkpt lat="46.96037" lon="6.87399">
        <ele>429.97</ele>
        <time>2021-02-04T10:23:08.233Z</time>
      </trkpt>
      <trkpt lat="46.96035" lon="6.874">
        <ele>429.97</ele>
        <time>2021-02-04T10:23:10.240Z</time>
      </trkpt>
      <trkpt lat="46.96028" lon="6.87402">
        <ele>429.97</ele>
        <time>2021-02-04T10:23:17.014Z</time>
      </trkpt>
      <trkpt lat="46.96018" lon="6.87404">
        <ele>430.32</ele>
        <time>2021-02-04T10:23:31.061Z</time>
      </trkpt>
      <trkpt lat="46.96011" lon="6.87405">
        <ele>430.04</ele>
        <time>2021-02-04T10:23:32.797Z</time>
      </trkpt>
      <trkpt lat="46.95999" lon="6.87408">
        <ele>429.97</ele>
        <time>2021-02-04T10:23:43.422Z</time>
      </trkpt>
      <trkpt lat="46.95995" lon="6.87408">
        <ele>430.18</ele>
        <time>2021-02-04T10:23:50.175Z</time>
      </trkpt>
      <trkpt lat="46.9599" lon="6.87405">
        <ele>430.46</ele>
        <time>2021-02-04T10:23:59.257Z</time>
      </trkpt>
      <trkpt lat="46.95986" lon="6.87405">
        <ele>430.6</ele>
        <time>2021-02-04T10:24:04.848Z</time>
      </trkpt>
      <trkpt lat="46.95982" lon="6.87406">
        <ele>430.68</ele>
        <time>2021-02-04T10:24:09.551Z</time>
      </trkpt>
      <trkpt lat="46.95979" lon="6.87406">
        <ele>430.75</ele>
        <time>2021-02-04T10:24:13.175Z</time>
      </trkpt>
      <trkpt lat="46.95975" lon="6.87404">
        <ele>430.96</ele>
        <time>2021-02-04T10:24:20.179Z</time>
      </trkpt>
      <trkpt lat="46.95972" lon="6.87402">
        <ele>431.17</ele>
        <time>2021-02-04T10:24:26.193Z</time>
      </trkpt>
      <trkpt lat="46.95967" lon="6.87399">
        <ele>431.25</ele>
        <time>2021-02-04T10:24:32.130Z</time>
      </trkpt>
      <trkpt lat="46.95964" lon="6.87399">
        <ele>431.17</ele>
        <time>2021-02-04T10:24:32.976Z</time>
      </trkpt>
      <trkpt lat="46.95961" lon="6.874">
        <ele>431.17</ele>
        <time>2021-02-04T10:24:35.898Z</time>
      </trkpt>
      <trkpt lat="46.95955" lon="6.87404">
        <ele>431.17</ele>
        <time>2021-02-04T10:24:42.159Z</time>
      </trkpt>
      <trkpt lat="46.9595" lon="6.87406">
        <ele>431.1</ele>
        <time>2021-02-04T10:24:43.865Z</time>
      </trkpt>
      <trkpt lat="46.95945" lon="6.87408">
        <ele>430.89</ele>
        <time>2021-02-04T10:24:45.135Z</time>
      </trkpt>
      <trkpt lat="46.9594" lon="6.87408">
        <ele>430.93</ele>
        <time>2021-02-04T10:24:50.259Z</time>
      </trkpt>
      <trkpt lat="46.95919" lon="6.87409">
        <ele>430.82</ele>
        <time>2021-02-04T10:25:08.732Z</time>
      </trkpt>
      <trkpt lat="46.95912" lon="6.87402">
        <ele>431.2</ele>
        <time>2021-02-04T10:25:22.346Z</time>
      </trkpt>
      <trkpt lat="46.95908" lon="6.874">
        <ele>431.15</ele>
        <time>2021-02-04T10:25:23.767Z</time>
      </trkpt>
      <trkpt lat="46.95908" lon="6.87399">
        <ele>431.15</ele>
        <time>2021-02-04T10:25:24.416Z</time>
      </trkpt>
      <trkpt lat="46.95905" lon="6.87397">
        <ele>431.1</ele>
        <time>2021-02-04T10:25:25.478Z</time>
      </trkpt>
      <trkpt lat="46.95898" lon="6.87394">
        <ele>431.1</ele>
        <time>2021-02-04T10:25:32.405Z</time>
      </trkpt>
      <trkpt lat="46.95892" lon="6.87393">
        <ele>431.21</ele>
        <time>2021-02-04T10:25:39.289Z</time>
      </trkpt>
      <trkpt lat="46.95839" lon="6.87396">
        <ele>431.29</ele>
        <time>2021-02-04T10:26:30.368Z</time>
      </trkpt>
      <trkpt lat="46.95826" lon="6.87398">
        <ele>431.31</ele>
        <time>2021-02-04T10:26:42.959Z</time>
      </trkpt>
      <trkpt lat="46.9582" lon="6.87401">
        <ele>431.17</ele>
        <time>2021-02-04T10:26:44.841Z</time>
      </trkpt>
      <trkpt lat="46.95815" lon="6.87403">
        <ele>431.05</ele>
        <time>2021-02-04T10:26:46.361Z</time>
      </trkpt>
      <trkpt lat="46.95808" lon="6.87407">
        <ele>431.33</ele>
        <time>2021-02-04T10:26:57.195Z</time>
      </trkpt>
      <trkpt lat="46.95801" lon="6.87406">
        <ele>431.14</ele>
        <time>2021-02-04T10:26:59.171Z</time>
      </trkpt>
      <trkpt lat="46.95791" lon="6.87405">
        <ele>431.14</ele>
        <time>2021-02-04T10:27:08.690Z</time>
      </trkpt>
      <trkpt lat="46.95777" lon="6.87407">
        <ele>431.14</ele>
        <time>2021-02-04T10:27:22.050Z</time>
      </trkpt>
      <trkpt lat="46.95773" lon="6.87408">
        <ele>431</ele>
        <time>2021-02-04T10:27:23.104Z</time>
      </trkpt>
      <trkpt lat="46.9575" lon="6.87404">
        <ele>431.14</ele>
        <time>2021-02-04T10:27:46.391Z</time>
      </trkpt>
      <trkpt lat="46.95746" lon="6.87404">
        <ele>431</ele>
        <time>2021-02-04T10:27:47.425Z</time>
      </trkpt>
      <trkpt lat="46.95742" lon="6.87406">
        <ele>430.85</ele>
        <time>2021-02-04T10:27:48.513Z</time>
      </trkpt>
      <trkpt lat="46.95739" lon="6.87407">
        <ele>430.71</ele>
        <time>2021-02-04T10:27:49.233Z</time>
      </trkpt>
      <trkpt lat="46.95727" lon="6.87406">
        <ele>430.5</ele>
        <time>2021-02-04T10:27:52.999Z</time>
      </trkpt>
      <trkpt lat="46.95716" lon="6.87406">
        <ele>430.43</ele>
        <time>2021-02-04T10:28:02.518Z</time>
      </trkpt>
      <trkpt lat="46.95706" lon="6.87406">
        <ele>430.47</ele>
        <time>2021-02-04T10:28:12.377Z</time>
      </trkpt>
      <trkpt lat="46.95682" lon="6.87404">
        <ele>430.79</ele>
        <time>2021-02-04T10:28:38.378Z</time>
      </trkpt>
      <trkpt lat="46.95657" lon="6.87406">
        <ele>430.69</ele>
        <time>2021-02-04T10:29:00.786Z</time>
      </trkpt>
      <trkpt lat="46.95655" lon="6.87405">
        <ele>430.73</ele>
        <time>2021-02-04T10:29:03.214Z</time>
      </trkpt>
      <trkpt lat="46.95641" lon="6.87398">
        <ele>430.98</ele>
        <time>2021-02-04T10:29:19.836Z</time>
      </trkpt>
      <trkpt lat="46.95637" lon="6.87398">
        <ele>430.85</ele>
        <time>2021-02-04T10:29:20.897Z</time>
      </trkpt>
      <trkpt lat="46.95626" lon="6.87396">
        <ele>430.87</ele>
        <time>2021-02-04T10:29:31.601Z</time>
      </trkpt>
      <trkpt lat="46.95612" lon="6.87394">
        <ele>430.53</ele>
        <time>2021-02-04T10:29:35.679Z</time>
      </trkpt>
      <trkpt lat="46.95609" lon="6.87394">
        <ele>430.47</ele>
        <time>2021-02-04T10:29:36.591Z</time>
      </trkpt>
      <trkpt lat="46.95606" lon="6.87395">
        <ele>430.63</ele>
        <time>2021-02-04T10:29:41.768Z</time>
      </trkpt>
      <trkpt lat="46.956" lon="6.87391">
        <ele>430.69</ele>
        <time>2021-02-04T10:29:48.599Z</time>
      </trkpt>
      <trkpt lat="46.95574" lon="6.8738">
        <ele>429.85</ele>
        <time>2021-02-04T10:29:55.884Z</time>
      </trkpt>
      <trkpt lat="46.95568" lon="6.87378">
        <ele>429.93</ele>
        <time>2021-02-04T10:30:02.518Z</time>
      </trkpt>
      <trkpt lat="46.95564" lon="6.87375">
        <ele>430.07</ele>
        <time>2021-02-04T10:30:08.490Z</time>
      </trkpt>
      <trkpt lat="46.95556" lon="6.87376">
        <ele>429.93</ele>
        <time>2021-02-04T10:30:11.007Z</time>
      </trkpt>
      <trkpt lat="46.95552" lon="6.87375">
        <ele>430.11</ele>
        <time>2021-02-04T10:30:17.499Z</time>
      </trkpt>
      <trkpt lat="46.95551" lon="6.87375">
        <ele>430.11</ele>
        <time>2021-02-04T10:30:18.448Z</time>
      </trkpt>
      <trkpt lat="46.95548" lon="6.87374">
        <ele>430.28</ele>
        <time>2021-02-04T10:30:23.740Z</time>
      </trkpt>
      <trkpt lat="46.9554" lon="6.87373">
        <ele>430.21</ele>
        <time>2021-02-04T10:30:26.554Z</time>
      </trkpt>
      <trkpt lat="46.95535" lon="6.87371">
        <ele>430.21</ele>
        <time>2021-02-04T10:30:31.476Z</time>
      </trkpt>
      <trkpt lat="46.95529" lon="6.87369">
        <ele>430.5</ele>
        <time>2021-02-04T10:30:41.506Z</time>
      </trkpt>
      <trkpt lat="46.95524" lon="6.87368">
        <ele>430.71</ele>
        <time>2021-02-04T10:30:49.251Z</time>
      </trkpt>
      <trkpt lat="46.95519" lon="6.87363">
        <ele>431.28</ele>
        <time>2021-02-04T10:31:03.397Z</time>
      </trkpt>
      <trkpt lat="46.95516" lon="6.87362">
        <ele>431.42</ele>
        <time>2021-02-04T10:31:08.360Z</time>
      </trkpt>
      <trkpt lat="46.95512" lon="6.87359">
        <ele>431.42</ele>
        <time>2021-02-04T10:31:12.628Z</time>
      </trkpt>
      <trkpt lat="46.95507" lon="6.87355">
        <ele>431.42</ele>
        <time>2021-02-04T10:31:18.039Z</time>
      </trkpt>
      <trkpt lat="46.95501" lon="6.87349">
        <ele>431.35</ele>
        <time>2021-02-04T10:31:20.553Z</time>
      </trkpt>
      <trkpt lat="46.95497" lon="6.87346">
        <ele>431.07</ele>
        <time>2021-02-04T10:31:21.466Z</time>
      </trkpt>
      <trkpt lat="46.95495" lon="6.87339">
        <ele>431.03</ele>
        <time>2021-02-04T10:31:23.306Z</time>
      </trkpt>
      <trkpt lat="46.95493" lon="6.8733">
        <ele>430.92</ele>
        <time>2021-02-04T10:31:25.342Z</time>
      </trkpt>
      <trkpt lat="46.9549" lon="6.8732">
        <ele>430.86</ele>
        <time>2021-02-04T10:31:27.978Z</time>
      </trkpt>
      <trkpt lat="46.95489" lon="6.87314">
        <ele>430.91</ele>
        <time>2021-02-04T10:31:32.470Z</time>
      </trkpt>
      <trkpt lat="46.95486" lon="6.87309">
        <ele>430.96</ele>
        <time>2021-02-04T10:31:37.270Z</time>
      </trkpt>
      <trkpt lat="46.95481" lon="6.87304">
        <ele>430.79</ele>
        <time>2021-02-04T10:31:38.951Z</time>
      </trkpt>
      <trkpt lat="46.95473" lon="6.87293">
        <ele>430.67</ele>
        <time>2021-02-04T10:31:42.684Z</time>
      </trkpt>
      <trkpt lat="46.95464" lon="6.8728">
        <ele>430.66</ele>
        <time>2021-02-04T10:31:54.544Z</time>
      </trkpt>
      <trkpt lat="46.9546" lon="6.87276">
        <ele>430.56</ele>
        <time>2021-02-04T10:31:56.005Z</time>
      </trkpt>
      <trkpt lat="46.9545" lon="6.87271">
        <ele>430.6</ele>
        <time>2021-02-04T10:32:06.401Z</time>
      </trkpt>
      <trkpt lat="46.95442" lon="6.87267">
        <ele>430.61</ele>
        <time>2021-02-04T10:32:14.517Z</time>
      </trkpt>
      <trkpt lat="46.95425" lon="6.87256">
        <ele>430.7</ele>
        <time>2021-02-04T10:32:32.987Z</time>
      </trkpt>
      <trkpt lat="46.95413" lon="6.87249">
        <ele>430.57</ele>
        <time>2021-02-04T10:32:37.432Z</time>
      </trkpt>
      <trkpt lat="46.95403" lon="6.87239">
        <ele>430.58</ele>
        <time>2021-02-04T10:32:49.019Z</time>
      </trkpt>
      <trkpt lat="46.95392" lon="6.87234">
        <ele>430.64</ele>
        <time>2021-02-04T10:33:00.505Z</time>
      </trkpt>
      <trkpt lat="46.95381" lon="6.8723">
        <ele>430.75</ele>
        <time>2021-02-04T10:33:12.320Z</time>
      </trkpt>
      <trkpt lat="46.95374" lon="6.87229">
        <ele>430.73</ele>
        <time>2021-02-04T10:33:18.721Z</time>
      </trkpt>
      <trkpt lat="46.95367" lon="6.87222">
        <ele>430.76</ele>
        <time>2021-02-04T10:33:27.040Z</time>
      </trkpt>
      <trkpt lat="46.95361" lon="6.87217">
        <ele>431.05</ele>
        <time>2021-02-04T10:33:37.696Z</time>
      </trkpt>
      <trkpt lat="46.95353" lon="6.87215">
        <ele>430.67</ele>
        <time>2021-02-04T10:33:39.574Z</time>
      </trkpt>
      <trkpt lat="46.95349" lon="6.87212">
        <ele>430.79</ele>
        <time>2021-02-04T10:33:45.223Z</time>
      </trkpt>
      <trkpt lat="46.95336" lon="6.87201">
        <ele>430.73</ele>
        <time>2021-02-04T10:33:58.659Z</time>
      </trkpt>
      <trkpt lat="46.95334" lon="6.87199">
        <ele>430.69</ele>
        <time>2021-02-04T10:33:59.426Z</time>
      </trkpt>
      <trkpt lat="46.95333" lon="6.87199">
        <ele>430.69</ele>
        <time>2021-02-04T10:34:00.376Z</time>
      </trkpt>
      <trkpt lat="46.95326" lon="6.87191">
        <ele>430.64</ele>
        <time>2021-02-04T10:34:08.138Z</time>
      </trkpt>
      <trkpt lat="46.95317" lon="6.87185">
        <ele>430.79</ele>
        <time>2021-02-04T10:34:19.045Z</time>
      </trkpt>
      <trkpt lat="46.95306" lon="6.87179">
        <ele>430.65</ele>
        <time>2021-02-04T10:34:22.987Z</time>
      </trkpt>
      <trkpt lat="46.95298" lon="6.87174">
        <ele>430.63</ele>
        <time>2021-02-04T10:34:30.966Z</time>
      </trkpt>
      <trkpt lat="46.95288" lon="6.87169">
        <ele>430.52</ele>
        <time>2021-02-04T10:34:34.586Z</time>
      </trkpt>
      <trkpt lat="46.95278" lon="6.87165">
        <ele>430.35</ele>
        <time>2021-02-04T10:34:37.877Z</time>
      </trkpt>
      <trkpt lat="46.95271" lon="6.87162">
        <ele>430.29</ele>
        <time>2021-02-04T10:34:40.450Z</time>
      </trkpt>
      <trkpt lat="46.95247" lon="6.87136">
        <ele>430.66</ele>
        <time>2021-02-04T10:35:12.430Z</time>
      </trkpt>
      <trkpt lat="46.9524" lon="6.87131">
        <ele>430.68</ele>
        <time>2021-02-04T10:35:20.005Z</time>
      </trkpt>
      <trkpt lat="46.9523" lon="6.87127">
        <ele>430.7</ele>
        <time>2021-02-04T10:35:30.027Z</time>
      </trkpt>
      <trkpt lat="46.95214" lon="6.8712">
        <ele>430.61</ele>
        <time>2021-02-04T10:35:44.676Z</time>
      </trkpt>
      <trkpt lat="46.95206" lon="6.87117">
        <ele>430.57</ele>
        <time>2021-02-04T10:35:51.978Z</time>
      </trkpt>
      <trkpt lat="46.952" lon="6.87116">
        <ele>430.39</ele>
        <time>2021-02-04T10:35:53.624Z</time>
      </trkpt>
      <trkpt lat="46.95195" lon="6.87116">
        <ele>430.5</ele>
        <time>2021-02-04T10:35:59.571Z</time>
      </trkpt>
      <trkpt lat="46.95189" lon="6.87117">
        <ele>430.35</ele>
        <time>2021-02-04T10:36:01.309Z</time>
      </trkpt>
      <trkpt lat="46.9517" lon="6.87123">
        <ele>430.67</ele>
        <time>2021-02-04T10:36:23.047Z</time>
      </trkpt>
      <trkpt lat="46.95161" lon="6.87128">
        <ele>430.83</ele>
        <time>2021-02-04T10:36:33.830Z</time>
      </trkpt>
      <trkpt lat="46.95152" lon="6.87134">
        <ele>430.98</ele>
        <time>2021-02-04T10:36:44.737Z</time>
      </trkpt>
      <trkpt lat="46.95147" lon="6.87137">
        <ele>430.81</ele>
        <time>2021-02-04T10:36:46.185Z</time>
      </trkpt>
      <trkpt lat="46.95143" lon="6.87139">
        <ele>430.16</ele>
        <time>2021-02-04T10:36:47.092Z</time>
      </trkpt>
      <trkpt lat="46.95137" lon="6.8714">
        <ele>429.89</ele>
        <time>2021-02-04T10:36:48.515Z</time>
      </trkpt>
      <trkpt lat="46.95129" lon="6.87134">
        <ele>430.32</ele>
        <time>2021-02-04T10:37:03.233Z</time>
      </trkpt>
      <trkpt lat="46.95126" lon="6.87134">
        <ele>430.25</ele>
        <time>2021-02-04T10:37:04.111Z</time>
      </trkpt>
      <trkpt lat="46.95123" lon="6.87136">
        <ele>430.04</ele>
        <time>2021-02-04T10:37:04.773Z</time>
      </trkpt>
      <trkpt lat="46.9512" lon="6.87136">
        <ele>429.82</ele>
        <time>2021-02-04T10:37:05.417Z</time>
      </trkpt>
      <trkpt lat="46.95107" lon="6.87126">
        <ele>430.19</ele>
        <time>2021-02-04T10:37:23.547Z</time>
      </trkpt>
      <trkpt lat="46.95101" lon="6.87122">
        <ele>430.38</ele>
        <time>2021-02-04T10:37:32.053Z</time>
      </trkpt>
      <trkpt lat="46.95094" lon="6.8712">
        <ele>430.37</ele>
        <time>2021-02-04T10:37:38.684Z</time>
      </trkpt>
      <trkpt lat="46.95089" lon="6.87117">
        <ele>430.39</ele>
        <time>2021-02-04T10:37:43.996Z</time>
      </trkpt>
      <trkpt lat="46.95085" lon="6.87115">
        <ele>430.46</ele>
        <time>2021-02-04T10:37:48.728Z</time>
      </trkpt>
      <trkpt lat="46.95073" lon="6.87112">
        <ele>430.3</ele>
        <time>2021-02-04T10:37:52.753Z</time>
      </trkpt>
      <trkpt lat="46.95067" lon="6.87113">
        <ele>430.4</ele>
        <time>2021-02-04T10:37:59.514Z</time>
      </trkpt>
      <trkpt lat="46.95059" lon="6.87109">
        <ele>430.95</ele>
        <time>2021-02-04T10:38:15.089Z</time>
      </trkpt>
      <trkpt lat="46.95049" lon="6.87106">
        <ele>430.6</ele>
        <time>2021-02-04T10:38:17.747Z</time>
      </trkpt>
      <trkpt lat="46.95038" lon="6.87104">
        <ele>429.97</ele>
        <time>2021-02-04T10:38:20.101Z</time>
      </trkpt>
      <trkpt lat="46.95028" lon="6.87105">
        <ele>429.6</ele>
        <time>2021-02-04T10:38:22.644Z</time>
      </trkpt>
      <trkpt lat="46.9502" lon="6.87104">
        <ele>429.75</ele>
        <time>2021-02-04T10:38:31.844Z</time>
      </trkpt>
      <trkpt lat="46.95015" lon="6.87101">
        <ele>430.31</ele>
        <time>2021-02-04T10:38:45.680Z</time>
      </trkpt>
      <trkpt lat="46.95011" lon="6.87099">
        <ele>430.53</ele>
        <time>2021-02-04T10:38:52.795Z</time>
      </trkpt>
      <trkpt lat="46.95004" lon="6.87099">
        <ele>430.53</ele>
        <time>2021-02-04T10:38:59.443Z</time>
      </trkpt>
      <trkpt lat="46.94997" lon="6.87096">
        <ele>429.82</ele>
        <time>2021-02-04T10:39:01.007Z</time>
      </trkpt>
      <trkpt lat="46.94994" lon="6.87093">
        <ele>429.96</ele>
        <time>2021-02-04T10:39:06.340Z</time>
      </trkpt>
      <trkpt lat="46.94992" lon="6.87089">
        <ele>431.07</ele>
        <time>2021-02-04T10:39:18.739Z</time>
      </trkpt>
      <trkpt lat="46.9499" lon="6.87089">
        <ele>431.42</ele>
        <time>2021-02-04T10:39:26.065Z</time>
      </trkpt>
      <trkpt lat="46.94987" lon="6.87089">
        <ele>431.42</ele>
        <time>2021-02-04T10:39:28.914Z</time>
      </trkpt>
      <trkpt lat="46.94984" lon="6.87089">
        <ele>431.22</ele>
        <time>2021-02-04T10:39:29.504Z</time>
      </trkpt>
      <trkpt lat="46.94977" lon="6.8709">
        <ele>431.17</ele>
        <time>2021-02-04T10:39:35.528Z</time>
      </trkpt>
      <trkpt lat="46.94965" lon="6.87092">
        <ele>431.02</ele>
        <time>2021-02-04T10:39:39.558Z</time>
      </trkpt>
      <trkpt lat="46.94957" lon="6.87094">
        <ele>430.88</ele>
        <time>2021-02-04T10:39:42.108Z</time>
      </trkpt>
      <trkpt lat="46.94955" lon="6.87096">
        <ele>430.45</ele>
        <time>2021-02-04T10:39:42.628Z</time>
      </trkpt>
      <trkpt lat="46.94942" lon="6.87097">
        <ele>430.6</ele>
        <time>2021-02-04T10:39:56.450Z</time>
      </trkpt>
      <trkpt lat="46.94926" lon="6.87099">
        <ele>430.6</ele>
        <time>2021-02-04T10:40:11.701Z</time>
      </trkpt>
      <trkpt lat="46.94917" lon="6.871">
        <ele>430.53</ele>
        <time>2021-02-04T10:40:14.906Z</time>
      </trkpt>
      <trkpt lat="46.94912" lon="6.871">
        <ele>429.63</ele>
        <time>2021-02-04T10:40:15.978Z</time>
      </trkpt>
      <trkpt lat="46.9491" lon="6.87088">
        <ele>430.19</ele>
        <time>2021-02-04T10:40:31.669Z</time>
      </trkpt>
      <trkpt lat="46.94909" lon="6.87083">
        <ele>430.35</ele>
        <time>2021-02-04T10:40:37.388Z</time>
      </trkpt>
      <trkpt lat="46.94907" lon="6.87079">
        <ele>430.63</ele>
        <time>2021-02-04T10:40:44.543Z</time>
      </trkpt>
      <trkpt lat="46.94908" lon="6.87075">
        <ele>431.06</ele>
        <time>2021-02-04T10:40:55.195Z</time>
      </trkpt>
      <trkpt lat="46.9491" lon="6.8707">
        <ele>431.59</ele>
        <time>2021-02-04T10:41:09.688Z</time>
      </trkpt>
      <trkpt lat="46.94914" lon="6.8705">
        <ele>432.66</ele>
        <time>2021-02-04T10:41:37.988Z</time>
      </trkpt>
      <trkpt lat="46.94917" lon="6.87038">
        <ele>433.01</ele>
        <time>2021-02-04T10:41:51.088Z</time>
      </trkpt>
      <trkpt lat="46.94924" lon="6.87014">
        <ele>433.19</ele>
        <time>2021-02-04T10:42:09.734Z</time>
      </trkpt>
      <trkpt lat="46.94931" lon="6.86999">
        <ele>433.26</ele>
        <time>2021-02-04T10:42:22.157Z</time>
      </trkpt>
      <trkpt lat="46.94939" lon="6.86985">
        <ele>433.26</ele>
        <time>2021-02-04T10:42:33.994Z</time>
      </trkpt>
      <trkpt lat="46.94952" lon="6.8697">
        <ele>433.26</ele>
        <time>2021-02-04T10:42:49.710Z</time>
      </trkpt>
      <trkpt lat="46.94957" lon="6.86963">
        <ele>433.26</ele>
        <time>2021-02-04T10:42:56.279Z</time>
      </trkpt>
      <trkpt lat="46.9496" lon="6.86957">
        <ele>433.34</ele>
        <time>2021-02-04T10:43:01.914Z</time>
      </trkpt>
      <trkpt lat="46.94962" lon="6.86951">
        <ele>433.41</ele>
        <time>2021-02-04T10:43:06.952Z</time>
      </trkpt>
      <trkpt lat="46.94962" lon="6.86947">
        <ele>433.48</ele>
        <time>2021-02-04T10:43:10.341Z</time>
      </trkpt>
      <trkpt lat="46.94962" lon="6.86942">
        <ele>433.42</ele>
        <time>2021-02-04T10:43:11.409Z</time>
      </trkpt>
      <trkpt lat="46.9496" lon="6.8693">
        <ele>433.52</ele>
        <time>2021-02-04T10:43:20.394Z</time>
      </trkpt>
      <trkpt lat="46.9496" lon="6.86914">
        <ele>433.53</ele>
        <time>2021-02-04T10:43:30.855Z</time>
      </trkpt>
      <trkpt lat="46.94961" lon="6.86907">
        <ele>433.7</ele>
        <time>2021-02-04T10:43:37.663Z</time>
      </trkpt>
      <trkpt lat="46.94962" lon="6.86901">
        <ele>433.8</ele>
        <time>2021-02-04T10:43:42.779Z</time>
      </trkpt>
      <trkpt lat="46.94965" lon="6.86897">
        <ele>434.05</ele>
        <time>2021-02-04T10:43:50.071Z</time>
      </trkpt>
      <trkpt lat="46.94952" lon="6.86897">
        <ele>433.79</ele>
        <time>2021-02-04T10:43:54.024Z</time>
      </trkpt>
      <trkpt lat="46.94936" lon="6.86897">
        <ele>433.72</ele>
        <time>2021-02-04T10:44:08.265Z</time>
      </trkpt>
      <trkpt lat="46.94926" lon="6.86897">
        <ele>433.65</ele>
        <time>2021-02-04T10:44:16.842Z</time>
      </trkpt>
      <trkpt lat="46.94917" lon="6.86899">
        <ele>433.57</ele>
        <time>2021-02-04T10:44:20.029Z</time>
      </trkpt>
      <trkpt lat="46.94913" lon="6.869">
        <ele>433.57</ele>
        <time>2021-02-04T10:44:23.883Z</time>
      </trkpt>
      <trkpt lat="46.94913" lon="6.869">
        <ele>433.57</ele>
        <time>2021-02-04T10:44:23.883Z</time>
      </trkpt>
      <trkpt lat="46.9491" lon="6.869">
        <ele>433.57</ele>
        <time>2021-02-04T10:44:26.732Z</time>
      </trkpt>
      <trkpt lat="46.94894" lon="6.86906">
        <ele>433.43</ele>
        <time>2021-02-04T10:44:32.539Z</time>
      </trkpt>
      <trkpt lat="46.94874" lon="6.86913">
        <ele>433.5</ele>
        <time>2021-02-04T10:44:52.697Z</time>
      </trkpt>
      <trkpt lat="46.94871" lon="6.86908">
        <ele>433.43</ele>
        <time>2021-02-04T10:44:54.158Z</time>
      </trkpt>
      <trkpt lat="46.9487" lon="6.869">
        <ele>433.35</ele>
        <time>2021-02-04T10:44:55.964Z</time>
      </trkpt>
      <trkpt lat="46.9487" lon="6.86891">
        <ele>432.81</ele>
        <time>2021-02-04T10:44:57.282Z</time>
      </trkpt>
      <trkpt lat="46.94872" lon="6.86881">
        <ele>433.35</ele>
        <time>2021-02-04T10:45:11.511Z</time>
      </trkpt>
      <trkpt lat="46.94876" lon="6.86871">
        <ele>433.35</ele>
        <time>2021-02-04T10:45:19.026Z</time>
      </trkpt>
      <trkpt lat="46.94878" lon="6.86864">
        <ele>433.43</ele>
        <time>2021-02-04T10:45:24.756Z</time>
      </trkpt>
      <trkpt lat="46.94876" lon="6.8686">
        <ele>433.01</ele>
        <time>2021-02-04T10:45:25.482Z</time>
      </trkpt>
      <trkpt lat="46.94874" lon="6.86855">
        <ele>432.07</ele>
        <time>2021-02-04T10:45:26.331Z</time>
      </trkpt>
      <trkpt lat="46.94865" lon="6.86842">
        <ele>433.87</ele>
        <time>2021-02-04T10:46:12.633Z</time>
      </trkpt>
      <trkpt lat="46.94862" lon="6.86836">
        <ele>433.73</ele>
        <time>2021-02-04T10:46:14.051Z</time>
      </trkpt>
      <trkpt lat="46.94858" lon="6.8683">
        <ele>433.23</ele>
        <time>2021-02-04T10:46:15.279Z</time>
      </trkpt>
      <trkpt lat="46.94855" lon="6.86826">
        <ele>433.18</ele>
        <time>2021-02-04T10:46:16.634Z</time>
      </trkpt>
      <trkpt lat="46.9485" lon="6.86817">
        <ele>433.28</ele>
        <time>2021-02-04T10:46:25.141Z</time>
      </trkpt>
      <trkpt lat="46.94856" lon="6.868">
        <ele>433.28</ele>
        <time>2021-02-04T10:46:37.549Z</time>
      </trkpt>
      <trkpt lat="46.94864" lon="6.86779">
        <ele>433.28</ele>
        <time>2021-02-04T10:46:53.141Z</time>
      </trkpt>
      <trkpt lat="46.94869" lon="6.86765">
        <ele>433.38</ele>
        <time>2021-02-04T10:47:04.335Z</time>
      </trkpt>
      <trkpt lat="46.9487" lon="6.8676">
        <ele>433.47</ele>
        <time>2021-02-04T10:47:08.733Z</time>
      </trkpt>
      <trkpt lat="46.9487" lon="6.86756">
        <ele>433.61</ele>
        <time>2021-02-04T10:47:13.305Z</time>
      </trkpt>
      <trkpt lat="46.94869" lon="6.86753">
        <ele>433.61</ele>
        <time>2021-02-04T10:47:15.470Z</time>
      </trkpt>
      <trkpt lat="46.94867" lon="6.8675">
        <ele>433.61</ele>
        <time>2021-02-04T10:47:18.188Z</time>
      </trkpt>
      <trkpt lat="46.94863" lon="6.86744">
        <ele>433.43</ele>
        <time>2021-02-04T10:47:19.723Z</time>
      </trkpt>
      <trkpt lat="46.94855" lon="6.86736">
        <ele>433.33</ele>
        <time>2021-02-04T10:47:23.046Z</time>
      </trkpt>
      <trkpt lat="46.94847" lon="6.86726">
        <ele>433.43</ele>
        <time>2021-02-04T10:47:33.987Z</time>
      </trkpt>
      <trkpt lat="46.94846" lon="6.86725">
        <ele>433.45</ele>
        <time>2021-02-04T10:47:35.342Z</time>
      </trkpt>
      <trkpt lat="46.94844" lon="6.86722">
        <ele>433.47</ele>
        <time>2021-02-04T10:47:38.246Z</time>
      </trkpt>
      <trkpt lat="46.94834" lon="6.8671">
        <ele>433.43</ele>
        <time>2021-02-04T10:47:49.968Z</time>
      </trkpt>
      <trkpt lat="46.94825" lon="6.86698">
        <ele>433.45</ele>
        <time>2021-02-04T10:48:01.703Z</time>
      </trkpt>
      <trkpt lat="46.94825" lon="6.86697">
        <ele>433.45</ele>
        <time>2021-02-04T10:48:02.351Z</time>
      </trkpt>
      <trkpt lat="46.9481" lon="6.86679">
        <ele>433.47</ele>
        <time>2021-02-04T10:48:20.943Z</time>
      </trkpt>
      <trkpt lat="46.94803" lon="6.86669">
        <ele>433.04</ele>
        <time>2021-02-04T10:48:23.263Z</time>
      </trkpt>
      <trkpt lat="46.9479" lon="6.8665">
        <ele>433.14</ele>
        <time>2021-02-04T10:48:41.620Z</time>
      </trkpt>
      <trkpt lat="46.94763" lon="6.86608">
        <ele>433.23</ele>
        <time>2021-02-04T10:49:19.824Z</time>
      </trkpt>
      <trkpt lat="46.94722" lon="6.86546">
        <ele>432.95</ele>
        <time>2021-02-04T10:50:11.992Z</time>
      </trkpt>
      <trkpt lat="46.94712" lon="6.86531">
        <ele>432.76</ele>
        <time>2021-02-04T10:50:16.717Z</time>
      </trkpt>
      <trkpt lat="46.94692" lon="6.86501">
        <ele>432.76</ele>
        <time>2021-02-04T10:50:43.904Z</time>
      </trkpt>
      <trkpt lat="46.94682" lon="6.86486">
        <ele>433.1</ele>
        <time>2021-02-04T10:51:01.278Z</time>
      </trkpt>
      <trkpt lat="46.94674" lon="6.86474">
        <ele>433.33</ele>
        <time>2021-02-04T10:51:14.605Z</time>
      </trkpt>
      <trkpt lat="46.9467" lon="6.86464">
        <ele>433.76</ele>
        <time>2021-02-04T10:51:28.130Z</time>
      </trkpt>
      <trkpt lat="46.94666" lon="6.86462">
        <ele>433.83</ele>
        <time>2021-02-04T10:51:32.862Z</time>
      </trkpt>
      <trkpt lat="46.94662" lon="6.86457">
        <ele>433.9</ele>
        <time>2021-02-04T10:51:38.549Z</time>
      </trkpt>
      <trkpt lat="46.94651" lon="6.86441">
        <ele>434.04</ele>
        <time>2021-02-04T10:51:54.600Z</time>
      </trkpt>
      <trkpt lat="46.94643" lon="6.86428">
        <ele>434.04</ele>
        <time>2021-02-04T10:52:05.948Z</time>
      </trkpt>
      <trkpt lat="46.94616" lon="6.86388">
        <ele>433.55</ele>
        <time>2021-02-04T10:52:18.708Z</time>
      </trkpt>
      <trkpt lat="46.9461" lon="6.86378">
        <ele>433.65</ele>
        <time>2021-02-04T10:52:28.307Z</time>
      </trkpt>
      <trkpt lat="46.94601" lon="6.86362">
        <ele>433.85</ele>
        <time>2021-02-04T10:52:43.748Z</time>
      </trkpt>
      <trkpt lat="46.94597" lon="6.86356">
        <ele>433.96</ele>
        <time>2021-02-04T10:52:50.347Z</time>
      </trkpt>
      <trkpt lat="46.9458" lon="6.86336">
        <ele>434.1</ele>
        <time>2021-02-04T10:53:12.349Z</time>
      </trkpt>
      <trkpt lat="46.94568" lon="6.86322">
        <ele>434.06</ele>
        <time>2021-02-04T10:53:26.359Z</time>
      </trkpt>
      <trkpt lat="46.94555" lon="6.86309">
        <ele>433.93</ele>
        <time>2021-02-04T10:53:31.910Z</time>
      </trkpt>
      <trkpt lat="46.94544" lon="6.86297">
        <ele>433.74</ele>
        <time>2021-02-04T10:53:36.404Z</time>
      </trkpt>
      <trkpt lat="46.94536" lon="6.86288">
        <ele>433.29</ele>
        <time>2021-02-04T10:53:38.784Z</time>
      </trkpt>
      <trkpt lat="46.94538" lon="6.86277">
        <ele>433.34</ele>
        <time>2021-02-04T10:53:46.627Z</time>
      </trkpt>
      <trkpt lat="46.94541" lon="6.86253">
        <ele>433.29</ele>
        <time>2021-02-04T10:54:01.752Z</time>
      </trkpt>
      <trkpt lat="46.94542" lon="6.86241">
        <ele>433.25</ele>
        <time>2021-02-04T10:54:09.048Z</time>
      </trkpt>
      <trkpt lat="46.94542" lon="6.86231">
        <ele>433.25</ele>
        <time>2021-02-04T10:54:15.532Z</time>
      </trkpt>
      <trkpt lat="46.94542" lon="6.86217">
        <ele>433.1</ele>
        <time>2021-02-04T10:54:18.593Z</time>
      </trkpt>
      <trkpt lat="46.94542" lon="6.86215">
        <ele>433.1</ele>
        <time>2021-02-04T10:54:19.890Z</time>
      </trkpt>
      <trkpt lat="46.94542" lon="6.86214">
        <ele>433.1</ele>
        <time>2021-02-04T10:54:20.538Z</time>
      </trkpt>
      <trkpt lat="46.94542" lon="6.86206">
        <ele>433.1</ele>
        <time>2021-02-04T10:54:25.725Z</time>
      </trkpt>
      <trkpt lat="46.94541" lon="6.86196">
        <ele>433.1</ele>
        <time>2021-02-04T10:54:32.278Z</time>
      </trkpt>
      <trkpt lat="46.9454" lon="6.86183">
        <ele>433.05</ele>
        <time>2021-02-04T10:54:40.090Z</time>
      </trkpt>
      <trkpt lat="46.94537" lon="6.86169">
        <ele>433.05</ele>
        <time>2021-02-04T10:54:49.604Z</time>
      </trkpt>
      <trkpt lat="46.94535" lon="6.86162">
        <ele>432.91</ele>
        <time>2021-02-04T10:54:51.060Z</time>
      </trkpt>
      <trkpt lat="46.9453" lon="6.86144">
        <ele>432.96</ele>
        <time>2021-02-04T10:55:04.110Z</time>
      </trkpt>
      <trkpt lat="46.94528" lon="6.86134">
        <ele>432.96</ele>
        <time>2021-02-04T10:55:10.867Z</time>
      </trkpt>
      <trkpt lat="46.94527" lon="6.86126">
        <ele>433.01</ele>
        <time>2021-02-04T10:55:16.614Z</time>
      </trkpt>
      <trkpt lat="46.94527" lon="6.86112">
        <ele>433.01</ele>
        <time>2021-02-04T10:55:25.691Z</time>
      </trkpt>
      <trkpt lat="46.94527" lon="6.86093">
        <ele>433.05</ele>
        <time>2021-02-04T10:55:38.369Z</time>
      </trkpt>
      <trkpt lat="46.94528" lon="6.86079">
        <ele>433.2</ele>
        <time>2021-02-04T10:55:49.018Z</time>
      </trkpt>
      <trkpt lat="46.94528" lon="6.86077">
        <ele>433.27</ele>
        <time>2021-02-04T10:55:51.305Z</time>
      </trkpt>
      <trkpt lat="46.94528" lon="6.86077">
        <ele>433.27</ele>
        <time>2021-02-04T10:55:51.305Z</time>
      </trkpt>
      <trkpt lat="46.9453" lon="6.86065">
        <ele>433.34</ele>
        <time>2021-02-04T10:55:59.973Z</time>
      </trkpt>
      <trkpt lat="46.94533" lon="6.86045">
        <ele>433.7</ele>
        <time>2021-02-04T10:56:17.349Z</time>
      </trkpt>
      <trkpt lat="46.94539" lon="6.86011">
        <ele>433.99</ele>
        <time>2021-02-04T10:56:42.955Z</time>
      </trkpt>
      <trkpt lat="46.94543" lon="6.85993">
        <ele>434.04</ele>
        <time>2021-02-04T10:56:55.680Z</time>
      </trkpt>
      <trkpt lat="46.94545" lon="6.85983">
        <ele>434.13</ele>
        <time>2021-02-04T10:57:03.322Z</time>
      </trkpt>
      <trkpt lat="46.94546" lon="6.85971">
        <ele>434.08</ele>
        <time>2021-02-04T10:57:10.495Z</time>
      </trkpt>
      <trkpt lat="46.94547" lon="6.85956">
        <ele>434.08</ele>
        <time>2021-02-04T10:57:20.267Z</time>
      </trkpt>
      <trkpt lat="46.94547" lon="6.85949">
        <ele>433.99</ele>
        <time>2021-02-04T10:57:21.740Z</time>
      </trkpt>
      <trkpt lat="46.94549" lon="6.85943">
        <ele>433.87</ele>
        <time>2021-02-04T10:57:23.030Z</time>
      </trkpt>
      <trkpt lat="46.94552" lon="6.85934">
        <ele>433.87</ele>
        <time>2021-02-04T10:57:29.524Z</time>
      </trkpt>
      <trkpt lat="46.9456" lon="6.85913">
        <ele>433.92</ele>
        <time>2021-02-04T10:57:45.564Z</time>
      </trkpt>
      <trkpt lat="46.94565" lon="6.85904">
        <ele>434.03</ele>
        <time>2021-02-04T10:57:54.184Z</time>
      </trkpt>
      <trkpt lat="46.94561" lon="6.85896">
        <ele>434.1</ele>
        <time>2021-02-04T10:58:01.286Z</time>
      </trkpt>
      <trkpt lat="46.94556" lon="6.85887">
        <ele>433.96</ele>
        <time>2021-02-04T10:58:03.762Z</time>
      </trkpt>
      <trkpt lat="46.94555" lon="6.85884">
        <ele>433.96</ele>
        <time>2021-02-04T10:58:05.927Z</time>
      </trkpt>
      <trkpt lat="46.94543" lon="6.85864">
        <ele>433.96</ele>
        <time>2021-02-04T10:58:23.191Z</time>
      </trkpt>
      <trkpt lat="46.9453" lon="6.85841">
        <ele>433.96</ele>
        <time>2021-02-04T10:58:42.552Z</time>
      </trkpt>
      <trkpt lat="46.9453" lon="6.8584">
        <ele>433.96</ele>
        <time>2021-02-04T10:58:43.200Z</time>
      </trkpt>
      <trkpt lat="46.94524" lon="6.85831">
        <ele>433.96</ele>
        <time>2021-02-04T10:58:51.356Z</time>
      </trkpt>
      <trkpt lat="46.94479" lon="6.85752">
        <ele>433.96</ele>
        <time>2021-02-04T10:59:58.067Z</time>
      </trkpt>
      <trkpt lat="46.94475" lon="6.85743">
        <ele>433.96</ele>
        <time>2021-02-04T11:00:05.030Z</time>
      </trkpt>
      <trkpt lat="46.94474" lon="6.85737">
        <ele>433.96</ele>
        <time>2021-02-04T11:00:09.035Z</time>
      </trkpt>
      <trkpt lat="46.94473" lon="6.85729">
        <ele>433.96</ele>
        <time>2021-02-04T11:00:14.308Z</time>
      </trkpt>
      <trkpt lat="46.94472" lon="6.85717">
        <ele>434.1</ele>
        <time>2021-02-04T11:00:23.589Z</time>
      </trkpt>
      <trkpt lat="46.94473" lon="6.85701">
        <ele>434.25</ele>
        <time>2021-02-04T11:00:35.498Z</time>
      </trkpt>
      <trkpt lat="46.94474" lon="6.85695">
        <ele>434.32</ele>
        <time>2021-02-04T11:00:40.221Z</time>
      </trkpt>
      <trkpt lat="46.94475" lon="6.85688">
        <ele>434.32</ele>
        <time>2021-02-04T11:00:44.858Z</time>
      </trkpt>
      <trkpt lat="46.94479" lon="6.85677">
        <ele>434.46</ele>
        <time>2021-02-04T11:00:54.373Z</time>
      </trkpt>
      <trkpt lat="46.94503" lon="6.85629">
        <ele>434.82</ele>
        <time>2021-02-04T11:01:36.358Z</time>
      </trkpt>
      <trkpt lat="46.94515" lon="6.85606">
        <ele>434.89</ele>
        <time>2021-02-04T11:01:55.757Z</time>
      </trkpt>
      <trkpt lat="46.94529" lon="6.85581">
        <ele>434.89</ele>
        <time>2021-02-04T11:02:16.722Z</time>
      </trkpt>
      <trkpt lat="46.94533" lon="6.85572">
        <ele>434.89</ele>
        <time>2021-02-04T11:02:23.686Z</time>
      </trkpt>
      <trkpt lat="46.94543" lon="6.85562">
        <ele>434.74</ele>
        <time>2021-02-04T11:02:27.728Z</time>
      </trkpt>
      <trkpt lat="46.9454" lon="6.85558">
        <ele>434.81</ele>
        <time>2021-02-04T11:02:32.304Z</time>
      </trkpt>
      <trkpt lat="46.94535" lon="6.85554">
        <ele>434.7</ele>
        <time>2021-02-04T11:02:34.051Z</time>
      </trkpt>
      <trkpt lat="46.94514" lon="6.85539">
        <ele>434.4</ele>
        <time>2021-02-04T11:02:41.806Z</time>
      </trkpt>
      <trkpt lat="46.94486" lon="6.85519">
        <ele>434.29</ele>
        <time>2021-02-04T11:03:09.874Z</time>
      </trkpt>
      <trkpt lat="46.94485" lon="6.85519">
        <ele>434.29</ele>
        <time>2021-02-04T11:03:10.823Z</time>
      </trkpt>
      <trkpt lat="46.94448" lon="6.85492">
        <ele>434.17</ele>
        <time>2021-02-04T11:03:48.411Z</time>
      </trkpt>
      <trkpt lat="46.94418" lon="6.8547">
        <ele>433.98</ele>
        <time>2021-02-04T11:04:17.731Z</time>
      </trkpt>
      <trkpt lat="46.94396" lon="6.85453">
        <ele>433.91</ele>
        <time>2021-02-04T11:04:40.378Z</time>
      </trkpt>
      <trkpt lat="46.94383" lon="6.85442">
        <ele>434.05</ele>
        <time>2021-02-04T11:04:55.968Z</time>
      </trkpt>
      <trkpt lat="46.94372" lon="6.8543">
        <ele>434.12</ele>
        <time>2021-02-04T11:05:09.633Z</time>
      </trkpt>
      <trkpt lat="46.9436" lon="6.85416">
        <ele>434.33</ele>
        <time>2021-02-04T11:05:26.293Z</time>
      </trkpt>
      <trkpt lat="46.94355" lon="6.85409">
        <ele>434.33</ele>
        <time>2021-02-04T11:05:32.861Z</time>
      </trkpt>
      <trkpt lat="46.94347" lon="6.85402">
        <ele>434.4</ele>
        <time>2021-02-04T11:05:42.366Z</time>
      </trkpt>
      <trkpt lat="46.94336" lon="6.85394">
        <ele>434.47</ele>
        <time>2021-02-04T11:05:54.672Z</time>
      </trkpt>
      <trkpt lat="46.94299" lon="6.85367">
        <ele>434.41</ele>
        <time>2021-02-04T11:06:33.078Z</time>
      </trkpt>
      <trkpt lat="46.94289" lon="6.8536">
        <ele>434.31</ele>
        <time>2021-02-04T11:06:36.946Z</time>
      </trkpt>
      <trkpt lat="46.94281" lon="6.85353">
        <ele>434.25</ele>
        <time>2021-02-04T11:06:45.002Z</time>
      </trkpt>
      <trkpt lat="46.9428" lon="6.85353">
        <ele>434.25</ele>
        <time>2021-02-04T11:06:45.952Z</time>
      </trkpt>
      <trkpt lat="46.9427" lon="6.85345">
        <ele>434.19</ele>
        <time>2021-02-04T11:06:55.966Z</time>
      </trkpt>
      <trkpt lat="46.94261" lon="6.85339">
        <ele>434.24</ele>
        <time>2021-02-04T11:07:05.813Z</time>
      </trkpt>
      <trkpt lat="46.94264" lon="6.85325">
        <ele>434.05</ele>
        <time>2021-02-04T11:07:08.897Z</time>
      </trkpt>
      <trkpt lat="46.94247" lon="6.85325">
        <ele>434.07</ele>
        <time>2021-02-04T11:07:25.218Z</time>
      </trkpt>
      <trkpt lat="46.9423" lon="6.85324">
        <ele>434.17</ele>
        <time>2021-02-04T11:07:42.296Z</time>
      </trkpt>
      <trkpt lat="46.94192" lon="6.85323">
        <ele>434.22</ele>
        <time>2021-02-04T11:08:18.833Z</time>
      </trkpt>
      <trkpt lat="46.94164" lon="6.85323">
        <ele>434.31</ele>
        <time>2021-02-04T11:08:46.232Z</time>
      </trkpt>
      <trkpt lat="46.94157" lon="6.85322">
        <ele>434.31</ele>
        <time>2021-02-04T11:08:52.912Z</time>
      </trkpt>
      <trkpt lat="46.94149" lon="6.8532">
        <ele>434.31</ele>
        <time>2021-02-04T11:09:00.620Z</time>
      </trkpt>
      <trkpt lat="46.94139" lon="6.85316">
        <ele>434.36</ele>
        <time>2021-02-04T11:09:10.920Z</time>
      </trkpt>
      <trkpt lat="46.9412" lon="6.85308">
        <ele>434.36</ele>
        <time>2021-02-04T11:09:29.696Z</time>
      </trkpt>
      <trkpt lat="46.94118" lon="6.85306">
        <ele>434.31</ele>
        <time>2021-02-04T11:09:30.427Z</time>
      </trkpt>
      <trkpt lat="46.94116" lon="6.85307">
        <ele>434.36</ele>
        <time>2021-02-04T11:09:32.989Z</time>
      </trkpt>
      <trkpt lat="46.94113" lon="6.85311">
        <ele>434.31</ele>
        <time>2021-02-04T11:09:34.345Z</time>
      </trkpt>
      <trkpt lat="46.94103" lon="6.85306">
        <ele>434.31</ele>
        <time>2021-02-04T11:09:44.380Z</time>
      </trkpt>
      <trkpt lat="46.94095" lon="6.853">
        <ele>434.31</ele>
        <time>2021-02-04T11:09:52.916Z</time>
      </trkpt>
      <trkpt lat="46.94091" lon="6.85298">
        <ele>434.26</ele>
        <time>2021-02-04T11:09:54.338Z</time>
      </trkpt>
      <trkpt lat="46.94091" lon="6.85297">
        <ele>434.26</ele>
        <time>2021-02-04T11:09:54.986Z</time>
      </trkpt>
      <trkpt lat="46.94089" lon="6.85296">
        <ele>434.22</ele>
        <time>2021-02-04T11:09:55.637Z</time>
      </trkpt>
      <trkpt lat="46.94085" lon="6.85293">
        <ele>434.22</ele>
        <time>2021-02-04T11:09:59.905Z</time>
      </trkpt>
      <trkpt lat="46.94082" lon="6.85288">
        <ele>434.22</ele>
        <time>2021-02-04T11:10:04.221Z</time>
      </trkpt>
      <trkpt lat="46.94078" lon="6.85278">
        <ele>434.12</ele>
        <time>2021-02-04T11:10:06.855Z</time>
      </trkpt>
      <trkpt lat="46.94074" lon="6.8527">
        <ele>434.03</ele>
        <time>2021-02-04T11:10:09.089Z</time>
      </trkpt>
      <trkpt lat="46.94073" lon="6.85264">
        <ele>433.88</ele>
        <time>2021-02-04T11:10:10.173Z</time>
      </trkpt>
      <trkpt lat="46.94073" lon="6.85259">
        <ele>433.88</ele>
        <time>2021-02-04T11:10:13.415Z</time>
      </trkpt>
      <trkpt lat="46.94073" lon="6.85254">
        <ele>433.84</ele>
        <time>2021-02-04T11:10:14.565Z</time>
      </trkpt>
      <trkpt lat="46.94074" lon="6.8525">
        <ele>433.88</ele>
        <time>2021-02-04T11:10:17.725Z</time>
      </trkpt>
      <trkpt lat="46.9407" lon="6.85245">
        <ele>433.73</ele>
        <time>2021-02-04T11:10:19.179Z</time>
      </trkpt>
      <trkpt lat="46.94067" lon="6.8524">
        <ele>433.64</ele>
        <time>2021-02-04T11:10:20.564Z</time>
      </trkpt>
      <trkpt lat="46.94064" lon="6.85235">
        <ele>433.59</ele>
        <time>2021-02-04T11:10:22.109Z</time>
      </trkpt>
      <trkpt lat="46.9406" lon="6.85231">
        <ele>433.5</ele>
        <time>2021-02-04T11:10:23.607Z</time>
      </trkpt>
      <trkpt lat="46.94055" lon="6.85228">
        <ele>433.5</ele>
        <time>2021-02-04T11:10:28.738Z</time>
      </trkpt>
      <trkpt lat="46.94052" lon="6.85227">
        <ele>433.45</ele>
        <time>2021-02-04T11:10:29.717Z</time>
      </trkpt>
      <trkpt lat="46.94048" lon="6.85226">
        <ele>433.24</ele>
        <time>2021-02-04T11:10:30.616Z</time>
      </trkpt>
      <trkpt lat="46.94046" lon="6.85221">
        <ele>433.26</ele>
        <time>2021-02-04T11:10:34.556Z</time>
      </trkpt>
      <trkpt lat="46.94044" lon="6.85218">
        <ele>433.04</ele>
        <time>2021-02-04T11:10:35.170Z</time>
      </trkpt>
      <trkpt lat="46.94042" lon="6.85215">
        <ele>432.96</ele>
        <time>2021-02-04T11:10:35.966Z</time>
      </trkpt>
      <trkpt lat="46.94037" lon="6.85209">
        <ele>432.64</ele>
        <time>2021-02-04T11:10:37.427Z</time>
      </trkpt>
      <trkpt lat="46.94032" lon="6.85201">
        <ele>432.46</ele>
        <time>2021-02-04T11:10:39.570Z</time>
      </trkpt>
      <trkpt lat="46.94026" lon="6.85187">
        <ele>432.13</ele>
        <time>2021-02-04T11:10:42.666Z</time>
      </trkpt>
      <trkpt lat="46.94026" lon="6.85187">
        <ele>431.94</ele>
        <time>2021-02-04T11:10:42.666Z</time>
      </trkpt>
      <trkpt lat="46.94026" lon="6.85186">
        <ele>431.94</ele>
        <time>2021-02-04T11:10:43.314Z</time>
      </trkpt>
      <trkpt lat="46.94016" lon="6.85163">
        <ele>431.75</ele>
        <time>2021-02-04T11:10:49.710Z</time>
      </trkpt>
      <trkpt lat="46.94012" lon="6.8515">
        <ele>431.57</ele>
        <time>2021-02-04T11:10:52.723Z</time>
      </trkpt>
      <trkpt lat="46.94006" lon="6.85135">
        <ele>431.37</ele>
        <time>2021-02-04T11:10:56.471Z</time>
      </trkpt>
      <trkpt lat="46.94004" lon="6.85127">
        <ele>431.32</ele>
        <time>2021-02-04T11:10:58.513Z</time>
      </trkpt>
      <trkpt lat="46.94001" lon="6.85119">
        <ele>431.08</ele>
        <time>2021-02-04T11:11:00.070Z</time>
      </trkpt>
      <trkpt lat="46.93996" lon="6.85104">
        <ele>431.02</ele>
        <time>2021-02-04T11:11:10.086Z</time>
      </trkpt>
      <trkpt lat="46.93993" lon="6.85089">
        <ele>431.06</ele>
        <time>2021-02-04T11:11:20.582Z</time>
      </trkpt>
      <trkpt lat="46.93991" lon="6.85083">
        <ele>431.07</ele>
        <time>2021-02-04T11:11:25.000Z</time>
      </trkpt>
      <trkpt lat="46.93989" lon="6.85063">
        <ele>430.95</ele>
        <time>2021-02-04T11:11:29.838Z</time>
      </trkpt>
      <trkpt lat="46.93972" lon="6.84925">
        <ele>430.76</ele>
        <time>2021-02-04T11:12:58.086Z</time>
      </trkpt>
      <trkpt lat="46.9397" lon="6.84908">
        <ele>430.73</ele>
        <time>2021-02-04T11:13:08.852Z</time>
      </trkpt>
      <trkpt lat="46.93964" lon="6.8488">
        <ele>430.83</ele>
        <time>2021-02-04T11:13:28.793Z</time>
      </trkpt>
      <trkpt lat="46.93958" lon="6.84845">
        <ele>430.79</ele>
        <time>2021-02-04T11:13:51.626Z</time>
      </trkpt>
      <trkpt lat="46.93949" lon="6.84805">
        <ele>430.75</ele>
        <time>2021-02-04T11:14:18.366Z</time>
      </trkpt>
      <trkpt lat="46.93943" lon="6.84778">
        <ele>430.81</ele>
        <time>2021-02-04T11:14:37.316Z</time>
      </trkpt>
      <trkpt lat="46.93939" lon="6.84763">
        <ele>430.85</ele>
        <time>2021-02-04T11:14:48.118Z</time>
      </trkpt>
      <trkpt lat="46.93935" lon="6.8475">
        <ele>430.85</ele>
        <time>2021-02-04T11:14:57.364Z</time>
      </trkpt>
      <trkpt lat="46.9393" lon="6.84736">
        <ele>430.91</ele>
        <time>2021-02-04T11:15:08.160Z</time>
      </trkpt>
      <trkpt lat="46.93924" lon="6.8472">
        <ele>430.95</ele>
        <time>2021-02-04T11:15:20.356Z</time>
      </trkpt>
      <trkpt lat="46.93916" lon="6.84702">
        <ele>430.91</ele>
        <time>2021-02-04T11:15:33.724Z</time>
      </trkpt>
      <trkpt lat="46.939" lon="6.84663">
        <ele>430.9</ele>
        <time>2021-02-04T11:16:03.084Z</time>
      </trkpt>
      <trkpt lat="46.93892" lon="6.84645">
        <ele>430.93</ele>
        <time>2021-02-04T11:16:17.277Z</time>
      </trkpt>
      <trkpt lat="46.93883" lon="6.84625">
        <ele>430.93</ele>
        <time>2021-02-04T11:16:32.810Z</time>
      </trkpt>
      <trkpt lat="46.93865" lon="6.84586">
        <ele>431.07</ele>
        <time>2021-02-04T11:17:04.604Z</time>
      </trkpt>
      <trkpt lat="46.93859" lon="6.84573">
        <ele>431.07</ele>
        <time>2021-02-04T11:17:14.780Z</time>
      </trkpt>
      <trkpt lat="46.93853" lon="6.84562">
        <ele>431.07</ele>
        <time>2021-02-04T11:17:23.909Z</time>
      </trkpt>
      <trkpt lat="46.93849" lon="6.84556">
        <ele>431.13</ele>
        <time>2021-02-04T11:17:29.925Z</time>
      </trkpt>
      <trkpt lat="46.93837" lon="6.84539">
        <ele>431.05</ele>
        <time>2021-02-04T11:17:44.696Z</time>
      </trkpt>
      <trkpt lat="46.93822" lon="6.84524">
        <ele>431.05</ele>
        <time>2021-02-04T11:18:01.947Z</time>
      </trkpt>
      <trkpt lat="46.93805" lon="6.84507">
        <ele>431.18</ele>
        <time>2021-02-04T11:18:22.697Z</time>
      </trkpt>
      <trkpt lat="46.93805" lon="6.84506">
        <ele>431.18</ele>
        <time>2021-02-04T11:18:23.346Z</time>
      </trkpt>
      <trkpt lat="46.93799" lon="6.84501">
        <ele>431.31</ele>
        <time>2021-02-04T11:18:31.269Z</time>
      </trkpt>
      <trkpt lat="46.93759" lon="6.84463">
        <ele>431.13</ele>
        <time>2021-02-04T11:19:14.074Z</time>
      </trkpt>
      <trkpt lat="46.9375" lon="6.84456">
        <ele>431.22</ele>
        <time>2021-02-04T11:19:24.604Z</time>
      </trkpt>
      <trkpt lat="46.93713" lon="6.84421">
        <ele>431.08</ele>
        <time>2021-02-04T11:20:04.495Z</time>
      </trkpt>
      <trkpt lat="46.93678" lon="6.84389">
        <ele>430.94</ele>
        <time>2021-02-04T11:20:41.745Z</time>
      </trkpt>
      <trkpt lat="46.93657" lon="6.84368">
        <ele>430.94</ele>
        <time>2021-02-04T11:21:05.895Z</time>
      </trkpt>
      <trkpt lat="46.93648" lon="6.84358">
        <ele>430.94</ele>
        <time>2021-02-04T11:21:16.625Z</time>
      </trkpt>
      <trkpt lat="46.93641" lon="6.84349">
        <ele>430.94</ele>
        <time>2021-02-04T11:21:25.471Z</time>
      </trkpt>
      <trkpt lat="46.93635" lon="6.8434">
        <ele>431.01</ele>
        <time>2021-02-04T11:21:34.286Z</time>
      </trkpt>
      <trkpt lat="46.93631" lon="6.84331">
        <ele>431.01</ele>
        <time>2021-02-04T11:21:41.250Z</time>
      </trkpt>
      <trkpt lat="46.93601" lon="6.84262">
        <ele>431.29</ele>
        <time>2021-02-04T11:22:36.851Z</time>
      </trkpt>
      <trkpt lat="46.93589" lon="6.84237">
        <ele>431.29</ele>
        <time>2021-02-04T11:22:56.668Z</time>
      </trkpt>
      <trkpt lat="46.93581" lon="6.84221">
        <ele>431.29</ele>
        <time>2021-02-04T11:23:09.529Z</time>
      </trkpt>
      <trkpt lat="46.93566" lon="6.84189">
        <ele>431.24</ele>
        <time>2021-02-04T11:23:33.993Z</time>
      </trkpt>
      <trkpt lat="46.93562" lon="6.84182">
        <ele>431.24</ele>
        <time>2021-02-04T11:23:39.912Z</time>
      </trkpt>
      <trkpt lat="46.93559" lon="6.84177">
        <ele>431.14</ele>
        <time>2021-02-04T11:23:41.263Z</time>
      </trkpt>
      <trkpt lat="46.93537" lon="6.84146">
        <ele>431.1</ele>
        <time>2021-02-04T11:24:09.687Z</time>
      </trkpt>
      <trkpt lat="46.93492" lon="6.84087">
        <ele>431.1</ele>
        <time>2021-02-04T11:25:07.051Z</time>
      </trkpt>
      <trkpt lat="46.93477" lon="6.84067">
        <ele>431.14</ele>
        <time>2021-02-04T11:25:26.671Z</time>
      </trkpt>
      <trkpt lat="46.93469" lon="6.84056">
        <ele>431.05</ele>
        <time>2021-02-04T11:25:30.544Z</time>
      </trkpt>
      <trkpt lat="46.93463" lon="6.84049">
        <ele>431.05</ele>
        <time>2021-02-04T11:25:37.829Z</time>
      </trkpt>
      <trkpt lat="46.93458" lon="6.84044">
        <ele>431.05</ele>
        <time>2021-02-04T11:25:43.579Z</time>
      </trkpt>
      <trkpt lat="46.9345" lon="6.84037">
        <ele>431.14</ele>
        <time>2021-02-04T11:25:53.289Z</time>
      </trkpt>
      <trkpt lat="46.93442" lon="6.84031">
        <ele>431.1</ele>
        <time>2021-02-04T11:26:01.281Z</time>
      </trkpt>
      <trkpt lat="46.93429" lon="6.84021">
        <ele>431.1</ele>
        <time>2021-02-04T11:26:15.227Z</time>
      </trkpt>
      <trkpt lat="46.93417" lon="6.84012">
        <ele>431.14</ele>
        <time>2021-02-04T11:26:28.389Z</time>
      </trkpt>
      <trkpt lat="46.93407" lon="6.84005">
        <ele>431.05</ele>
        <time>2021-02-04T11:26:32.305Z</time>
      </trkpt>
      <trkpt lat="46.93384" lon="6.83988">
        <ele>431.05</ele>
        <time>2021-02-04T11:26:56.773Z</time>
      </trkpt>
      <trkpt lat="46.9337" lon="6.83979">
        <ele>431.14</ele>
        <time>2021-02-04T11:27:12.122Z</time>
      </trkpt>
      <trkpt lat="46.93357" lon="6.8397">
        <ele>431.14</ele>
        <time>2021-02-04T11:27:25.779Z</time>
      </trkpt>
      <trkpt lat="46.9332" lon="6.83944">
        <ele>431.21</ele>
        <time>2021-02-04T11:28:05.374Z</time>
      </trkpt>
      <trkpt lat="46.93319" lon="6.83944">
        <ele>431.21</ele>
        <time>2021-02-04T11:28:06.324Z</time>
      </trkpt>
      <trkpt lat="46.93297" lon="6.83929">
        <ele>431.29</ele>
        <time>2021-02-04T11:28:30.089Z</time>
      </trkpt>
      <trkpt lat="46.93287" lon="6.83921">
        <ele>431.29</ele>
        <time>2021-02-04T11:28:40.911Z</time>
      </trkpt>
      <trkpt lat="46.93283" lon="6.83917">
        <ele>431.29</ele>
        <time>2021-02-04T11:28:45.512Z</time>
      </trkpt>
      <trkpt lat="46.93279" lon="6.83914">
        <ele>431.29</ele>
        <time>2021-02-04T11:28:49.780Z</time>
      </trkpt>
      <trkpt lat="46.93276" lon="6.83911">
        <ele>431.29</ele>
        <time>2021-02-04T11:28:53.230Z</time>
      </trkpt>
      <trkpt lat="46.93272" lon="6.83907">
        <ele>431.43</ele>
        <time>2021-02-04T11:28:59.487Z</time>
      </trkpt>
      <trkpt lat="46.93259" lon="6.83899">
        <ele>431.43</ele>
        <time>2021-02-04T11:29:12.879Z</time>
      </trkpt>
      <trkpt lat="46.93254" lon="6.83896">
        <ele>431.32</ele>
        <time>2021-02-04T11:29:14.515Z</time>
      </trkpt>
      <trkpt lat="46.93246" lon="6.83892">
        <ele>431.32</ele>
        <time>2021-02-04T11:29:22.544Z</time>
      </trkpt>
      <trkpt lat="46.93216" lon="6.83873">
        <ele>431.39</ele>
        <time>2021-02-04T11:29:54.208Z</time>
      </trkpt>
      <trkpt lat="46.93196" lon="6.83862">
        <ele>431.46</ele>
        <time>2021-02-04T11:30:15.126Z</time>
      </trkpt>
      <trkpt lat="46.93177" lon="6.83854">
        <ele>431.39</ele>
        <time>2021-02-04T11:30:32.936Z</time>
      </trkpt>
      <trkpt lat="46.93154" lon="6.83845">
        <ele>431.43</ele>
        <time>2021-02-04T11:30:55.900Z</time>
      </trkpt>
      <trkpt lat="46.93153" lon="6.83845">
        <ele>431.43</ele>
        <time>2021-02-04T11:30:56.849Z</time>
      </trkpt>
      <trkpt lat="46.93124" lon="6.83834">
        <ele>431.46</ele>
        <time>2021-02-04T11:31:25.564Z</time>
      </trkpt>
      <trkpt lat="46.93074" lon="6.83814">
        <ele>431.46</ele>
        <time>2021-02-04T11:32:14.791Z</time>
      </trkpt>
      <trkpt lat="46.93061" lon="6.83811">
        <ele>431.46</ele>
        <time>2021-02-04T11:32:27.290Z</time>
      </trkpt>
      <trkpt lat="46.93049" lon="6.83807">
        <ele>431.39</ele>
        <time>2021-02-04T11:32:38.042Z</time>
      </trkpt>
      <trkpt lat="46.93037" lon="6.83805">
        <ele>431.25</ele>
        <time>2021-02-04T11:32:42.116Z</time>
      </trkpt>
      <trkpt lat="46.93008" lon="6.83799">
        <ele>431.32</ele>
        <time>2021-02-04T11:33:10.554Z</time>
      </trkpt>
      <trkpt lat="46.92973" lon="6.83792">
        <ele>431.39</ele>
        <time>2021-02-04T11:33:44.724Z</time>
      </trkpt>
      <trkpt lat="46.92943" lon="6.83786">
        <ele>431.46</ele>
        <time>2021-02-04T11:34:14.103Z</time>
      </trkpt>
      <trkpt lat="46.92841" lon="6.83766">
        <ele>431.32</ele>
        <time>2021-02-04T11:35:49.846Z</time>
      </trkpt>
      <trkpt lat="46.92827" lon="6.83763">
        <ele>431.25</ele>
        <time>2021-02-04T11:36:02.337Z</time>
      </trkpt>
      <trkpt lat="46.92783" lon="6.83755">
        <ele>431.15</ele>
        <time>2021-02-04T11:36:43.040Z</time>
      </trkpt>
      <trkpt lat="46.92776" lon="6.83754">
        <ele>431.17</ele>
        <time>2021-02-04T11:36:49.898Z</time>
      </trkpt>
      <trkpt lat="46.92766" lon="6.83751">
        <ele>431.17</ele>
        <time>2021-02-04T11:36:59.593Z</time>
      </trkpt>
      <trkpt lat="46.92754" lon="6.83748">
        <ele>431.26</ele>
        <time>2021-02-04T11:37:11.995Z</time>
      </trkpt>
      <trkpt lat="46.92743" lon="6.83746">
        <ele>431.26</ele>
        <time>2021-02-04T11:37:22.522Z</time>
      </trkpt>
      <trkpt lat="46.92734" lon="6.83743">
        <ele>431.29</ele>
        <time>2021-02-04T11:37:31.557Z</time>
      </trkpt>
      <trkpt lat="46.92715" lon="6.83738">
        <ele>431.41</ele>
        <time>2021-02-04T11:37:50.999Z</time>
      </trkpt>
      <trkpt lat="46.92691" lon="6.8373">
        <ele>431.41</ele>
        <time>2021-02-04T11:38:14.375Z</time>
      </trkpt>
      <trkpt lat="46.92668" lon="6.83721">
        <ele>431.41</ele>
        <time>2021-02-04T11:38:36.986Z</time>
      </trkpt>
      <trkpt lat="46.92659" lon="6.83716">
        <ele>431.41</ele>
        <time>2021-02-04T11:38:46.128Z</time>
      </trkpt>
      <trkpt lat="46.92653" lon="6.83711">
        <ele>431.34</ele>
        <time>2021-02-04T11:38:48.502Z</time>
      </trkpt>
      <trkpt lat="46.92648" lon="6.83707">
        <ele>431.34</ele>
        <time>2021-02-04T11:38:53.913Z</time>
      </trkpt>
      <trkpt lat="46.92641" lon="6.83698">
        <ele>431.41</ele>
        <time>2021-02-04T11:39:03.415Z</time>
      </trkpt>
      <trkpt lat="46.92636" lon="6.83692">
        <ele>431.34</ele>
        <time>2021-02-04T11:39:05.617Z</time>
      </trkpt>
      <trkpt lat="46.92631" lon="6.83683">
        <ele>431.27</ele>
        <time>2021-02-04T11:39:08.389Z</time>
      </trkpt>
      <trkpt lat="46.92624" lon="6.83667">
        <ele>431.41</ele>
        <time>2021-02-04T11:39:22.065Z</time>
      </trkpt>
      <trkpt lat="46.92622" lon="6.83659">
        <ele>431.41</ele>
        <time>2021-02-04T11:39:27.591Z</time>
      </trkpt>
      <trkpt lat="46.9262" lon="6.83653">
        <ele>431.41</ele>
        <time>2021-02-04T11:39:31.922Z</time>
      </trkpt>
      <trkpt lat="46.92618" lon="6.83643">
        <ele>431.41</ele>
        <time>2021-02-04T11:39:38.680Z</time>
      </trkpt>
      <trkpt lat="46.92617" lon="6.83634">
        <ele>431.32</ele>
        <time>2021-02-04T11:39:40.705Z</time>
      </trkpt>
      <trkpt lat="46.92618" lon="6.8362">
        <ele>431.14</ele>
        <time>2021-02-04T11:39:43.673Z</time>
      </trkpt>
      <trkpt lat="46.92619" lon="6.83608">
        <ele>431.12</ele>
        <time>2021-02-04T11:39:51.233Z</time>
      </trkpt>
      <trkpt lat="46.92621" lon="6.83594">
        <ele>431.16</ele>
        <time>2021-02-04T11:40:00.872Z</time>
      </trkpt>
      <trkpt lat="46.92624" lon="6.83583">
        <ele>431.21</ele>
        <time>2021-02-04T11:40:09.016Z</time>
      </trkpt>
      <trkpt lat="46.92631" lon="6.8356">
        <ele>431.26</ele>
        <time>2021-02-04T11:40:25.795Z</time>
      </trkpt>
      <trkpt lat="46.92641" lon="6.83529">
        <ele>431.34</ele>
        <time>2021-02-04T11:40:48.751Z</time>
      </trkpt>
      <trkpt lat="46.92648" lon="6.83506">
        <ele>431.43</ele>
        <time>2021-02-04T11:41:05.906Z</time>
      </trkpt>
      <trkpt lat="46.92651" lon="6.83497">
        <ele>431.43</ele>
        <time>2021-02-04T11:41:12.402Z</time>
      </trkpt>
      <trkpt lat="46.92657" lon="6.83478">
        <ele>431.48</ele>
        <time>2021-02-04T11:41:26.428Z</time>
      </trkpt>
      <trkpt lat="46.92664" lon="6.83455">
        <ele>431.48</ele>
        <time>2021-02-04T11:41:42.761Z</time>
      </trkpt>
      <trkpt lat="46.92681" lon="6.83403">
        <ele>431.39</ele>
        <time>2021-02-04T11:42:18.888Z</time>
      </trkpt>
      <trkpt lat="46.9269" lon="6.83377">
        <ele>431.39</ele>
        <time>2021-02-04T11:42:37.795Z</time>
      </trkpt>
      <trkpt lat="46.92694" lon="6.83363">
        <ele>431.39</ele>
        <time>2021-02-04T11:42:47.638Z</time>
      </trkpt>
      <trkpt lat="46.92699" lon="6.83341">
        <ele>431.34</ele>
        <time>2021-02-04T11:43:01.983Z</time>
      </trkpt>
      <trkpt lat="46.92704" lon="6.83317">
        <ele>431.39</ele>
        <time>2021-02-04T11:43:18.704Z</time>
      </trkpt>
      <trkpt lat="46.92716" lon="6.83259">
        <ele>431.34</ele>
        <time>2021-02-04T11:43:57.298Z</time>
      </trkpt>
      <trkpt lat="46.92721" lon="6.83232">
        <ele>431.34</ele>
        <time>2021-02-04T11:44:15.442Z</time>
      </trkpt>
      <trkpt lat="46.92725" lon="6.83216">
        <ele>431.29</ele>
        <time>2021-02-04T11:44:25.811Z</time>
      </trkpt>
      <trkpt lat="46.92725" lon="6.83216">
        <ele>431.29</ele>
        <time>2021-02-04T11:44:25.811Z</time>
      </trkpt>
      <trkpt lat="46.92729" lon="6.83192">
        <ele>431.24</ele>
        <time>2021-02-04T11:44:41.138Z</time>
      </trkpt>
      <trkpt lat="46.92734" lon="6.83165">
        <ele>431.43</ele>
        <time>2021-02-04T11:45:01.102Z</time>
      </trkpt>
      <trkpt lat="46.92735" lon="6.83155">
        <ele>431.39</ele>
        <time>2021-02-04T11:45:07.122Z</time>
      </trkpt>
      <trkpt lat="46.92735" lon="6.83147">
        <ele>431.34</ele>
        <time>2021-02-04T11:45:09.026Z</time>
      </trkpt>
      <trkpt lat="46.92736" lon="6.83136">
        <ele>431.34</ele>
        <time>2021-02-04T11:45:16.223Z</time>
      </trkpt>
      <trkpt lat="46.92735" lon="6.83126">
        <ele>431.34</ele>
        <time>2021-02-04T11:45:22.778Z</time>
      </trkpt>
      <trkpt lat="46.92734" lon="6.8312">
        <ele>431.34</ele>
        <time>2021-02-04T11:45:26.784Z</time>
      </trkpt>
      <trkpt lat="46.92733" lon="6.8311">
        <ele>431.29</ele>
        <time>2021-02-04T11:45:32.684Z</time>
      </trkpt>
      <trkpt lat="46.92724" lon="6.83066">
        <ele>431.29</ele>
        <time>2021-02-04T11:46:02.476Z</time>
      </trkpt>
      <trkpt lat="46.92714" lon="6.83023">
        <ele>431.2</ele>
        <time>2021-02-04T11:46:30.684Z</time>
      </trkpt>
      <trkpt lat="46.92704" lon="6.82982">
        <ele>431.1</ele>
        <time>2021-02-04T11:46:57.539Z</time>
      </trkpt>
      <trkpt lat="46.92701" lon="6.82971">
        <ele>431.15</ele>
        <time>2021-02-04T11:47:05.682Z</time>
      </trkpt>
      <trkpt lat="46.92697" lon="6.8296">
        <ele>431.1</ele>
        <time>2021-02-04T11:47:13.098Z</time>
      </trkpt>
      <trkpt lat="46.92685" lon="6.82927">
        <ele>431.04</ele>
        <time>2021-02-04T11:47:36.504Z</time>
      </trkpt>
      <trkpt lat="46.92677" lon="6.8291">
        <ele>430.94</ele>
        <time>2021-02-04T11:47:48.582Z</time>
      </trkpt>
      <trkpt lat="46.92668" lon="6.82888">
        <ele>430.94</ele>
        <time>2021-02-04T11:48:05.216Z</time>
      </trkpt>
      <trkpt lat="46.92659" lon="6.82871">
        <ele>430.93</ele>
        <time>2021-02-04T11:48:19.023Z</time>
      </trkpt>
      <trkpt lat="46.92647" lon="6.82848">
        <ele>430.99</ele>
        <time>2021-02-04T11:48:38.334Z</time>
      </trkpt>
      <trkpt lat="46.9263" lon="6.82819">
        <ele>431.1</ele>
        <time>2021-02-04T11:49:04.118Z</time>
      </trkpt>
      <trkpt lat="46.92623" lon="6.82808">
        <ele>431.03</ele>
        <time>2021-02-04T11:49:12.948Z</time>
      </trkpt>
      <trkpt lat="46.92615" lon="6.8279">
        <ele>430.95</ele>
        <time>2021-02-04T11:49:25.803Z</time>
      </trkpt>
      <trkpt lat="46.92608" lon="6.82773">
        <ele>431.02</ele>
        <time>2021-02-04T11:49:39.318Z</time>
      </trkpt>
      <trkpt lat="46.92602" lon="6.82756">
        <ele>430.98</ele>
        <time>2021-02-04T11:49:51.174Z</time>
      </trkpt>
      <trkpt lat="46.92598" lon="6.82741">
        <ele>431.05</ele>
        <time>2021-02-04T11:50:02.265Z</time>
      </trkpt>
      <trkpt lat="46.92591" lon="6.82715">
        <ele>431.05</ele>
        <time>2021-02-04T11:50:20.393Z</time>
      </trkpt>
      <trkpt lat="46.92588" lon="6.82704">
        <ele>431.09</ele>
        <time>2021-02-04T11:50:28.440Z</time>
      </trkpt>
      <trkpt lat="46.92588" lon="6.82703">
        <ele>431.09</ele>
        <time>2021-02-04T11:50:29.088Z</time>
      </trkpt>
      <trkpt lat="46.92585" lon="6.82693">
        <ele>431.13</ele>
        <time>2021-02-04T11:50:36.539Z</time>
      </trkpt>
      <trkpt lat="46.92581" lon="6.82681">
        <ele>431.13</ele>
        <time>2021-02-04T11:50:45.200Z</time>
      </trkpt>
      <trkpt lat="46.92575" lon="6.82668">
        <ele>431.2</ele>
        <time>2021-02-04T11:50:56.025Z</time>
      </trkpt>
      <trkpt lat="46.92568" lon="6.82656">
        <ele>431.27</ele>
        <time>2021-02-04T11:51:06.908Z</time>
      </trkpt>
      <trkpt lat="46.92561" lon="6.82645">
        <ele>431.27</ele>
        <time>2021-02-04T11:51:16.660Z</time>
      </trkpt>
      <trkpt lat="46.92554" lon="6.82637">
        <ele>431.34</ele>
        <time>2021-02-04T11:51:25.750Z</time>
      </trkpt>
      <trkpt lat="46.92547" lon="6.8263">
        <ele>431.34</ele>
        <time>2021-02-04T11:51:33.801Z</time>
      </trkpt>
      <trkpt lat="46.92538" lon="6.82622">
        <ele>431.23</ele>
        <time>2021-02-04T11:51:37.406Z</time>
      </trkpt>
      <trkpt lat="46.92523" lon="6.82609">
        <ele>431.24</ele>
        <time>2021-02-04T11:51:54.048Z</time>
      </trkpt>
      <trkpt lat="46.92496" lon="6.82587">
        <ele>431.21</ele>
        <time>2021-02-04T11:52:22.964Z</time>
      </trkpt>
      <trkpt lat="46.92491" lon="6.82582">
        <ele>431.11</ele>
        <time>2021-02-04T11:52:24.884Z</time>
      </trkpt>
      <trkpt lat="46.92482" lon="6.82572">
        <ele>431.12</ele>
        <time>2021-02-04T11:52:35.702Z</time>
      </trkpt>
      <trkpt lat="46.92471" lon="6.82558">
        <ele>431.17</ele>
        <time>2021-02-04T11:52:49.993Z</time>
      </trkpt>
      <trkpt lat="46.92465" lon="6.82548">
        <ele>431.16</ele>
        <time>2021-02-04T11:52:58.484Z</time>
      </trkpt>
      <trkpt lat="46.92459" lon="6.82534">
        <ele>431.25</ele>
        <time>2021-02-04T11:53:10.049Z</time>
      </trkpt>
      <trkpt lat="46.92453" lon="6.82517">
        <ele>431.13</ele>
        <time>2021-02-04T11:53:14.600Z</time>
      </trkpt>
      <trkpt lat="46.92448" lon="6.82495">
        <ele>431.22</ele>
        <time>2021-02-04T11:53:30.466Z</time>
      </trkpt>
      <trkpt lat="46.9244" lon="6.82456">
        <ele>431.29</ele>
        <time>2021-02-04T11:53:57.502Z</time>
      </trkpt>
      <trkpt lat="46.92426" lon="6.8239">
        <ele>430.95</ele>
        <time>2021-02-04T11:54:37.874Z</time>
      </trkpt>
      <trkpt lat="46.92409" lon="6.82314">
        <ele>431.3</ele>
        <time>2021-02-04T11:55:32.982Z</time>
      </trkpt>
      <trkpt lat="46.92401" lon="6.82274">
        <ele>431.38</ele>
        <time>2021-02-04T11:56:00.732Z</time>
      </trkpt>
      <trkpt lat="46.92401" lon="6.82273">
        <ele>431.38</ele>
        <time>2021-02-04T11:56:01.380Z</time>
      </trkpt>
      <trkpt lat="46.92401" lon="6.8227">
        <ele>431.45</ele>
        <time>2021-02-04T11:56:04.213Z</time>
      </trkpt>
      <trkpt lat="46.92404" lon="6.82269">
        <ele>431.45</ele>
        <time>2021-02-04T11:56:07.135Z</time>
      </trkpt>
      <trkpt lat="46.92409" lon="6.82264">
        <ele>431.64</ele>
        <time>2021-02-04T11:56:15.205Z</time>
      </trkpt>
      <trkpt lat="46.92418" lon="6.82256">
        <ele>431.93</ele>
        <time>2021-02-04T11:56:28.579Z</time>
      </trkpt>
      <trkpt lat="46.9243" lon="6.82244">
        <ele>432.88</ele>
        <time>2021-02-04T11:56:55.414Z</time>
      </trkpt>
      <trkpt lat="46.92436" lon="6.82238">
        <ele>433.68</ele>
        <time>2021-02-04T11:57:15.319Z</time>
      </trkpt>
      <trkpt lat="46.92447" lon="6.82227">
        <ele>435.25</ele>
        <time>2021-02-04T11:57:55.152Z</time>
      </trkpt>
      <trkpt lat="46.92451" lon="6.82223">
        <ele>436.05</ele>
        <time>2021-02-04T11:58:12.896Z</time>
      </trkpt>
      <trkpt lat="46.92455" lon="6.8222">
        <ele>436.62</ele>
        <time>2021-02-04T11:58:27.925Z</time>
      </trkpt>
      <trkpt lat="46.92458" lon="6.8222">
        <ele>436.95</ele>
        <time>2021-02-04T11:58:36.135Z</time>
      </trkpt>
      <trkpt lat="46.9246" lon="6.8222">
        <ele>437.33</ele>
        <time>2021-02-04T11:58:43.461Z</time>
      </trkpt>
      <trkpt lat="46.92463" lon="6.8222">
        <ele>437.71</ele>
        <time>2021-02-04T11:58:53.472Z</time>
      </trkpt>
      <trkpt lat="46.92466" lon="6.82222">
        <ele>438.24</ele>
        <time>2021-02-04T11:59:05.548Z</time>
      </trkpt>
      <trkpt lat="46.92476" lon="6.82231">
        <ele>440.3</ele>
        <time>2021-02-04T11:59:48.547Z</time>
      </trkpt>
      <trkpt lat="46.9248" lon="6.82234">
        <ele>440.82</ele>
        <time>2021-02-04T12:00:01.653Z</time>
      </trkpt>
      <trkpt lat="46.92485" lon="6.82239">
        <ele>441.88</ele>
        <time>2021-02-04T12:00:23.833Z</time>
      </trkpt>
      <trkpt lat="46.9249" lon="6.82243">
        <ele>442.83</ele>
        <time>2021-02-04T12:00:44.705Z</time>
      </trkpt>
      <trkpt lat="46.92495" lon="6.82245">
        <ele>443.62</ele>
        <time>2021-02-04T12:01:03.693Z</time>
      </trkpt>
      <trkpt lat="46.925" lon="6.82245">
        <ele>444.79</ele>
        <time>2021-02-04T12:01:22.009Z</time>
      </trkpt>
      <trkpt lat="46.92505" lon="6.82244">
        <ele>445.67</ele>
        <time>2021-02-04T12:01:40.496Z</time>
      </trkpt>
      <trkpt lat="46.92508" lon="6.82243">
        <ele>446.34</ele>
        <time>2021-02-04T12:01:51.767Z</time>
      </trkpt>
      <trkpt lat="46.92511" lon="6.82241">
        <ele>446.84</ele>
        <time>2021-02-04T12:02:03.842Z</time>
      </trkpt>
      <trkpt lat="46.92515" lon="6.82236">
        <ele>447.76</ele>
        <time>2021-02-04T12:02:23.109Z</time>
      </trkpt>
      <trkpt lat="46.9252" lon="6.82228">
        <ele>448.76</ele>
        <time>2021-02-04T12:02:50.240Z</time>
      </trkpt>
      <trkpt lat="46.92525" lon="6.82214">
        <ele>450.35</ele>
        <time>2021-02-04T12:03:29.766Z</time>
      </trkpt>
      <trkpt lat="46.92525" lon="6.82214">
        <ele>450.35</ele>
        <time>2021-02-04T12:03:29.766Z</time>
      </trkpt>
      <trkpt lat="46.92536" lon="6.82188">
        <ele>451.95</ele>
        <time>2021-02-04T12:04:11.775Z</time>
      </trkpt>
      <trkpt lat="46.92542" lon="6.82174">
        <ele>453.23</ele>
        <time>2021-02-04T12:04:43.840Z</time>
      </trkpt>
      <trkpt lat="46.9255" lon="6.82161">
        <ele>454.98</ele>
        <time>2021-02-04T12:05:27.619Z</time>
      </trkpt>
      <trkpt lat="46.9256" lon="6.82148">
        <ele>456.78</ele>
        <time>2021-02-04T12:06:16.607Z</time>
      </trkpt>
      <trkpt lat="46.92574" lon="6.82132">
        <ele>459.1</ele>
        <time>2021-02-04T12:07:19.135Z</time>
      </trkpt>
      <trkpt lat="46.92585" lon="6.82122">
        <ele>459.72</ele>
        <time>2021-02-04T12:07:40.343Z</time>
      </trkpt>
      <trkpt lat="46.92599" lon="6.82111">
        <ele>460.22</ele>
        <time>2021-02-04T12:08:01.544Z</time>
      </trkpt>
      <trkpt lat="46.92604" lon="6.82109">
        <ele>460.12</ele>
        <time>2021-02-04T12:08:03.133Z</time>
      </trkpt>
      <trkpt lat="46.92605" lon="6.82113">
        <ele>460.1</ele>
        <time>2021-02-04T12:08:05.633Z</time>
      </trkpt>
      <trkpt lat="46.92616" lon="6.82141">
        <ele>461.07</ele>
        <time>2021-02-04T12:08:40.713Z</time>
      </trkpt>
      <trkpt lat="46.9262" lon="6.82149">
        <ele>461.56</ele>
        <time>2021-02-04T12:08:53.889Z</time>
      </trkpt>
      <trkpt lat="46.92619" lon="6.82149">
        <ele>461.56</ele>
        <time>2021-02-04T12:08:54.839Z</time>
      </trkpt>
      <trkpt lat="46.92626" lon="6.82166">
        <ele>462.05</ele>
        <time>2021-02-04T12:09:14.087Z</time>
      </trkpt>
      <trkpt lat="46.92639" lon="6.82198">
        <ele>463.66</ele>
        <time>2021-02-04T12:10:00.351Z</time>
      </trkpt>
      <trkpt lat="46.92645" lon="6.82215">
        <ele>464.41</ele>
        <time>2021-02-04T12:10:23.158Z</time>
      </trkpt>
      <trkpt lat="46.92651" lon="6.82234">
        <ele>465.02</ele>
        <time>2021-02-04T12:10:45.447Z</time>
      </trkpt>
      <trkpt lat="46.92668" lon="6.82291">
        <ele>466.8</ele>
        <time>2021-02-04T12:11:50.921Z</time>
      </trkpt>
      <trkpt lat="46.92675" lon="6.82313">
        <ele>467.52</ele>
        <time>2021-02-04T12:12:17.066Z</time>
      </trkpt>
      <trkpt lat="46.92688" lon="6.82355">
        <ele>469.01</ele>
        <time>2021-02-04T12:13:08.459Z</time>
      </trkpt>
      <trkpt lat="46.92692" lon="6.82364">
        <ele>469.42</ele>
        <time>2021-02-04T12:13:21.128Z</time>
      </trkpt>
      <trkpt lat="46.92697" lon="6.82374">
        <ele>469.94</ele>
        <time>2021-02-04T12:13:36.322Z</time>
      </trkpt>
      <trkpt lat="46.92701" lon="6.82383">
        <ele>470.32</ele>
        <time>2021-02-04T12:13:48.647Z</time>
      </trkpt>
      <trkpt lat="46.92702" lon="6.82392">
        <ele>470.51</ele>
        <time>2021-02-04T12:13:56.856Z</time>
      </trkpt>
      <trkpt lat="46.92706" lon="6.82411">
        <ele>471.03</ele>
        <time>2021-02-04T12:14:16.719Z</time>
      </trkpt>
      <trkpt lat="46.9271" lon="6.82425">
        <ele>471.36</ele>
        <time>2021-02-04T12:14:30.615Z</time>
      </trkpt>
      <trkpt lat="46.92716" lon="6.82444">
        <ele>471.93</ele>
        <time>2021-02-04T12:14:52.004Z</time>
      </trkpt>
      <trkpt lat="46.92722" lon="6.82459">
        <ele>472.5</ele>
        <time>2021-02-04T12:15:11.466Z</time>
      </trkpt>
      <trkpt lat="46.92725" lon="6.82463">
        <ele>472.74</ele>
        <time>2021-02-04T12:15:18.634Z</time>
      </trkpt>
      <trkpt lat="46.92728" lon="6.82468">
        <ele>472.88</ele>
        <time>2021-02-04T12:15:24.647Z</time>
      </trkpt>
      <trkpt lat="46.92741" lon="6.82479">
        <ele>473.67</ele>
        <time>2021-02-04T12:15:50.016Z</time>
      </trkpt>
      <trkpt lat="46.92751" lon="6.82488">
        <ele>474.3</ele>
        <time>2021-02-04T12:16:09.989Z</time>
      </trkpt>
      <trkpt lat="46.92761" lon="6.82495">
        <ele>474.87</ele>
        <time>2021-02-04T12:16:28.570Z</time>
      </trkpt>
      <trkpt lat="46.92767" lon="6.82502">
        <ele>475.26</ele>
        <time>2021-02-04T12:16:41.380Z</time>
      </trkpt>
      <trkpt lat="46.92779" lon="6.82521">
        <ele>475.74</ele>
        <time>2021-02-04T12:17:03.724Z</time>
      </trkpt>
      <trkpt lat="46.92803" lon="6.82557">
        <ele>477.82</ele>
        <time>2021-02-04T12:18:05.013Z</time>
      </trkpt>
      <trkpt lat="46.92827" lon="6.82597">
        <ele>480.79</ele>
        <time>2021-02-04T12:19:21.216Z</time>
      </trkpt>
      <trkpt lat="46.92841" lon="6.8262">
        <ele>481.82</ele>
        <time>2021-02-04T12:19:55.919Z</time>
      </trkpt>
      <trkpt lat="46.92856" lon="6.82642">
        <ele>482.47</ele>
        <time>2021-02-04T12:20:23.941Z</time>
      </trkpt>
      <trkpt lat="46.92856" lon="6.82641">
        <ele>482.47</ele>
        <time>2021-02-04T12:20:24.590Z</time>
      </trkpt>
      <trkpt lat="46.9286" lon="6.82647">
        <ele>483.13</ele>
        <time>2021-02-04T12:20:41.202Z</time>
      </trkpt>
      <trkpt lat="46.92874" lon="6.82669">
        <ele>483.57</ele>
        <time>2021-02-04T12:21:05.469Z</time>
      </trkpt>
      <trkpt lat="46.9288" lon="6.82677">
        <ele>483.64</ele>
        <time>2021-02-04T12:21:13.837Z</time>
      </trkpt>
      <trkpt lat="46.92887" lon="6.82666">
        <ele>483.44</ele>
        <time>2021-02-04T12:21:16.978Z</time>
      </trkpt>
      <trkpt lat="46.9291" lon="6.82627">
        <ele>483.31</ele>
        <time>2021-02-04T12:21:48.609Z</time>
      </trkpt>
      <trkpt lat="46.92932" lon="6.82586">
        <ele>483.2</ele>
        <time>2021-02-04T12:22:20.899Z</time>
      </trkpt>
      <trkpt lat="46.92949" lon="6.82558">
        <ele>482.8</ele>
        <time>2021-02-04T12:22:29.099Z</time>
      </trkpt>
      <trkpt lat="46.92961" lon="6.82536">
        <ele>482.16</ele>
        <time>2021-02-04T12:22:34.157Z</time>
      </trkpt>
      <trkpt lat="46.92961" lon="6.82536">
        <ele>482.16</ele>
        <time>2021-02-04T12:22:34.157Z</time>
      </trkpt>
      <trkpt lat="46.92962" lon="6.82533">
        <ele>481.52</ele>
        <time>2021-02-04T12:22:34.646Z</time>
      </trkpt>
      <trkpt lat="46.92972" lon="6.82518">
        <ele>479.96</ele>
        <time>2021-02-04T12:22:37.717Z</time>
      </trkpt>
      <trkpt lat="46.92981" lon="6.82501">
        <ele>478.41</ele>
        <time>2021-02-04T12:22:40.868Z</time>
      </trkpt>
      <trkpt lat="46.92987" lon="6.8249">
        <ele>477.75</ele>
        <time>2021-02-04T12:22:42.930Z</time>
      </trkpt>
      <trkpt lat="46.93001" lon="6.82465">
        <ele>476.97</ele>
        <time>2021-02-04T12:22:48.620Z</time>
      </trkpt>
      <trkpt lat="46.93025" lon="6.82423">
        <ele>477.68</ele>
        <time>2021-02-04T12:23:31.616Z</time>
      </trkpt>
      <trkpt lat="46.93043" lon="6.82394">
        <ele>479.16</ele>
        <time>2021-02-04T12:24:17.658Z</time>
      </trkpt>
      <trkpt lat="46.93077" lon="6.82332">
        <ele>479.8</ele>
        <time>2021-02-04T12:25:15.471Z</time>
      </trkpt>
      <trkpt lat="46.93093" lon="6.82306">
        <ele>479.94</ele>
        <time>2021-02-04T12:25:39.458Z</time>
      </trkpt>
      <trkpt lat="46.93106" lon="6.82284">
        <ele>480.08</ele>
        <time>2021-02-04T12:25:59.628Z</time>
      </trkpt>
      <trkpt lat="46.93125" lon="6.82256">
        <ele>480.44</ele>
        <time>2021-02-04T12:26:28.797Z</time>
      </trkpt>
      <trkpt lat="46.93128" lon="6.82258">
        <ele>480.51</ele>
        <time>2021-02-04T12:26:32.684Z</time>
      </trkpt>
      <trkpt lat="46.93132" lon="6.82259">
        <ele>480.44</ele>
        <time>2021-02-04T12:26:33.959Z</time>
      </trkpt>
      <trkpt lat="46.93136" lon="6.82259">
        <ele>480.29</ele>
        <time>2021-02-04T12:26:34.968Z</time>
      </trkpt>
      <trkpt lat="46.93141" lon="6.82258">
        <ele>479.87</ele>
        <time>2021-02-04T12:26:36.050Z</time>
      </trkpt>
      <trkpt lat="46.9315" lon="6.82253">
        <ele>479.44</ele>
        <time>2021-02-04T12:26:38.320Z</time>
      </trkpt>
      <trkpt lat="46.9316" lon="6.82244">
        <ele>479.09</ele>
        <time>2021-02-04T12:26:41.521Z</time>
      </trkpt>
      <trkpt lat="46.93162" lon="6.82243">
        <ele>479.09</ele>
        <time>2021-02-04T12:26:43.528Z</time>
      </trkpt>
      <trkpt lat="46.93165" lon="6.82241">
        <ele>479.09</ele>
        <time>2021-02-04T12:26:46.659Z</time>
      </trkpt>
      <trkpt lat="46.93171" lon="6.82239">
        <ele>479.16</ele>
        <time>2021-02-04T12:26:53.183Z</time>
      </trkpt>
      <trkpt lat="46.93177" lon="6.82238">
        <ele>479.05</ele>
        <time>2021-02-04T12:26:55.058Z</time>
      </trkpt>
      <trkpt lat="46.93184" lon="6.82239">
        <ele>479.26</ele>
        <time>2021-02-04T12:27:04.252Z</time>
      </trkpt>
      <trkpt lat="46.93193" lon="6.8224">
        <ele>479.54</ele>
        <time>2021-02-04T12:27:16.227Z</time>
      </trkpt>
      <trkpt lat="46.93203" lon="6.82243">
        <ele>479.81</ele>
        <time>2021-02-04T12:27:29.022Z</time>
      </trkpt>
      <trkpt lat="46.93212" lon="6.82246">
        <ele>480.32</ele>
        <time>2021-02-04T12:27:44.897Z</time>
      </trkpt>
      <trkpt lat="46.93211" lon="6.82246">
        <ele>480.32</ele>
        <time>2021-02-04T12:27:45.847Z</time>
      </trkpt>
      <trkpt lat="46.93237" lon="6.82252">
        <ele>480.82</ele>
        <time>2021-02-04T12:28:16.111Z</time>
      </trkpt>
      <trkpt lat="46.93254" lon="6.82256">
        <ele>481.32</ele>
        <time>2021-02-04T12:28:38.389Z</time>
      </trkpt>
      <trkpt lat="46.93273" lon="6.8226">
        <ele>481.77</ele>
        <time>2021-02-04T12:29:01.605Z</time>
      </trkpt>
      <trkpt lat="46.93292" lon="6.82263">
        <ele>482.1</ele>
        <time>2021-02-04T12:29:23.165Z</time>
      </trkpt>
      <trkpt lat="46.93311" lon="6.82266">
        <ele>482.43</ele>
        <time>2021-02-04T12:29:44.725Z</time>
      </trkpt>
      <trkpt lat="46.93335" lon="6.82268">
        <ele>482.75</ele>
        <time>2021-02-04T12:30:10.726Z</time>
      </trkpt>
      <trkpt lat="46.9337" lon="6.82272">
        <ele>483.02</ele>
        <time>2021-02-04T12:30:46.595Z</time>
      </trkpt>
      <trkpt lat="46.93403" lon="6.82277">
        <ele>482.81</ele>
        <time>2021-02-04T12:31:15.318Z</time>
      </trkpt>
      <trkpt lat="46.93429" lon="6.82281">
        <ele>482.56</ele>
        <time>2021-02-04T12:31:24.376Z</time>
      </trkpt>
      <trkpt lat="46.93447" lon="6.82283">
        <ele>482.57</ele>
        <time>2021-02-04T12:31:41.608Z</time>
      </trkpt>
      <trkpt lat="46.93452" lon="6.82285">
        <ele>482.57</ele>
        <time>2021-02-04T12:31:46.530Z</time>
      </trkpt>
      <trkpt lat="46.93456" lon="6.82287">
        <ele>482.5</ele>
        <time>2021-02-04T12:31:47.870Z</time>
      </trkpt>
      <trkpt lat="46.93459" lon="6.8229">
        <ele>482.5</ele>
        <time>2021-02-04T12:31:51.320Z</time>
      </trkpt>
      <trkpt lat="46.93463" lon="6.82296">
        <ele>482.5</ele>
        <time>2021-02-04T12:31:56.758Z</time>
      </trkpt>
      <trkpt lat="46.93487" lon="6.82346">
        <ele>485.18</ele>
        <time>2021-02-04T12:33:13.182Z</time>
      </trkpt>
      <trkpt lat="46.93502" lon="6.82375">
        <ele>487.73</ele>
        <time>2021-02-04T12:34:16.163Z</time>
      </trkpt>
      <trkpt lat="46.93556" lon="6.8248">
        <ele>493.8</ele>
        <time>2021-02-04T12:37:04.684Z</time>
      </trkpt>
      <trkpt lat="46.93578" lon="6.82523">
        <ele>493.47</ele>
        <time>2021-02-04T12:37:17.493Z</time>
      </trkpt>
      <trkpt lat="46.93592" lon="6.8255">
        <ele>493.23</ele>
        <time>2021-02-04T12:37:25.428Z</time>
      </trkpt>
      <trkpt lat="46.936" lon="6.82565">
        <ele>493.23</ele>
        <time>2021-02-04T12:37:37.771Z</time>
      </trkpt>
      <trkpt lat="46.93618" lon="6.82595">
        <ele>493.34</ele>
        <time>2021-02-04T12:38:04.664Z</time>
      </trkpt>
      <trkpt lat="46.93618" lon="6.82594">
        <ele>493.34</ele>
        <time>2021-02-04T12:38:05.312Z</time>
      </trkpt>
      <trkpt lat="46.9364" lon="6.82631">
        <ele>493.45</ele>
        <time>2021-02-04T12:38:38.116Z</time>
      </trkpt>
      <trkpt lat="46.93716" lon="6.82756">
        <ele>495.06</ele>
        <time>2021-02-04T12:40:42.737Z</time>
      </trkpt>
      <trkpt lat="46.93749" lon="6.82812">
        <ele>495.64</ele>
        <time>2021-02-04T12:41:36.345Z</time>
      </trkpt>
      <trkpt lat="46.93759" lon="6.82831">
        <ele>495.72</ele>
        <time>2021-02-04T12:41:52.630Z</time>
      </trkpt>
      <trkpt lat="46.93765" lon="6.82843">
        <ele>495.79</ele>
        <time>2021-02-04T12:42:02.925Z</time>
      </trkpt>
      <trkpt lat="46.93774" lon="6.82864">
        <ele>495.56</ele>
        <time>2021-02-04T12:42:08.491Z</time>
      </trkpt>
      <trkpt lat="46.93825" lon="6.82976">
        <ele>493.88</ele>
        <time>2021-02-04T12:42:37.017Z</time>
      </trkpt>
      <trkpt lat="46.93837" lon="6.83003">
        <ele>493.33</ele>
        <time>2021-02-04T12:42:43.335Z</time>
      </trkpt>
      <trkpt lat="46.93837" lon="6.83002">
        <ele>493.33</ele>
        <time>2021-02-04T12:42:43.983Z</time>
      </trkpt>
      <trkpt lat="46.9385" lon="6.83032">
        <ele>492.79</ele>
        <time>2021-02-04T12:42:51.170Z</time>
      </trkpt>
      <trkpt lat="46.9386" lon="6.83053">
        <ele>492.41</ele>
        <time>2021-02-04T12:42:56.379Z</time>
      </trkpt>
      <trkpt lat="46.93881" lon="6.83092">
        <ele>491.35</ele>
        <time>2021-02-04T12:43:05.488Z</time>
      </trkpt>
      <trkpt lat="46.93928" lon="6.83179">
        <ele>491.3</ele>
        <time>2021-02-04T12:44:16.707Z</time>
      </trkpt>
      <trkpt lat="46.93971" lon="6.83256">
        <ele>493.86</ele>
        <time>2021-02-04T12:45:55.226Z</time>
      </trkpt>
      <trkpt lat="46.94104" lon="6.83496">
        <ele>501.61</ele>
        <time>2021-02-04T12:50:57.257Z</time>
      </trkpt>
      <trkpt lat="46.94125" lon="6.83536">
        <ele>502.18</ele>
        <time>2021-02-04T12:51:35.820Z</time>
      </trkpt>
      <trkpt lat="46.94131" lon="6.83548">
        <ele>502.18</ele>
        <time>2021-02-04T12:51:45.465Z</time>
      </trkpt>
      <trkpt lat="46.94139" lon="6.8356">
        <ele>501.85</ele>
        <time>2021-02-04T12:51:48.621Z</time>
      </trkpt>
      <trkpt lat="46.94128" lon="6.83579">
        <ele>502.49</ele>
        <time>2021-02-04T12:52:13.270Z</time>
      </trkpt>
      <trkpt lat="46.94113" lon="6.83607">
        <ele>503.06</ele>
        <time>2021-02-04T12:52:42.664Z</time>
      </trkpt>
      <trkpt lat="46.94095" lon="6.83639">
        <ele>503.49</ele>
        <time>2021-02-04T12:53:13.894Z</time>
      </trkpt>
      <trkpt lat="46.94089" lon="6.83651">
        <ele>503.42</ele>
        <time>2021-02-04T12:53:22.618Z</time>
      </trkpt>
      <trkpt lat="46.94085" lon="6.83659">
        <ele>503.42</ele>
        <time>2021-02-04T12:53:29.047Z</time>
      </trkpt>
      <trkpt lat="46.94085" lon="6.83659">
        <ele>503.42</ele>
        <time>2021-02-04T12:53:29.047Z</time>
      </trkpt>
      <trkpt lat="46.94084" lon="6.83662">
        <ele>503.42</ele>
        <time>2021-02-04T12:53:31.212Z</time>
      </trkpt>
      <trkpt lat="46.94076" lon="6.8368">
        <ele>503.13</ele>
        <time>2021-02-04T12:53:35.683Z</time>
      </trkpt>
      <trkpt lat="46.94069" lon="6.83699">
        <ele>502.42</ele>
        <time>2021-02-04T12:53:39.052Z</time>
      </trkpt>
      <trkpt lat="46.94067" lon="6.83708">
        <ele>502.07</ele>
        <time>2021-02-04T12:53:40.455Z</time>
      </trkpt>
      <trkpt lat="46.94064" lon="6.83717">
        <ele>501.64</ele>
        <time>2021-02-04T12:53:41.838Z</time>
      </trkpt>
      <trkpt lat="46.94062" lon="6.83727">
        <ele>501.14</ele>
        <time>2021-02-04T12:53:43.364Z</time>
      </trkpt>
      <trkpt lat="46.9406" lon="6.83736">
        <ele>500.79</ele>
        <time>2021-02-04T12:53:44.767Z</time>
      </trkpt>
      <trkpt lat="46.94059" lon="6.83745">
        <ele>500.07</ele>
        <time>2021-02-04T12:53:46.103Z</time>
      </trkpt>
      <trkpt lat="46.94058" lon="6.83754">
        <ele>499.51</ele>
        <time>2021-02-04T12:53:47.438Z</time>
      </trkpt>
      <trkpt lat="46.94058" lon="6.83763">
        <ele>498.94</ele>
        <time>2021-02-04T12:53:48.756Z</time>
      </trkpt>
      <trkpt lat="46.94058" lon="6.83777">
        <ele>498.37</ele>
        <time>2021-02-04T12:53:50.740Z</time>
      </trkpt>
      <trkpt lat="46.94059" lon="6.83785">
        <ele>497.76</ele>
        <time>2021-02-04T12:53:51.931Z</time>
      </trkpt>
      <trkpt lat="46.94061" lon="6.83793">
        <ele>497.19</ele>
        <time>2021-02-04T12:53:53.179Z</time>
      </trkpt>
      <trkpt lat="46.94063" lon="6.83804">
        <ele>496.72</ele>
        <time>2021-02-04T12:53:54.782Z</time>
      </trkpt>
      <trkpt lat="46.94065" lon="6.83813">
        <ele>496.01</ele>
        <time>2021-02-04T12:53:56.168Z</time>
      </trkpt>
      <trkpt lat="46.94074" lon="6.83842">
        <ele>494.25</ele>
        <time>2021-02-04T12:54:00.833Z</time>
      </trkpt>
      <trkpt lat="46.94087" lon="6.83879">
        <ele>493.02</ele>
        <time>2021-02-04T12:54:07.618Z</time>
      </trkpt>
      <trkpt lat="46.94091" lon="6.83893">
        <ele>492.6</ele>
        <time>2021-02-04T12:54:10.158Z</time>
      </trkpt>
      <trkpt lat="46.94094" lon="6.83905">
        <ele>492.36</ele>
        <time>2021-02-04T12:54:12.596Z</time>
      </trkpt>
      <trkpt lat="46.94098" lon="6.8392">
        <ele>492.12</ele>
        <time>2021-02-04T12:54:15.869Z</time>
      </trkpt>
      <trkpt lat="46.94102" lon="6.83936">
        <ele>491.93</ele>
        <time>2021-02-04T12:54:19.565Z</time>
      </trkpt>
      <trkpt lat="46.94106" lon="6.83956">
        <ele>491.88</ele>
        <time>2021-02-04T12:54:32.388Z</time>
      </trkpt>
      <trkpt lat="46.94113" lon="6.83993">
        <ele>492</ele>
        <time>2021-02-04T12:54:58.374Z</time>
      </trkpt>
      <trkpt lat="46.94113" lon="6.83992">
        <ele>492</ele>
        <time>2021-02-04T12:54:59.023Z</time>
      </trkpt>
      <trkpt lat="46.94123" lon="6.84039">
        <ele>492.12</ele>
        <time>2021-02-04T12:55:32.024Z</time>
      </trkpt>
      <trkpt lat="46.94125" lon="6.8405">
        <ele>492.26</ele>
        <time>2021-02-04T12:55:40.864Z</time>
      </trkpt>
      <trkpt lat="46.94128" lon="6.84061">
        <ele>492.35</ele>
        <time>2021-02-04T12:55:49.416Z</time>
      </trkpt>
      <trkpt lat="46.94134" lon="6.84082">
        <ele>492.73</ele>
        <time>2021-02-04T12:56:08.438Z</time>
      </trkpt>
      <trkpt lat="46.94137" lon="6.84091">
        <ele>492.87</ele>
        <time>2021-02-04T12:56:16.431Z</time>
      </trkpt>
      <trkpt lat="46.9414" lon="6.84101">
        <ele>492.97</ele>
        <time>2021-02-04T12:56:24.505Z</time>
      </trkpt>
      <trkpt lat="46.94158" lon="6.84146">
        <ele>493.07</ele>
        <time>2021-02-04T12:56:59.217Z</time>
      </trkpt>
      <trkpt lat="46.94168" lon="6.84167">
        <ele>492.69</ele>
        <time>2021-02-04T12:57:04.426Z</time>
      </trkpt>
      <trkpt lat="46.94176" lon="6.84184">
        <ele>492.5</ele>
        <time>2021-02-04T12:57:09.067Z</time>
      </trkpt>
      <trkpt lat="46.94175" lon="6.84184">
        <ele>492.5</ele>
        <time>2021-02-04T12:57:10.017Z</time>
      </trkpt>
      <trkpt lat="46.94176" lon="6.84185">
        <ele>492.31</ele>
        <time>2021-02-04T12:57:10.276Z</time>
      </trkpt>
      <trkpt lat="46.94182" lon="6.84199">
        <ele>492.08</ele>
        <time>2021-02-04T12:57:13.693Z</time>
      </trkpt>
      <trkpt lat="46.94185" lon="6.84205">
        <ele>491.89</ele>
        <time>2021-02-04T12:57:14.975Z</time>
      </trkpt>
      <trkpt lat="46.94204" lon="6.84243">
        <ele>491.07</ele>
        <time>2021-02-04T12:57:24.160Z</time>
      </trkpt>
      <trkpt lat="46.9421" lon="6.84255">
        <ele>490.93</ele>
        <time>2021-02-04T12:57:27.491Z</time>
      </trkpt>
      <trkpt lat="46.94214" lon="6.84266">
        <ele>490.78</ele>
        <time>2021-02-04T12:57:30.152Z</time>
      </trkpt>
      <trkpt lat="46.94218" lon="6.84278">
        <ele>490.64</ele>
        <time>2021-02-04T12:57:33.084Z</time>
      </trkpt>
      <trkpt lat="46.94223" lon="6.84294">
        <ele>490.43</ele>
        <time>2021-02-04T12:57:36.848Z</time>
      </trkpt>
      <trkpt lat="46.94226" lon="6.84307">
        <ele>490.22</ele>
        <time>2021-02-04T12:57:39.618Z</time>
      </trkpt>
      <trkpt lat="46.94229" lon="6.84321">
        <ele>490.22</ele>
        <time>2021-02-04T12:57:49.133Z</time>
      </trkpt>
      <trkpt lat="46.94232" lon="6.84339">
        <ele>489.82</ele>
        <time>2021-02-04T12:57:52.518Z</time>
      </trkpt>
      <trkpt lat="46.94233" lon="6.84357">
        <ele>489.4</ele>
        <time>2021-02-04T12:57:55.736Z</time>
      </trkpt>
      <trkpt lat="46.94237" lon="6.84382">
        <ele>488.61</ele>
        <time>2021-02-04T12:57:59.856Z</time>
      </trkpt>
      <trkpt lat="46.9424" lon="6.84405">
        <ele>488.26</ele>
        <time>2021-02-04T12:58:04.611Z</time>
      </trkpt>
      <trkpt lat="46.94243" lon="6.84424">
        <ele>488.03</ele>
        <time>2021-02-04T12:58:08.793Z</time>
      </trkpt>
      <trkpt lat="46.94243" lon="6.84423">
        <ele>488.03</ele>
        <time>2021-02-04T12:58:09.442Z</time>
      </trkpt>
      <trkpt lat="46.94245" lon="6.84432">
        <ele>487.8</ele>
        <time>2021-02-04T12:58:11.103Z</time>
      </trkpt>
      <trkpt lat="46.9425" lon="6.8446">
        <ele>487.17</ele>
        <time>2021-02-04T12:58:16.376Z</time>
      </trkpt>
      <trkpt lat="46.94251" lon="6.84464">
        <ele>487.06</ele>
        <time>2021-02-04T12:58:17.107Z</time>
      </trkpt>
      <trkpt lat="46.94256" lon="6.84481">
        <ele>486.73</ele>
        <time>2021-02-04T12:58:20.693Z</time>
      </trkpt>
      <trkpt lat="46.94264" lon="6.84505">
        <ele>486.14</ele>
        <time>2021-02-04T12:58:25.535Z</time>
      </trkpt>
      <trkpt lat="46.94266" lon="6.84513">
        <ele>485.94</ele>
        <time>2021-02-04T12:58:27.049Z</time>
      </trkpt>
      <trkpt lat="46.94275" lon="6.84533">
        <ele>485.7</ele>
        <time>2021-02-04T12:58:32.353Z</time>
      </trkpt>
      <trkpt lat="46.94282" lon="6.84551">
        <ele>485.28</ele>
        <time>2021-02-04T12:58:36.214Z</time>
      </trkpt>
      <trkpt lat="46.94287" lon="6.84563">
        <ele>485.2</ele>
        <time>2021-02-04T12:58:39.595Z</time>
      </trkpt>
      <trkpt lat="46.94288" lon="6.84571">
        <ele>485.06</ele>
        <time>2021-02-04T12:58:41.186Z</time>
      </trkpt>
      <trkpt lat="46.94289" lon="6.84583">
        <ele>485.06</ele>
        <time>2021-02-04T12:58:49.025Z</time>
      </trkpt>
      <trkpt lat="46.9429" lon="6.84597">
        <ele>484.92</ele>
        <time>2021-02-04T12:58:52.146Z</time>
      </trkpt>
      <trkpt lat="46.94292" lon="6.84607">
        <ele>484.71</ele>
        <time>2021-02-04T12:58:54.091Z</time>
      </trkpt>
      <trkpt lat="46.94294" lon="6.84616">
        <ele>484.57</ele>
        <time>2021-02-04T12:58:56.019Z</time>
      </trkpt>
      <trkpt lat="46.94295" lon="6.84618">
        <ele>484.6</ele>
        <time>2021-02-04T12:58:57.938Z</time>
      </trkpt>
      <trkpt lat="46.94292" lon="6.84621">
        <ele>484.66</ele>
        <time>2021-02-04T12:59:02.003Z</time>
      </trkpt>
      <trkpt lat="46.94288" lon="6.84624">
        <ele>484.23</ele>
        <time>2021-02-04T12:59:02.967Z</time>
      </trkpt>
      <trkpt lat="46.9428" lon="6.84636">
        <ele>483.38</ele>
        <time>2021-02-04T12:59:05.423Z</time>
      </trkpt>
      <trkpt lat="46.94285" lon="6.84643">
        <ele>483.17</ele>
        <time>2021-02-04T12:59:07.298Z</time>
      </trkpt>
      <trkpt lat="46.94287" lon="6.84646">
        <ele>483.07</ele>
        <time>2021-02-04T12:59:08.039Z</time>
      </trkpt>
      <trkpt lat="46.94287" lon="6.84645">
        <ele>483.07</ele>
        <time>2021-02-04T12:59:08.687Z</time>
      </trkpt>
      <trkpt lat="46.94288" lon="6.84646">
        <ele>482.98</ele>
        <time>2021-02-04T12:59:08.947Z</time>
      </trkpt>
      <trkpt lat="46.94293" lon="6.84653">
        <ele>482.95</ele>
        <time>2021-02-04T12:59:15.107Z</time>
      </trkpt>
      <trkpt lat="46.943" lon="6.8466">
        <ele>483.24</ele>
        <time>2021-02-04T12:59:26.831Z</time>
      </trkpt>
      <trkpt lat="46.94304" lon="6.84663">
        <ele>483.52</ele>
        <time>2021-02-04T12:59:34.948Z</time>
      </trkpt>
      <trkpt lat="46.94308" lon="6.84665">
        <ele>483.73</ele>
        <time>2021-02-04T12:59:41.953Z</time>
      </trkpt>
      <trkpt lat="46.94311" lon="6.84665">
        <ele>483.85</ele>
        <time>2021-02-04T12:59:46.450Z</time>
      </trkpt>
      <trkpt lat="46.94313" lon="6.84678">
        <ele>483.56</ele>
        <time>2021-02-04T12:59:48.878Z</time>
      </trkpt>
      <trkpt lat="46.94313" lon="6.84677">
        <ele>483.56</ele>
        <time>2021-02-04T12:59:49.526Z</time>
      </trkpt>
      <trkpt lat="46.94313" lon="6.84678">
        <ele>483.27</ele>
        <time>2021-02-04T12:59:49.673Z</time>
      </trkpt>
      <trkpt lat="46.94316" lon="6.8469">
        <ele>482.63</ele>
        <time>2021-02-04T12:59:51.544Z</time>
      </trkpt>
      <trkpt lat="46.94319" lon="6.847">
        <ele>482.42</ele>
        <time>2021-02-04T12:59:53.614Z</time>
      </trkpt>
      <trkpt lat="46.94325" lon="6.84713">
        <ele>481.89</ele>
        <time>2021-02-04T12:59:56.035Z</time>
      </trkpt>
      <trkpt lat="46.94339" lon="6.84742">
        <ele>480.44</ele>
        <time>2021-02-04T13:00:01.061Z</time>
      </trkpt>
      <trkpt lat="46.9435" lon="6.84763">
        <ele>479.29</ele>
        <time>2021-02-04T13:00:04.696Z</time>
      </trkpt>
      <trkpt lat="46.94355" lon="6.84773">
        <ele>478.85</ele>
        <time>2021-02-04T13:00:06.567Z</time>
      </trkpt>
      <trkpt lat="46.94367" lon="6.84792">
        <ele>477.83</ele>
        <time>2021-02-04T13:00:10.292Z</time>
      </trkpt>
      <trkpt lat="46.94376" lon="6.84807">
        <ele>477.67</ele>
        <time>2021-02-04T13:00:14.882Z</time>
      </trkpt>
      <trkpt lat="46.944" lon="6.84841">
        <ele>476.71</ele>
        <time>2021-02-04T13:00:24.090Z</time>
      </trkpt>
      <trkpt lat="46.94423" lon="6.84874">
        <ele>474.62</ele>
        <time>2021-02-04T13:00:30.502Z</time>
      </trkpt>
      <trkpt lat="46.94425" lon="6.84878">
        <ele>473.55</ele>
        <time>2021-02-04T13:00:31.228Z</time>
      </trkpt>
      <trkpt lat="46.94425" lon="6.84877">
        <ele>473.55</ele>
        <time>2021-02-04T13:00:31.876Z</time>
      </trkpt>
      <trkpt lat="46.94445" lon="6.84909">
        <ele>472.48</ele>
        <time>2021-02-04T13:00:39.450Z</time>
      </trkpt>
      <trkpt lat="46.94454" lon="6.84925">
        <ele>471.56</ele>
        <time>2021-02-04T13:00:42.267Z</time>
      </trkpt>
      <trkpt lat="46.94462" lon="6.84942">
        <ele>470.57</ele>
        <time>2021-02-04T13:00:45.290Z</time>
      </trkpt>
      <trkpt lat="46.94498" lon="6.85016">
        <ele>465.96</ele>
        <time>2021-02-04T13:00:58.597Z</time>
      </trkpt>
      <trkpt lat="46.94511" lon="6.85044">
        <ele>464.1</ele>
        <time>2021-02-04T13:01:03.556Z</time>
      </trkpt>
      <trkpt lat="46.9452" lon="6.85063">
        <ele>463.03</ele>
        <time>2021-02-04T13:01:06.943Z</time>
      </trkpt>
      <trkpt lat="46.94532" lon="6.85086">
        <ele>461.41</ele>
        <time>2021-02-04T13:01:11.182Z</time>
      </trkpt>
      <trkpt lat="46.94537" lon="6.85094">
        <ele>460.8</ele>
        <time>2021-02-04T13:01:12.771Z</time>
      </trkpt>
      <trkpt lat="46.94542" lon="6.85102">
        <ele>460.14</ele>
        <time>2021-02-04T13:01:14.359Z</time>
      </trkpt>
      <trkpt lat="46.94549" lon="6.85109">
        <ele>459.47</ele>
        <time>2021-02-04T13:01:16.177Z</time>
      </trkpt>
      <trkpt lat="46.94553" lon="6.85114">
        <ele>459.04</ele>
        <time>2021-02-04T13:01:17.305Z</time>
      </trkpt>
      <trkpt lat="46.94558" lon="6.85118">
        <ele>458.43</ele>
        <time>2021-02-04T13:01:18.527Z</time>
      </trkpt>
      <trkpt lat="46.94566" lon="6.85124">
        <ele>457.81</ele>
        <time>2021-02-04T13:01:20.455Z</time>
      </trkpt>
      <trkpt lat="46.94572" lon="6.85128">
        <ele>457.1</ele>
        <time>2021-02-04T13:01:21.869Z</time>
      </trkpt>
      <trkpt lat="46.94578" lon="6.85131">
        <ele>456.58</ele>
        <time>2021-02-04T13:01:23.229Z</time>
      </trkpt>
      <trkpt lat="46.94591" lon="6.85135">
        <ele>455.44</ele>
        <time>2021-02-04T13:01:26.079Z</time>
      </trkpt>
      <trkpt lat="46.94592" lon="6.85136">
        <ele>454.06</ele>
        <time>2021-02-04T13:01:26.338Z</time>
      </trkpt>
      <trkpt lat="46.94592" lon="6.85135">
        <ele>454.06</ele>
        <time>2021-02-04T13:01:26.987Z</time>
      </trkpt>
      <trkpt lat="46.94623" lon="6.85143">
        <ele>452.68</ele>
        <time>2021-02-04T13:01:34.466Z</time>
      </trkpt>
      <trkpt lat="46.94668" lon="6.85155">
        <ele>448.71</ele>
        <time>2021-02-04T13:01:44.278Z</time>
      </trkpt>
      <trkpt lat="46.94679" lon="6.85158">
        <ele>447.86</ele>
        <time>2021-02-04T13:01:46.678Z</time>
      </trkpt>
      <trkpt lat="46.94687" lon="6.8516">
        <ele>447.1</ele>
        <time>2021-02-04T13:01:48.419Z</time>
      </trkpt>
      <trkpt lat="46.94697" lon="6.85164">
        <ele>446.34</ele>
        <time>2021-02-04T13:01:50.643Z</time>
      </trkpt>
      <trkpt lat="46.94707" lon="6.85168">
        <ele>445.39</ele>
        <time>2021-02-04T13:01:52.866Z</time>
      </trkpt>
      <trkpt lat="46.94714" lon="6.85172">
        <ele>444.78</ele>
        <time>2021-02-04T13:01:54.478Z</time>
      </trkpt>
      <trkpt lat="46.94749" lon="6.85188">
        <ele>441.56</ele>
        <time>2021-02-04T13:02:02.343Z</time>
      </trkpt>
      <trkpt lat="46.94789" lon="6.85207">
        <ele>439.46</ele>
        <time>2021-02-04T13:02:11.806Z</time>
      </trkpt>
      <trkpt lat="46.94806" lon="6.85215">
        <ele>439.24</ele>
        <time>2021-02-04T13:02:17.773Z</time>
      </trkpt>
      <trkpt lat="46.94838" lon="6.85231">
        <ele>438.82</ele>
        <time>2021-02-04T13:02:29.057Z</time>
      </trkpt>
      <trkpt lat="46.94866" lon="6.85243">
        <ele>438.62</ele>
        <time>2021-02-04T13:02:54.131Z</time>
      </trkpt>
      <trkpt lat="46.94883" lon="6.85251">
        <ele>438.71</ele>
        <time>2021-02-04T13:03:11.910Z</time>
      </trkpt>
      <trkpt lat="46.94892" lon="6.85255">
        <ele>438.6</ele>
        <time>2021-02-04T13:03:15.078Z</time>
      </trkpt>
      <trkpt lat="46.94898" lon="6.85257">
        <ele>438.56</ele>
        <time>2021-02-04T13:03:20.393Z</time>
      </trkpt>
      <trkpt lat="46.9491" lon="6.85259">
        <ele>438.56</ele>
        <time>2021-02-04T13:03:31.864Z</time>
      </trkpt>
      <trkpt lat="46.94941" lon="6.85265">
        <ele>438.62</ele>
        <time>2021-02-04T13:04:02.093Z</time>
      </trkpt>
      <trkpt lat="46.9494" lon="6.85265">
        <ele>438.62</ele>
        <time>2021-02-04T13:04:03.042Z</time>
      </trkpt>
      <trkpt lat="46.94954" lon="6.85267">
        <ele>438.68</ele>
        <time>2021-02-04T13:04:16.945Z</time>
      </trkpt>
      <trkpt lat="46.94971" lon="6.8527">
        <ele>438.79</ele>
        <time>2021-02-04T13:04:34.224Z</time>
      </trkpt>
      <trkpt lat="46.95015" lon="6.85278">
        <ele>439</ele>
        <time>2021-02-04T13:05:18.243Z</time>
      </trkpt>
      <trkpt lat="46.95085" lon="6.8529">
        <ele>439.74</ele>
        <time>2021-02-04T13:06:32.301Z</time>
      </trkpt>
      <trkpt lat="46.95083" lon="6.85298">
        <ele>439.65</ele>
        <time>2021-02-04T13:06:34.169Z</time>
      </trkpt>
      <trkpt lat="46.95081" lon="6.85303">
        <ele>439.36</ele>
        <time>2021-02-04T13:06:35.018Z</time>
      </trkpt>
      <trkpt lat="46.95087" lon="6.85303">
        <ele>439.62</ele>
        <time>2021-02-04T13:06:44.466Z</time>
      </trkpt>
      <trkpt lat="46.95102" lon="6.85306">
        <ele>439.76</ele>
        <time>2021-02-04T13:07:00.175Z</time>
      </trkpt>
      <trkpt lat="46.95101" lon="6.85306">
        <ele>439.76</ele>
        <time>2021-02-04T13:07:01.125Z</time>
      </trkpt>
      <trkpt lat="46.95102" lon="6.85306">
        <ele>439.91</ele>
        <time>2021-02-04T13:07:04.788Z</time>
      </trkpt>
      <trkpt lat="46.95113" lon="6.85307">
        <ele>439.98</ele>
        <time>2021-02-04T13:07:15.902Z</time>
      </trkpt>
      <trkpt lat="46.95132" lon="6.85308">
        <ele>440.12</ele>
        <time>2021-02-04T13:07:35.265Z</time>
      </trkpt>
      <trkpt lat="46.95143" lon="6.8531">
        <ele>440.33</ele>
        <time>2021-02-04T13:07:48.003Z</time>
      </trkpt>
      <trkpt lat="46.95146" lon="6.8531">
        <ele>440.33</ele>
        <time>2021-02-04T13:07:50.852Z</time>
      </trkpt>
      <trkpt lat="46.95149" lon="6.85312">
        <ele>440.4</ele>
        <time>2021-02-04T13:07:54.738Z</time>
      </trkpt>
      <trkpt lat="46.95158" lon="6.85317">
        <ele>440.54</ele>
        <time>2021-02-04T13:08:05.285Z</time>
      </trkpt>
      <trkpt lat="46.95162" lon="6.85318">
        <ele>440.54</ele>
        <time>2021-02-04T13:08:09.139Z</time>
      </trkpt>
      <trkpt lat="46.95167" lon="6.85319">
        <ele>440.55</ele>
        <time>2021-02-04T13:08:14.021Z</time>
      </trkpt>
      <trkpt lat="46.95172" lon="6.85319">
        <ele>440.47</ele>
        <time>2021-02-04T13:08:15.616Z</time>
      </trkpt>
      <trkpt lat="46.95177" lon="6.85319">
        <ele>440.4</ele>
        <time>2021-02-04T13:08:17.251Z</time>
      </trkpt>
      <trkpt lat="46.95183" lon="6.85318">
        <ele>440.4</ele>
        <time>2021-02-04T13:08:22.986Z</time>
      </trkpt>
      <trkpt lat="46.95187" lon="6.85318">
        <ele>440.33</ele>
        <time>2021-02-04T13:08:24.239Z</time>
      </trkpt>
      <trkpt lat="46.95193" lon="6.85319">
        <ele>440.26</ele>
        <time>2021-02-04T13:08:26.276Z</time>
      </trkpt>
      <trkpt lat="46.95206" lon="6.85321">
        <ele>440.26</ele>
        <time>2021-02-04T13:08:38.691Z</time>
      </trkpt>
      <trkpt lat="46.95212" lon="6.85322">
        <ele>440.12</ele>
        <time>2021-02-04T13:08:40.461Z</time>
      </trkpt>
      <trkpt lat="46.95236" lon="6.85326">
        <ele>439.83</ele>
        <time>2021-02-04T13:08:48.565Z</time>
      </trkpt>
      <trkpt lat="46.95243" lon="6.85328">
        <ele>439.55</ele>
        <time>2021-02-04T13:08:50.334Z</time>
      </trkpt>
      <trkpt lat="46.9526" lon="6.85331">
        <ele>439.29</ele>
        <time>2021-02-04T13:08:55.852Z</time>
      </trkpt>
      <trkpt lat="46.95292" lon="6.85337">
        <ele>439.17</ele>
        <time>2021-02-04T13:09:24.840Z</time>
      </trkpt>
      <trkpt lat="46.95316" lon="6.85342">
        <ele>439.1</ele>
        <time>2021-02-04T13:09:46.888Z</time>
      </trkpt>
      <trkpt lat="46.95326" lon="6.85344">
        <ele>439.18</ele>
        <time>2021-02-04T13:09:57.224Z</time>
      </trkpt>
      <trkpt lat="46.95337" lon="6.85345">
        <ele>439.11</ele>
        <time>2021-02-04T13:10:06.763Z</time>
      </trkpt>
      <trkpt lat="46.95338" lon="6.85338">
        <ele>439.18</ele>
        <time>2021-02-04T13:10:12.100Z</time>
      </trkpt>
      <trkpt lat="46.95326" lon="6.85336">
        <ele>439.27</ele>
        <time>2021-02-04T13:10:24.411Z</time>
      </trkpt>
      <trkpt lat="46.95325" lon="6.85336">
        <ele>439.27</ele>
        <time>2021-02-04T13:10:25.360Z</time>
      </trkpt>
      <trkpt lat="46.95338" lon="6.85338">
        <ele>439.18</ele>
        <time>2021-02-04T13:10:36.590Z</time>
      </trkpt>
      <trkpt lat="46.9536" lon="6.85342">
        <ele>439.32</ele>
        <time>2021-02-04T13:10:58.938Z</time>
      </trkpt>
      <trkpt lat="46.9537" lon="6.85344">
        <ele>439.24</ele>
        <time>2021-02-04T13:11:02.513Z</time>
      </trkpt>
      <trkpt lat="46.95378" lon="6.85348">
        <ele>439.1</ele>
        <time>2021-02-04T13:11:05.191Z</time>
      </trkpt>
      <trkpt lat="46.95384" lon="6.85351">
        <ele>439.1</ele>
        <time>2021-02-04T13:11:11.212Z</time>
      </trkpt>
      <trkpt lat="46.9539" lon="6.85356">
        <ele>439.1</ele>
        <time>2021-02-04T13:11:17.768Z</time>
      </trkpt>
      <trkpt lat="46.95398" lon="6.85362">
        <ele>438.89</ele>
        <time>2021-02-04T13:11:20.397Z</time>
      </trkpt>
      <trkpt lat="46.95405" lon="6.85369">
        <ele>438.87</ele>
        <time>2021-02-04T13:11:28.165Z</time>
      </trkpt>
      <trkpt lat="46.95402" lon="6.85375">
        <ele>439.16</ele>
        <time>2021-02-04T13:11:37.009Z</time>
      </trkpt>
      <trkpt lat="46.954" lon="6.85381">
        <ele>439.01</ele>
        <time>2021-02-04T13:11:38.213Z</time>
      </trkpt>
      <trkpt lat="46.95398" lon="6.85389">
        <ele>439</ele>
        <time>2021-02-04T13:11:43.594Z</time>
      </trkpt>
      <trkpt lat="46.95403" lon="6.85391">
        <ele>439</ele>
        <time>2021-02-04T13:11:48.517Z</time>
      </trkpt>
      <trkpt lat="46.95407" lon="6.85393">
        <ele>439</ele>
        <time>2021-02-04T13:11:52.531Z</time>
      </trkpt>
      <trkpt lat="46.95411" lon="6.85397">
        <ele>439</ele>
        <time>2021-02-04T13:11:57.130Z</time>
      </trkpt>
      <trkpt lat="46.95415" lon="6.85405">
        <ele>439</ele>
        <time>2021-02-04T13:12:03.559Z</time>
      </trkpt>
      <trkpt lat="46.95416" lon="6.85411">
        <ele>439</ele>
        <time>2021-02-04T13:12:07.563Z</time>
      </trkpt>
      <trkpt lat="46.95419" lon="6.85424">
        <ele>438.93</ele>
        <time>2021-02-04T13:12:10.902Z</time>
      </trkpt>
      <trkpt lat="46.95423" lon="6.85443">
        <ele>438.7</ele>
        <time>2021-02-04T13:12:15.182Z</time>
      </trkpt>
      <trkpt lat="46.9543" lon="6.85462">
        <ele>438.7</ele>
        <time>2021-02-04T13:12:29.179Z</time>
      </trkpt>
      <trkpt lat="46.95439" lon="6.8549">
        <ele>438.49</ele>
        <time>2021-02-04T13:12:36.461Z</time>
      </trkpt>
      <trkpt lat="46.95441" lon="6.85496">
        <ele>438.49</ele>
        <time>2021-02-04T13:12:40.790Z</time>
      </trkpt>
      <trkpt lat="46.95441" lon="6.85497">
        <ele>438.49</ele>
        <time>2021-02-04T13:12:41.438Z</time>
      </trkpt>
      <trkpt lat="46.95441" lon="6.85496">
        <ele>438.49</ele>
        <time>2021-02-04T13:12:42.086Z</time>
      </trkpt>
      <trkpt lat="46.95442" lon="6.85501">
        <ele>438.49</ele>
        <time>2021-02-04T13:12:45.464Z</time>
      </trkpt>
      <trkpt lat="46.95442" lon="6.85509">
        <ele>438.38</ele>
        <time>2021-02-04T13:12:47.122Z</time>
      </trkpt>
      <trkpt lat="46.95446" lon="6.85522">
        <ele>438.38</ele>
        <time>2021-02-04T13:12:56.366Z</time>
      </trkpt>
      <trkpt lat="46.9545" lon="6.85533">
        <ele>438.38</ele>
        <time>2021-02-04T13:13:04.446Z</time>
      </trkpt>
      <trkpt lat="46.95467" lon="6.85574">
        <ele>438.49</ele>
        <time>2021-02-04T13:13:36.532Z</time>
      </trkpt>
      <trkpt lat="46.95474" lon="6.85595">
        <ele>438.39</ele>
        <time>2021-02-04T13:13:50.354Z</time>
      </trkpt>
      <trkpt lat="46.95483" lon="6.85616">
        <ele>438.31</ele>
        <time>2021-02-04T13:14:05.344Z</time>
      </trkpt>
      <trkpt lat="46.95488" lon="6.85629">
        <ele>438.11</ele>
        <time>2021-02-04T13:14:08.454Z</time>
      </trkpt>
      <trkpt lat="46.95497" lon="6.85646">
        <ele>437.9</ele>
        <time>2021-02-04T13:14:13.239Z</time>
      </trkpt>
      <trkpt lat="46.95507" lon="6.85664">
        <ele>437.77</ele>
        <time>2021-02-04T13:14:18.829Z</time>
      </trkpt>
      <trkpt lat="46.95524" lon="6.85692">
        <ele>437.47</ele>
        <time>2021-02-04T13:14:27.442Z</time>
      </trkpt>
      <trkpt lat="46.95544" lon="6.85725">
        <ele>437.26</ele>
        <time>2021-02-04T13:14:53.290Z</time>
      </trkpt>
      <trkpt lat="46.95563" lon="6.85755">
        <ele>437.12</ele>
        <time>2021-02-04T13:15:17.928Z</time>
      </trkpt>
      <trkpt lat="46.95591" lon="6.85797">
        <ele>437.12</ele>
        <time>2021-02-04T13:15:55.987Z</time>
      </trkpt>
      <trkpt lat="46.95609" lon="6.85822">
        <ele>437.12</ele>
        <time>2021-02-04T13:16:19.543Z</time>
      </trkpt>
      <trkpt lat="46.95636" lon="6.85857">
        <ele>436.97</ele>
        <time>2021-02-04T13:16:51.731Z</time>
      </trkpt>
      <trkpt lat="46.95664" lon="6.85892">
        <ele>436.97</ele>
        <time>2021-02-04T13:17:26.687Z</time>
      </trkpt>
      <trkpt lat="46.95676" lon="6.85906">
        <ele>436.94</ele>
        <time>2021-02-04T13:17:40.832Z</time>
      </trkpt>
      <trkpt lat="46.95676" lon="6.85905">
        <ele>436.94</ele>
        <time>2021-02-04T13:17:41.480Z</time>
      </trkpt>
      <trkpt lat="46.95709" lon="6.85946">
        <ele>436.9</ele>
        <time>2021-02-04T13:18:22.000Z</time>
      </trkpt>
      <trkpt lat="46.95731" lon="6.85971">
        <ele>436.83</ele>
        <time>2021-02-04T13:18:47.462Z</time>
      </trkpt>
      <trkpt lat="46.95751" lon="6.85991">
        <ele>436.76</ele>
        <time>2021-02-04T13:19:09.484Z</time>
      </trkpt>
      <trkpt lat="46.95766" lon="6.86004">
        <ele>436.83</ele>
        <time>2021-02-04T13:19:26.668Z</time>
      </trkpt>
      <trkpt lat="46.95808" lon="6.86039">
        <ele>436.69</ele>
        <time>2021-02-04T13:20:10.607Z</time>
      </trkpt>
      <trkpt lat="46.95821" lon="6.8605">
        <ele>436.55</ele>
        <time>2021-02-04T13:20:15.825Z</time>
      </trkpt>
      <trkpt lat="46.95831" lon="6.86058">
        <ele>436.48</ele>
        <time>2021-02-04T13:20:25.715Z</time>
      </trkpt>
      <trkpt lat="46.95844" lon="6.86071">
        <ele>436.55</ele>
        <time>2021-02-04T13:20:41.299Z</time>
      </trkpt>
      <trkpt lat="46.95852" lon="6.86079">
        <ele>436.48</ele>
        <time>2021-02-04T13:20:49.580Z</time>
      </trkpt>
      <trkpt lat="46.95861" lon="6.86091">
        <ele>436.48</ele>
        <time>2021-02-04T13:21:01.138Z</time>
      </trkpt>
      <trkpt lat="46.95873" lon="6.86107">
        <ele>436.48</ele>
        <time>2021-02-04T13:21:16.547Z</time>
      </trkpt>
      <trkpt lat="46.95884" lon="6.86124">
        <ele>436.33</ele>
        <time>2021-02-04T13:21:22.100Z</time>
      </trkpt>
      <trkpt lat="46.95884" lon="6.86123">
        <ele>436.33</ele>
        <time>2021-02-04T13:21:22.749Z</time>
      </trkpt>
      <trkpt lat="46.95912" lon="6.86164">
        <ele>436.19</ele>
        <time>2021-02-04T13:21:58.413Z</time>
      </trkpt>
      <trkpt lat="46.95931" lon="6.86192">
        <ele>436.05</ele>
        <time>2021-02-04T13:22:22.120Z</time>
      </trkpt>
      <trkpt lat="46.95947" lon="6.86215">
        <ele>435.84</ele>
        <time>2021-02-04T13:22:29.906Z</time>
      </trkpt>
      <trkpt lat="46.95964" lon="6.86241">
        <ele>435.59</ele>
        <time>2021-02-04T13:22:38.352Z</time>
      </trkpt>
      <trkpt lat="46.95983" lon="6.86268">
        <ele>435.67</ele>
        <time>2021-02-04T13:23:04.206Z</time>
      </trkpt>
      <trkpt lat="46.95989" lon="6.86278">
        <ele>435.35</ele>
        <time>2021-02-04T13:23:06.551Z</time>
      </trkpt>
      <trkpt lat="46.9599" lon="6.86279">
        <ele>435.39</ele>
        <time>2021-02-04T13:23:08.199Z</time>
      </trkpt>
      <trkpt lat="46.95989" lon="6.86279">
        <ele>435.39</ele>
        <time>2021-02-04T13:23:09.149Z</time>
      </trkpt>
      <trkpt lat="46.95994" lon="6.86287">
        <ele>435.43</ele>
        <time>2021-02-04T13:23:16.547Z</time>
      </trkpt>
      <trkpt lat="46.96013" lon="6.8632">
        <ele>435.48</ele>
        <time>2021-02-04T13:23:44.974Z</time>
      </trkpt>
      <trkpt lat="46.96019" lon="6.86331">
        <ele>435.42</ele>
        <time>2021-02-04T13:23:53.305Z</time>
      </trkpt>
      <trkpt lat="46.9603" lon="6.86347">
        <ele>435.54</ele>
        <time>2021-02-04T13:24:09.149Z</time>
      </trkpt>
      <trkpt lat="46.96043" lon="6.86365">
        <ele>434.93</ele>
        <time>2021-02-04T13:24:13.816Z</time>
      </trkpt>
      <trkpt lat="46.96067" lon="6.86399">
        <ele>434.56</ele>
        <time>2021-02-04T13:24:25.152Z</time>
      </trkpt>
      <trkpt lat="46.96078" lon="6.86413">
        <ele>434.74</ele>
        <time>2021-02-04T13:24:40.756Z</time>
      </trkpt>
      <trkpt lat="46.96079" lon="6.86416">
        <ele>434.81</ele>
        <time>2021-02-04T13:24:43.768Z</time>
      </trkpt>
      <trkpt lat="46.9608" lon="6.8642">
        <ele>434.81</ele>
        <time>2021-02-04T13:24:46.529Z</time>
      </trkpt>
      <trkpt lat="46.9608" lon="6.86424">
        <ele>434.81</ele>
        <time>2021-02-04T13:24:49.122Z</time>
      </trkpt>
      <trkpt lat="46.9608" lon="6.86427">
        <ele>434.81</ele>
        <time>2021-02-04T13:24:51.066Z</time>
      </trkpt>
      <trkpt lat="46.96078" lon="6.8643">
        <ele>434.81</ele>
        <time>2021-02-04T13:24:53.785Z</time>
      </trkpt>
      <trkpt lat="46.96081" lon="6.86434">
        <ele>434.86</ele>
        <time>2021-02-04T13:24:58.128Z</time>
      </trkpt>
      <trkpt lat="46.96086" lon="6.86443">
        <ele>434.95</ele>
        <time>2021-02-04T13:25:06.524Z</time>
      </trkpt>
      <trkpt lat="46.96091" lon="6.86451">
        <ele>435.19</ele>
        <time>2021-02-04T13:25:16.525Z</time>
      </trkpt>
      <trkpt lat="46.96096" lon="6.86457">
        <ele>435.16</ele>
        <time>2021-02-04T13:25:22.255Z</time>
      </trkpt>
      <trkpt lat="46.96097" lon="6.86457">
        <ele>435.14</ele>
        <time>2021-02-04T13:25:22.559Z</time>
      </trkpt>
      <trkpt lat="46.96097" lon="6.86458">
        <ele>435.11</ele>
        <time>2021-02-04T13:25:22.721Z</time>
      </trkpt>
      <trkpt lat="46.961" lon="6.86458">
        <ele>435.11</ele>
        <time>2021-02-04T13:25:25.570Z</time>
      </trkpt>
      <trkpt lat="46.96104" lon="6.86458">
        <ele>435.07</ele>
        <time>2021-02-04T13:25:26.948Z</time>
      </trkpt>
      <trkpt lat="46.96105" lon="6.86462">
        <ele>435.04</ele>
        <time>2021-02-04T13:25:27.946Z</time>
      </trkpt>
      <trkpt lat="46.96106" lon="6.86466">
        <ele>434.9</ele>
        <time>2021-02-04T13:25:28.610Z</time>
      </trkpt>
      <trkpt lat="46.96109" lon="6.8647">
        <ele>434.85</ele>
        <time>2021-02-04T13:25:29.965Z</time>
      </trkpt>
      <trkpt lat="46.96112" lon="6.86472">
        <ele>434.81</ele>
        <time>2021-02-04T13:25:31.069Z</time>
      </trkpt>
      <trkpt lat="46.96116" lon="6.86474">
        <ele>434.71</ele>
        <time>2021-02-04T13:25:32.302Z</time>
      </trkpt>
      <trkpt lat="46.96131" lon="6.86477">
        <ele>434.62</ele>
        <time>2021-02-04T13:25:45.480Z</time>
      </trkpt>
      <trkpt lat="46.96141" lon="6.8648">
        <ele>434.57</ele>
        <time>2021-02-04T13:25:54.497Z</time>
      </trkpt>
      <trkpt lat="46.96151" lon="6.86484">
        <ele>434.43</ele>
        <time>2021-02-04T13:25:57.909Z</time>
      </trkpt>
      <trkpt lat="46.96158" lon="6.86488">
        <ele>434.38</ele>
        <time>2021-02-04T13:26:04.385Z</time>
      </trkpt>
      <trkpt lat="46.96165" lon="6.86492">
        <ele>434.47</ele>
        <time>2021-02-04T13:26:12.400Z</time>
      </trkpt>
      <trkpt lat="46.96174" lon="6.86499">
        <ele>434.57</ele>
        <time>2021-02-04T13:26:23.033Z</time>
      </trkpt>
      <trkpt lat="46.96179" lon="6.86504">
        <ele>434.71</ele>
        <time>2021-02-04T13:26:30.328Z</time>
      </trkpt>
      <trkpt lat="46.96184" lon="6.86509">
        <ele>434.85</ele>
        <time>2021-02-04T13:26:37.622Z</time>
      </trkpt>
      <trkpt lat="46.96189" lon="6.86516">
        <ele>434.95</ele>
        <time>2021-02-04T13:26:45.193Z</time>
      </trkpt>
      <trkpt lat="46.96197" lon="6.86526">
        <ele>435.09</ele>
        <time>2021-02-04T13:26:56.567Z</time>
      </trkpt>
      <trkpt lat="46.96202" lon="6.86536">
        <ele>435.23</ele>
        <time>2021-02-04T13:27:06.038Z</time>
      </trkpt>
      <trkpt lat="46.96207" lon="6.86545">
        <ele>435.14</ele>
        <time>2021-02-04T13:27:08.717Z</time>
      </trkpt>
      <trkpt lat="46.96213" lon="6.86557">
        <ele>435.14</ele>
        <time>2021-02-04T13:27:18.360Z</time>
      </trkpt>
      <trkpt lat="46.96226" lon="6.86583">
        <ele>434.95</ele>
        <time>2021-02-04T13:27:26.076Z</time>
      </trkpt>
      <trkpt lat="46.9624" lon="6.86612">
        <ele>434.77</ele>
        <time>2021-02-04T13:27:34.723Z</time>
      </trkpt>
      <trkpt lat="46.96239" lon="6.86612">
        <ele>434.77</ele>
        <time>2021-02-04T13:27:35.673Z</time>
      </trkpt>
      <trkpt lat="46.96255" lon="6.86645">
        <ele>434.6</ele>
        <time>2021-02-04T13:27:59.650Z</time>
      </trkpt>
      <trkpt lat="46.96306" lon="6.86754">
        <ele>434.07</ele>
        <time>2021-02-04T13:29:18.235Z</time>
      </trkpt>
      <trkpt lat="46.96328" lon="6.86796">
        <ele>433.76</ele>
        <time>2021-02-04T13:29:30.921Z</time>
      </trkpt>
      <trkpt lat="46.96354" lon="6.86841">
        <ele>433.53</ele>
        <time>2021-02-04T13:30:06.060Z</time>
      </trkpt>
      <trkpt lat="46.96375" lon="6.86877">
        <ele>433.12</ele>
        <time>2021-02-04T13:30:16.810Z</time>
      </trkpt>
      <trkpt lat="46.96379" lon="6.86886">
        <ele>433.1</ele>
        <time>2021-02-04T13:30:23.492Z</time>
      </trkpt>
      <trkpt lat="46.9638" lon="6.86888">
        <ele>433.1</ele>
        <time>2021-02-04T13:30:25.099Z</time>
      </trkpt>
      <trkpt lat="46.96381" lon="6.86894">
        <ele>433.07</ele>
        <time>2021-02-04T13:30:28.709Z</time>
      </trkpt>
      <trkpt lat="46.96383" lon="6.86902">
        <ele>433.11</ele>
        <time>2021-02-04T13:30:34.602Z</time>
      </trkpt>
      <trkpt lat="46.96383" lon="6.86905">
        <ele>433.09</ele>
        <time>2021-02-04T13:30:35.310Z</time>
      </trkpt>
      <trkpt lat="46.96384" lon="6.86914">
        <ele>433.1</ele>
        <time>2021-02-04T13:30:41.308Z</time>
      </trkpt>
      <trkpt lat="46.96383" lon="6.86927">
        <ele>433.03</ele>
        <time>2021-02-04T13:30:44.474Z</time>
      </trkpt>
      <trkpt lat="46.96381" lon="6.86951">
        <ele>433.08</ele>
        <time>2021-02-04T13:31:00.593Z</time>
      </trkpt>
      <trkpt lat="46.96378" lon="6.8699">
        <ele>433.11</ele>
        <time>2021-02-04T13:31:26.295Z</time>
      </trkpt>
      <trkpt lat="46.96375" lon="6.87029">
        <ele>433.19</ele>
        <time>2021-02-04T13:31:52.449Z</time>
      </trkpt>
      <trkpt lat="46.96372" lon="6.87056">
        <ele>433.27</ele>
        <time>2021-02-04T13:32:10.904Z</time>
      </trkpt>
      <trkpt lat="46.96368" lon="6.87095">
        <ele>433.66</ele>
        <time>2021-02-04T13:32:40.379Z</time>
      </trkpt>
      <trkpt lat="46.96366" lon="6.87123">
        <ele>433.93</ele>
        <time>2021-02-04T13:33:01.322Z</time>
      </trkpt>
      <trkpt lat="46.96365" lon="6.87135">
        <ele>434.07</ele>
        <time>2021-02-04T13:33:10.600Z</time>
      </trkpt>
      <trkpt lat="46.96372" lon="6.87136">
        <ele>434.21</ele>
        <time>2021-02-04T13:33:18.769Z</time>
      </trkpt>
      <trkpt lat="46.9638" lon="6.87135">
        <ele>434.37</ele>
        <time>2021-02-04T13:33:28.097Z</time>
      </trkpt>
      <trkpt lat="46.96399" lon="6.87129">
        <ele>434.57</ele>
        <time>2021-02-04T13:33:48.478Z</time>
      </trkpt>
      <trkpt lat="46.96399" lon="6.87129">
        <ele>434.57</ele>
        <time>2021-02-04T13:33:48.478Z</time>
      </trkpt>
      <trkpt lat="46.96408" lon="6.87126">
        <ele>434.76</ele>
        <time>2021-02-04T13:33:59.281Z</time>
      </trkpt>
      <trkpt lat="46.96417" lon="6.87124">
        <ele>434.64</ele>
        <time>2021-02-04T13:34:02.289Z</time>
      </trkpt>
      <trkpt lat="46.96428" lon="6.87121">
        <ele>434.58</ele>
        <time>2021-02-04T13:34:12.109Z</time>
      </trkpt>
      <trkpt lat="46.96443" lon="6.87114">
        <ele>434.63</ele>
        <time>2021-02-04T13:34:27.508Z</time>
      </trkpt>
      <trkpt lat="46.96472" lon="6.87105">
        <ele>434.22</ele>
        <time>2021-02-04T13:34:37.225Z</time>
      </trkpt>
      <trkpt lat="46.96491" lon="6.87097">
        <ele>434.37</ele>
        <time>2021-02-04T13:34:57.402Z</time>
      </trkpt>
      <trkpt lat="46.96528" lon="6.87082">
        <ele>434.13</ele>
        <time>2021-02-04T13:35:30.676Z</time>
      </trkpt>
      <trkpt lat="46.96529" lon="6.87082">
        <ele>433.67</ele>
        <time>2021-02-04T13:35:30.890Z</time>
      </trkpt>
      <trkpt lat="46.96529" lon="6.87082">
        <ele>433.67</ele>
        <time>2021-02-04T13:35:30.890Z</time>
      </trkpt>
      <trkpt lat="46.96558" lon="6.8707">
        <ele>433.21</ele>
        <time>2021-02-04T13:35:40.592Z</time>
      </trkpt>
      <trkpt lat="46.9656" lon="6.87071">
        <ele>433.07</ele>
        <time>2021-02-04T13:35:41.008Z</time>
      </trkpt>
      <trkpt lat="46.96564" lon="6.87075">
        <ele>432.73</ele>
        <time>2021-02-04T13:35:42.047Z</time>
      </trkpt>
      <trkpt lat="46.96567" lon="6.87078">
        <ele>432.59</ele>
        <time>2021-02-04T13:35:42.954Z</time>
      </trkpt>
      <trkpt lat="46.96569" lon="6.8708">
        <ele>432.51</ele>
        <time>2021-02-04T13:35:43.593Z</time>
      </trkpt>
      <trkpt lat="46.96582" lon="6.87076">
        <ele>432.44</ele>
        <time>2021-02-04T13:35:55.266Z</time>
      </trkpt>
      <trkpt lat="46.9659" lon="6.87073">
        <ele>432.3</ele>
        <time>2021-02-04T13:35:57.870Z</time>
      </trkpt>
      <trkpt lat="46.96595" lon="6.87074">
        <ele>432.3</ele>
        <time>2021-02-04T13:36:02.663Z</time>
      </trkpt>
      <trkpt lat="46.96598" lon="6.87075">
        <ele>432.23</ele>
        <time>2021-02-04T13:36:03.569Z</time>
      </trkpt>
      <trkpt lat="46.966" lon="6.87077">
        <ele>432.23</ele>
        <time>2021-02-04T13:36:05.869Z</time>
      </trkpt>
      <trkpt lat="46.96603" lon="6.87081">
        <ele>432.23</ele>
        <time>2021-02-04T13:36:09.721Z</time>
      </trkpt>
      <trkpt lat="46.96605" lon="6.87085">
        <ele>432.16</ele>
        <time>2021-02-04T13:36:10.742Z</time>
      </trkpt>
      <trkpt lat="46.96607" lon="6.87093">
        <ele>431.95</ele>
        <time>2021-02-04T13:36:12.228Z</time>
      </trkpt>
      <trkpt lat="46.96609" lon="6.87097">
        <ele>431.8</ele>
        <time>2021-02-04T13:36:13.029Z</time>
      </trkpt>
      <trkpt lat="46.96613" lon="6.87101">
        <ele>431.63</ele>
        <time>2021-02-04T13:36:14.280Z</time>
      </trkpt>
      <trkpt lat="46.96617" lon="6.87106">
        <ele>431.55</ele>
        <time>2021-02-04T13:36:15.973Z</time>
      </trkpt>
      <trkpt lat="46.96622" lon="6.8711">
        <ele>431.55</ele>
        <time>2021-02-04T13:36:21.384Z</time>
      </trkpt>
      <trkpt lat="46.96634" lon="6.87117">
        <ele>431.38</ele>
        <time>2021-02-04T13:36:25.653Z</time>
      </trkpt>
      <trkpt lat="46.96652" lon="6.87128">
        <ele>431.27</ele>
        <time>2021-02-04T13:36:42.703Z</time>
      </trkpt>
      <trkpt lat="46.96673" lon="6.87142">
        <ele>430.94</ele>
        <time>2021-02-04T13:36:50.220Z</time>
      </trkpt>
      <trkpt lat="46.96677" lon="6.87145">
        <ele>430.82</ele>
        <time>2021-02-04T13:36:51.487Z</time>
      </trkpt>
      <trkpt lat="46.96679" lon="6.87147">
        <ele>430.72</ele>
        <time>2021-02-04T13:36:52.076Z</time>
      </trkpt>
      <trkpt lat="46.96689" lon="6.87161">
        <ele>430.69</ele>
        <time>2021-02-04T13:37:04.788Z</time>
      </trkpt>
      <trkpt lat="46.967" lon="6.87172">
        <ele>430.64</ele>
        <time>2021-02-04T13:37:16.748Z</time>
      </trkpt>
      <trkpt lat="46.96706" lon="6.87177">
        <ele>430.56</ele>
        <time>2021-02-04T13:37:19.077Z</time>
      </trkpt>
      <trkpt lat="46.9671" lon="6.87181">
        <ele>430.76</ele>
        <time>2021-02-04T13:37:26.474Z</time>
      </trkpt>
      <trkpt lat="46.96716" lon="6.87194">
        <ele>430.84</ele>
        <time>2021-02-04T13:37:37.393Z</time>
      </trkpt>
      <trkpt lat="46.96719" lon="6.87199">
        <ele>431.23</ele>
        <time>2021-02-04T13:37:47.254Z</time>
      </trkpt>
      <trkpt lat="46.96723" lon="6.87204">
        <ele>431.23</ele>
        <time>2021-02-04T13:37:52.247Z</time>
      </trkpt>
      <trkpt lat="46.96732" lon="6.8721">
        <ele>431.23</ele>
        <time>2021-02-04T13:38:01.638Z</time>
      </trkpt>
      <trkpt lat="46.96754" lon="6.87229">
        <ele>431.27</ele>
        <time>2021-02-04T13:38:26.244Z</time>
      </trkpt>
      <trkpt lat="46.96756" lon="6.8723">
        <ele>431.21</ele>
        <time>2021-02-04T13:38:26.829Z</time>
      </trkpt>
      <trkpt lat="46.96755" lon="6.8723">
        <ele>431.21</ele>
        <time>2021-02-04T13:38:27.779Z</time>
      </trkpt>
      <trkpt lat="46.96762" lon="6.87234">
        <ele>431.15</ele>
        <time>2021-02-04T13:38:30.438Z</time>
      </trkpt>
      <trkpt lat="46.96778" lon="6.87247">
        <ele>431</ele>
        <time>2021-02-04T13:38:36.894Z</time>
      </trkpt>
      <trkpt lat="46.96788" lon="6.87256">
        <ele>430.94</ele>
        <time>2021-02-04T13:38:47.230Z</time>
      </trkpt>
      <trkpt lat="46.96793" lon="6.8726">
        <ele>431.05</ele>
        <time>2021-02-04T13:38:53.803Z</time>
      </trkpt>
      <trkpt lat="46.9681" lon="6.87267">
        <ele>431.35</ele>
        <time>2021-02-04T13:39:13.665Z</time>
      </trkpt>
      <trkpt lat="46.9682" lon="6.87271">
        <ele>431.56</ele>
        <time>2021-02-04T13:39:25.753Z</time>
      </trkpt>
      <trkpt lat="46.96827" lon="6.87274">
        <ele>431.4</ele>
        <time>2021-02-04T13:39:27.921Z</time>
      </trkpt>
      <trkpt lat="46.96831" lon="6.87277">
        <ele>431.44</ele>
        <time>2021-02-04T13:39:32.568Z</time>
      </trkpt>
      <trkpt lat="46.96835" lon="6.87281">
        <ele>431.46</ele>
        <time>2021-02-04T13:39:37.348Z</time>
      </trkpt>
      <trkpt lat="46.96841" lon="6.87288">
        <ele>431.39</ele>
        <time>2021-02-04T13:39:40.020Z</time>
      </trkpt>
      <trkpt lat="46.96846" lon="6.87293">
        <ele>431.38</ele>
        <time>2021-02-04T13:39:45.628Z</time>
      </trkpt>
      <trkpt lat="46.96854" lon="6.87297">
        <ele>431.3</ele>
        <time>2021-02-04T13:39:48.560Z</time>
      </trkpt>
      <trkpt lat="46.96857" lon="6.87299">
        <ele>431.24</ele>
        <time>2021-02-04T13:39:49.584Z</time>
      </trkpt>
      <trkpt lat="46.96863" lon="6.87301">
        <ele>431.14</ele>
        <time>2021-02-04T13:39:51.541Z</time>
      </trkpt>
      <trkpt lat="46.96872" lon="6.87307">
        <ele>431.27</ele>
        <time>2021-02-04T13:40:02.217Z</time>
      </trkpt>
      <trkpt lat="46.96876" lon="6.8731">
        <ele>431.07</ele>
        <time>2021-02-04T13:40:03.278Z</time>
      </trkpt>
      <trkpt lat="46.96879" lon="6.87313">
        <ele>431.09</ele>
        <time>2021-02-04T13:40:06.911Z</time>
      </trkpt>
      <trkpt lat="46.96878" lon="6.87313">
        <ele>431.09</ele>
        <time>2021-02-04T13:40:07.861Z</time>
      </trkpt>
      <trkpt lat="46.96879" lon="6.87314">
        <ele>431.11</ele>
        <time>2021-02-04T13:40:09.216Z</time>
      </trkpt>
      <trkpt lat="46.96884" lon="6.8732">
        <ele>430.85</ele>
        <time>2021-02-04T13:40:10.804Z</time>
      </trkpt>
      <trkpt lat="46.96891" lon="6.87332">
        <ele>430.85</ele>
        <time>2021-02-04T13:40:21.035Z</time>
      </trkpt>
      <trkpt lat="46.96894" lon="6.87337">
        <ele>430.89</ele>
        <time>2021-02-04T13:40:25.729Z</time>
      </trkpt>
      <trkpt lat="46.96898" lon="6.8734">
        <ele>430.7</ele>
        <time>2021-02-04T13:40:26.812Z</time>
      </trkpt>
      <trkpt lat="46.96911" lon="6.87347">
        <ele>430.7</ele>
        <time>2021-02-04T13:40:39.966Z</time>
      </trkpt>
      <trkpt lat="46.9692" lon="6.87352">
        <ele>430.53</ele>
        <time>2021-02-04T13:40:42.975Z</time>
      </trkpt>
      <trkpt lat="46.96924" lon="6.87356">
        <ele>430.52</ele>
        <time>2021-02-04T13:40:47.433Z</time>
      </trkpt>
      <trkpt lat="46.96935" lon="6.87363">
        <ele>430.57</ele>
        <time>2021-02-04T13:40:59.275Z</time>
      </trkpt>
      <trkpt lat="46.96938" lon="6.87366">
        <ele>430.61</ele>
        <time>2021-02-04T13:41:03.111Z</time>
      </trkpt>
      <trkpt lat="46.96943" lon="6.87373">
        <ele>430.41</ele>
        <time>2021-02-04T13:41:05.015Z</time>
      </trkpt>
      <trkpt lat="46.96946" lon="6.87376">
        <ele>430.32</ele>
        <time>2021-02-04T13:41:06.061Z</time>
      </trkpt>
      <trkpt lat="46.96949" lon="6.87377">
        <ele>430.3</ele>
        <time>2021-02-04T13:41:08.718Z</time>
      </trkpt>
      <trkpt lat="46.96952" lon="6.87378">
        <ele>430.25</ele>
        <time>2021-02-04T13:41:09.696Z</time>
      </trkpt>
      <trkpt lat="46.96954" lon="6.87378">
        <ele>430.3</ele>
        <time>2021-02-04T13:41:12.160Z</time>
      </trkpt>
      <trkpt lat="46.96962" lon="6.87375">
        <ele>430.33</ele>
        <time>2021-02-04T13:41:20.273Z</time>
      </trkpt>
      <trkpt lat="46.96982" lon="6.87368">
        <ele>430.25</ele>
        <time>2021-02-04T13:41:38.703Z</time>
      </trkpt>
      <trkpt lat="46.9699" lon="6.87364">
        <ele>430.58</ele>
        <time>2021-02-04T13:41:51.200Z</time>
      </trkpt>
      <trkpt lat="46.97001" lon="6.8736">
        <ele>430.51</ele>
        <time>2021-02-04T13:42:01.033Z</time>
      </trkpt>
      <trkpt lat="46.97006" lon="6.87357">
        <ele>430.51</ele>
        <time>2021-02-04T13:42:06.165Z</time>
      </trkpt>
      <trkpt lat="46.97013" lon="6.87352">
        <ele>430.44</ele>
        <time>2021-02-04T13:42:08.884Z</time>
      </trkpt>
      <trkpt lat="46.97018" lon="6.87348">
        <ele>430.47</ele>
        <time>2021-02-04T13:42:14.568Z</time>
      </trkpt>
      <trkpt lat="46.97022" lon="6.87345">
        <ele>430.29</ele>
        <time>2021-02-04T13:42:15.674Z</time>
      </trkpt>
      <trkpt lat="46.97031" lon="6.87335">
        <ele>430.45</ele>
        <time>2021-02-04T13:42:28.000Z</time>
      </trkpt>
      <trkpt lat="46.97035" lon="6.87332">
        <ele>430.76</ele>
        <time>2021-02-04T13:42:36.523Z</time>
      </trkpt>
      <trkpt lat="46.97038" lon="6.87331">
        <ele>430.73</ele>
        <time>2021-02-04T13:42:37.586Z</time>
      </trkpt>
      <trkpt lat="46.97043" lon="6.87327">
        <ele>430.82</ele>
        <time>2021-02-04T13:42:43.912Z</time>
      </trkpt>
      <trkpt lat="46.97049" lon="6.87323">
        <ele>430.78</ele>
        <time>2021-02-04T13:42:49.640Z</time>
      </trkpt>
      <trkpt lat="46.97054" lon="6.8732">
        <ele>430.87</ele>
        <time>2021-02-04T13:42:55.695Z</time>
      </trkpt>
      <trkpt lat="46.97066" lon="6.87317">
        <ele>430.96</ele>
        <time>2021-02-04T13:43:08.096Z</time>
      </trkpt>
      <trkpt lat="46.97068" lon="6.87323">
        <ele>430.76</ele>
        <time>2021-02-04T13:43:09.179Z</time>
      </trkpt>
      <trkpt lat="46.97071" lon="6.87323">
        <ele>430.7</ele>
        <time>2021-02-04T13:43:10.091Z</time>
      </trkpt>
      <trkpt lat="46.97073" lon="6.87324">
        <ele>430.73</ele>
        <time>2021-02-04T13:43:12.398Z</time>
      </trkpt>
      <trkpt lat="46.97076" lon="6.87326">
        <ele>430.78</ele>
        <time>2021-02-04T13:43:16.033Z</time>
      </trkpt>
      <trkpt lat="46.97084" lon="6.87333">
        <ele>430.79</ele>
        <time>2021-02-04T13:43:24.970Z</time>
      </trkpt>
      <trkpt lat="46.97095" lon="6.87347">
        <ele>430.8</ele>
        <time>2021-02-04T13:43:38.895Z</time>
      </trkpt>
      <trkpt lat="46.97095" lon="6.87346">
        <ele>430.8</ele>
        <time>2021-02-04T13:43:39.543Z</time>
      </trkpt>
      <trkpt lat="46.97096" lon="6.87348">
        <ele>430.8</ele>
        <time>2021-02-04T13:43:41.150Z</time>
      </trkpt>
      <trkpt lat="46.97119" lon="6.87377">
        <ele>431</ele>
        <time>2021-02-04T13:44:11.818Z</time>
      </trkpt>
      <trkpt lat="46.97148" lon="6.87416">
        <ele>431</ele>
        <time>2021-02-04T13:44:49.200Z</time>
      </trkpt>
      <trkpt lat="46.97149" lon="6.87417">
        <ele>430.98</ele>
        <time>2021-02-04T13:44:49.583Z</time>
      </trkpt>
      <trkpt lat="46.97148" lon="6.87417">
        <ele>430.98</ele>
        <time>2021-02-04T13:44:50.533Z</time>
      </trkpt>
      <trkpt lat="46.97159" lon="6.87432">
        <ele>430.95</ele>
        <time>2021-02-04T13:45:04.380Z</time>
      </trkpt>
      <trkpt lat="46.97168" lon="6.87445">
        <ele>431.07</ele>
        <time>2021-02-04T13:45:17.525Z</time>
      </trkpt>
      <trkpt lat="46.97179" lon="6.87463">
        <ele>431.07</ele>
        <time>2021-02-04T13:45:33.184Z</time>
      </trkpt>
      <trkpt lat="46.97193" lon="6.87487">
        <ele>431.42</ele>
        <time>2021-02-04T13:45:57.224Z</time>
      </trkpt>
      <trkpt lat="46.97189" lon="6.8749">
        <ele>431.47</ele>
        <time>2021-02-04T13:46:01.976Z</time>
      </trkpt>
      <trkpt lat="46.97187" lon="6.87492">
        <ele>431.32</ele>
        <time>2021-02-04T13:46:02.469Z</time>
      </trkpt>
      <trkpt lat="46.97187" lon="6.87492">
        <ele>431.32</ele>
        <time>2021-02-04T13:46:02.469Z</time>
      </trkpt>
      <trkpt lat="46.9717" lon="6.87504">
        <ele>431.18</ele>
        <time>2021-02-04T13:46:09.200Z</time>
      </trkpt>
      <trkpt lat="46.97174" lon="6.87513">
        <ele>431.13</ele>
        <time>2021-02-04T13:46:15.502Z</time>
      </trkpt>
      <trkpt lat="46.97179" lon="6.87526">
        <ele>430.9</ele>
        <time>2021-02-04T13:46:18.507Z</time>
      </trkpt>
      <trkpt lat="46.97182" lon="6.87533">
        <ele>430.71</ele>
        <time>2021-02-04T13:46:19.985Z</time>
      </trkpt>
      <trkpt lat="46.97186" lon="6.8754">
        <ele>430.66</ele>
        <time>2021-02-04T13:46:22.188Z</time>
      </trkpt>
      <trkpt lat="46.9719" lon="6.87546">
        <ele>430.61</ele>
        <time>2021-02-04T13:46:24.194Z</time>
      </trkpt>
      <trkpt lat="46.97193" lon="6.87548">
        <ele>430.43</ele>
        <time>2021-02-04T13:46:24.907Z</time>
      </trkpt>
      <trkpt lat="46.97193" lon="6.8755">
        <ele>430.47</ele>
        <time>2021-02-04T13:46:26.678Z</time>
      </trkpt>
      <trkpt lat="46.97193" lon="6.87549">
        <ele>430.47</ele>
        <time>2021-02-04T13:46:27.326Z</time>
      </trkpt>
      <trkpt lat="46.97199" lon="6.87562">
        <ele>430.52</ele>
        <time>2021-02-04T13:46:37.952Z</time>
      </trkpt>
      <trkpt lat="46.97207" lon="6.87556">
        <ele>429.02</ele>
        <time>2021-02-04T13:46:39.880Z</time>
      </trkpt>
      <trkpt lat="46.9721" lon="6.87553">
        <ele>428.94</ele>
        <time>2021-02-04T13:46:40.958Z</time>
      </trkpt>
      <trkpt lat="46.97211" lon="6.87552">
        <ele>428.94</ele>
        <time>2021-02-04T13:46:42.108Z</time>
      </trkpt>
      <trkpt lat="46.97261" lon="6.87507">
        <ele>428.43</ele>
        <time>2021-02-04T13:47:02.677Z</time>
      </trkpt>
      <trkpt lat="46.97262" lon="6.87508">
        <ele>428.43</ele>
        <time>2021-02-04T13:47:03.827Z</time>
      </trkpt>
      <trkpt lat="46.97263" lon="6.87509">
        <ele>428.43</ele>
        <time>2021-02-04T13:47:04.977Z</time>
      </trkpt>
      <trkpt lat="46.97264" lon="6.87512">
        <ele>428.62</ele>
        <time>2021-02-04T13:47:09.820Z</time>
      </trkpt>
      <trkpt lat="46.97269" lon="6.87524">
        <ele>429.38</ele>
        <time>2021-02-04T13:47:29.525Z</time>
      </trkpt>
      <trkpt lat="46.97271" lon="6.87525">
        <ele>429.38</ele>
        <time>2021-02-04T13:47:31.532Z</time>
      </trkpt>
      <trkpt lat="46.97272" lon="6.87524">
        <ele>429.38</ele>
        <time>2021-02-04T13:47:32.681Z</time>
      </trkpt>
      <trkpt lat="46.97272" lon="6.87523">
        <ele>429.38</ele>
        <time>2021-02-04T13:47:33.329Z</time>
      </trkpt>
      <trkpt lat="46.97272" lon="6.87522">
        <ele>429.38</ele>
        <time>2021-02-04T13:47:33.977Z</time>
      </trkpt>
      <trkpt lat="46.97271" lon="6.87517">
        <ele>429.6</ele>
        <time>2021-02-04T13:47:40.380Z</time>
      </trkpt>
      <trkpt lat="46.97269" lon="6.87507">
        <ele>430.13</ele>
        <time>2021-02-04T13:47:54.450Z</time>
      </trkpt>
      <trkpt lat="46.97269" lon="6.87506">
        <ele>430.13</ele>
        <time>2021-02-04T13:47:55.098Z</time>
      </trkpt>
      <trkpt lat="46.97271" lon="6.87505">
        <ele>430.13</ele>
        <time>2021-02-04T13:47:57.105Z</time>
      </trkpt>
      <trkpt lat="46.97277" lon="6.87503">
        <ele>430.45</ele>
        <time>2021-02-04T13:48:07.460Z</time>
      </trkpt>
      <trkpt lat="46.97283" lon="6.87501">
        <ele>430.55</ele>
        <time>2021-02-04T13:48:14.326Z</time>
      </trkpt>
      <trkpt lat="46.97286" lon="6.87499">
        <ele>430.61</ele>
        <time>2021-02-04T13:48:18.083Z</time>
      </trkpt>
      <trkpt lat="46.9729" lon="6.87491">
        <ele>430.73</ele>
        <time>2021-02-04T13:48:25.756Z</time>
      </trkpt>
      <trkpt lat="46.97301" lon="6.8751">
        <ele>430.59</ele>
        <time>2021-02-04T13:48:31.754Z</time>
      </trkpt>
    </trkseg>
  </trk>
</gpx>